<?xml version='1.0' encoding='UTF-8'?>
<gpx version="1.1" creator="https://www.komoot.de" xmlns="http://www.topografix.com/GPX/1/1" xmlns:xsi="http://www.w3.org/2001/XMLSchema-instance" xsi:schemaLocation="http://www.topografix.com/GPX/1/1 http://www.topografix.com/GPX/1/1/gpx.xsd">
  <metadata>
    <name>260505 Groningen Ride: Stadspark</name>
    <author>
      <link href="https://www.komoot.de">
        <text>komoot</text>
        <type>text/html</type>
      </link>
    </author>
  </metadata>
  <trk>
    <name>260505 Groningen Ride: Stadspark</name>
    <trkseg>
      <trkpt lat="53.223831" lon="6.566347">
        <ele>43.546902</ele>
        <time>2026-05-05T15:53:01.636Z</time>
      </trkpt>
      <trkpt lat="53.223755" lon="6.566433">
        <ele>43.546902</ele>
        <time>2026-05-05T15:53:06.636Z</time>
      </trkpt>
      <trkpt lat="53.223726" lon="6.566595">
        <ele>43.546902</ele>
        <time>2026-05-05T15:53:20.641Z</time>
      </trkpt>
      <trkpt lat="53.223664" lon="6.566733">
        <ele>43.546902</ele>
        <time>2026-05-05T15:53:28.631Z</time>
      </trkpt>
      <trkpt lat="53.223591" lon="6.566831">
        <ele>43.546902</ele>
        <time>2026-05-05T15:53:34.639Z</time>
      </trkpt>
      <trkpt lat="53.223506" lon="6.566941">
        <ele>43.546902</ele>
        <time>2026-05-05T15:53:39.629Z</time>
      </trkpt>
      <trkpt lat="53.223434" lon="6.567077">
        <ele>43.546902</ele>
        <time>2026-05-05T15:53:44.640Z</time>
      </trkpt>
      <trkpt lat="53.223374" lon="6.567212">
        <ele>43.546902</ele>
        <time>2026-05-05T15:53:48.639Z</time>
      </trkpt>
      <trkpt lat="53.223307" lon="6.567319">
        <ele>43.546902</ele>
        <time>2026-05-05T15:53:52.631Z</time>
      </trkpt>
      <trkpt lat="53.223242" lon="6.567451">
        <ele>43.544626</ele>
        <time>2026-05-05T15:53:59.639Z</time>
      </trkpt>
      <trkpt lat="53.223149" lon="6.567544">
        <ele>43.448241</ele>
        <time>2026-05-05T15:54:04.639Z</time>
      </trkpt>
      <trkpt lat="53.222994" lon="6.567397">
        <ele>43.289746</ele>
        <time>2026-05-05T15:54:41.645Z</time>
      </trkpt>
      <trkpt lat="53.222947" lon="6.567223">
        <ele>43.188122</ele>
        <time>2026-05-05T15:54:44.640Z</time>
      </trkpt>
      <trkpt lat="53.222887" lon="6.567058">
        <ele>43.085348</ele>
        <time>2026-05-05T15:54:47.640Z</time>
      </trkpt>
      <trkpt lat="53.222825" lon="6.566892">
        <ele>42.981187</ele>
        <time>2026-05-05T15:54:50.642Z</time>
      </trkpt>
      <trkpt lat="53.222774" lon="6.566717">
        <ele>42.877571</ele>
        <time>2026-05-05T15:54:53.642Z</time>
      </trkpt>
      <trkpt lat="53.222730" lon="6.566560">
        <ele>42.785284</ele>
        <time>2026-05-05T15:54:56.648Z</time>
      </trkpt>
      <trkpt lat="53.222685" lon="6.566414">
        <ele>42.697862</ele>
        <time>2026-05-05T15:54:59.636Z</time>
      </trkpt>
      <trkpt lat="53.222645" lon="6.566255">
        <ele>42.606045</ele>
        <time>2026-05-05T15:55:02.640Z</time>
      </trkpt>
      <trkpt lat="53.222578" lon="6.566075">
        <ele>42.493208</ele>
        <time>2026-05-05T15:55:05.640Z</time>
      </trkpt>
      <trkpt lat="53.222512" lon="6.565899">
        <ele>42.382647</ele>
        <time>2026-05-05T15:55:08.641Z</time>
      </trkpt>
      <trkpt lat="53.222459" lon="6.565730">
        <ele>42.281080</ele>
        <time>2026-05-05T15:55:11.641Z</time>
      </trkpt>
      <trkpt lat="53.222405" lon="6.565546">
        <ele>42.171986</ele>
        <time>2026-05-05T15:55:14.644Z</time>
      </trkpt>
      <trkpt lat="53.222356" lon="6.565390">
        <ele>42.078200</ele>
        <time>2026-05-05T15:55:17.638Z</time>
      </trkpt>
      <trkpt lat="53.222321" lon="6.565245">
        <ele>41.994967</ele>
        <time>2026-05-05T15:55:22.640Z</time>
      </trkpt>
      <trkpt lat="53.222275" lon="6.565090">
        <ele>41.989165</ele>
        <time>2026-05-05T15:55:34.642Z</time>
      </trkpt>
      <trkpt lat="53.222217" lon="6.564936">
        <ele>42.079445</ele>
        <time>2026-05-05T15:55:37.643Z</time>
      </trkpt>
      <trkpt lat="53.222155" lon="6.564755">
        <ele>42.182921</ele>
        <time>2026-05-05T15:55:40.641Z</time>
      </trkpt>
      <trkpt lat="53.222094" lon="6.564564">
        <ele>42.290340</ele>
        <time>2026-05-05T15:55:43.646Z</time>
      </trkpt>
      <trkpt lat="53.222027" lon="6.564362">
        <ele>42.404930</ele>
        <time>2026-05-05T15:55:46.641Z</time>
      </trkpt>
      <trkpt lat="53.221980" lon="6.564222">
        <ele>42.484577</ele>
        <time>2026-05-05T15:55:48.639Z</time>
      </trkpt>
      <trkpt lat="53.221930" lon="6.564053">
        <ele>42.578118</ele>
        <time>2026-05-05T15:55:50.643Z</time>
      </trkpt>
      <trkpt lat="53.221879" lon="6.563893">
        <ele>42.668064</ele>
        <time>2026-05-05T15:55:52.640Z</time>
      </trkpt>
      <trkpt lat="53.221825" lon="6.563729">
        <ele>42.760940</ele>
        <time>2026-05-05T15:55:54.636Z</time>
      </trkpt>
      <trkpt lat="53.221773" lon="6.563579">
        <ele>42.846950</ele>
        <time>2026-05-05T15:55:56.640Z</time>
      </trkpt>
      <trkpt lat="53.221731" lon="6.563425">
        <ele>42.930923</ele>
        <time>2026-05-05T15:55:58.642Z</time>
      </trkpt>
      <trkpt lat="53.221691" lon="6.563276">
        <ele>43.011953</ele>
        <time>2026-05-05T15:56:00.639Z</time>
      </trkpt>
      <trkpt lat="53.221654" lon="6.563132">
        <ele>43.089711</ele>
        <time>2026-05-05T15:56:02.638Z</time>
      </trkpt>
      <trkpt lat="53.221605" lon="6.562993">
        <ele>43.169754</ele>
        <time>2026-05-05T15:56:04.642Z</time>
      </trkpt>
      <trkpt lat="53.221558" lon="6.562815">
        <ele>43.266290</ele>
        <time>2026-05-05T15:56:07.642Z</time>
      </trkpt>
      <trkpt lat="53.221496" lon="6.562650">
        <ele>43.362957</ele>
        <time>2026-05-05T15:56:10.638Z</time>
      </trkpt>
      <trkpt lat="53.221378" lon="6.562633">
        <ele>43.471545</ele>
        <time>2026-05-05T15:56:13.638Z</time>
      </trkpt>
      <trkpt lat="53.221299" lon="6.562704">
        <ele>43.579812</ele>
        <time>2026-05-05T15:56:15.638Z</time>
      </trkpt>
      <trkpt lat="53.221224" lon="6.562795">
        <ele>43.691688</ele>
        <time>2026-05-05T15:56:19.639Z</time>
      </trkpt>
      <trkpt lat="53.221129" lon="6.562894">
        <ele>43.826824</ele>
        <time>2026-05-05T15:56:25.638Z</time>
      </trkpt>
      <trkpt lat="53.221047" lon="6.562984">
        <ele>43.945240</ele>
        <time>2026-05-05T15:56:28.638Z</time>
      </trkpt>
      <trkpt lat="53.220958" lon="6.563061">
        <ele>44.066204</ele>
        <time>2026-05-05T15:56:31.637Z</time>
      </trkpt>
      <trkpt lat="53.220859" lon="6.562999">
        <ele>44.193804</ele>
        <time>2026-05-05T15:56:36.639Z</time>
      </trkpt>
      <trkpt lat="53.220818" lon="6.562828">
        <ele>44.326904</ele>
        <time>2026-05-05T15:56:39.636Z</time>
      </trkpt>
      <trkpt lat="53.220773" lon="6.562642">
        <ele>44.471860</ele>
        <time>2026-05-05T15:56:42.634Z</time>
      </trkpt>
      <trkpt lat="53.220718" lon="6.562459">
        <ele>44.619816</ele>
        <time>2026-05-05T15:56:45.637Z</time>
      </trkpt>
      <trkpt lat="53.220670" lon="6.562276">
        <ele>44.764180</ele>
        <time>2026-05-05T15:56:48.637Z</time>
      </trkpt>
      <trkpt lat="53.220620" lon="6.562096">
        <ele>44.907560</ele>
        <time>2026-05-05T15:56:51.637Z</time>
      </trkpt>
      <trkpt lat="53.220564" lon="6.561919">
        <ele>45.052215</ele>
        <time>2026-05-05T15:56:54.635Z</time>
      </trkpt>
      <trkpt lat="53.220499" lon="6.561744">
        <ele>45.201022</ele>
        <time>2026-05-05T15:56:57.634Z</time>
      </trkpt>
      <trkpt lat="53.220451" lon="6.561615">
        <ele>45.310769</ele>
        <time>2026-05-05T15:56:59.643Z</time>
      </trkpt>
      <trkpt lat="53.220400" lon="6.561485">
        <ele>45.423073</ele>
        <time>2026-05-05T15:57:01.637Z</time>
      </trkpt>
      <trkpt lat="53.220352" lon="6.561327">
        <ele>45.551096</ele>
        <time>2026-05-05T15:57:04.636Z</time>
      </trkpt>
      <trkpt lat="53.220279" lon="6.561220">
        <ele>45.573978</ele>
        <time>2026-05-05T15:57:08.636Z</time>
      </trkpt>
      <trkpt lat="53.220170" lon="6.561280">
        <ele>45.492425</ele>
        <time>2026-05-05T15:57:11.641Z</time>
      </trkpt>
      <trkpt lat="53.220089" lon="6.561361">
        <ele>45.425339</ele>
        <time>2026-05-05T15:57:13.636Z</time>
      </trkpt>
      <trkpt lat="53.219971" lon="6.561459">
        <ele>45.331695</ele>
        <time>2026-05-05T15:57:16.644Z</time>
      </trkpt>
      <trkpt lat="53.219887" lon="6.561520">
        <ele>45.266608</ele>
        <time>2026-05-05T15:57:18.641Z</time>
      </trkpt>
      <trkpt lat="53.219766" lon="6.561598">
        <ele>45.174444</ele>
        <time>2026-05-05T15:57:21.635Z</time>
      </trkpt>
      <trkpt lat="53.219682" lon="6.561653">
        <ele>45.110332</ele>
        <time>2026-05-05T15:57:23.636Z</time>
      </trkpt>
      <trkpt lat="53.219594" lon="6.561714">
        <ele>45.042628</ele>
        <time>2026-05-05T15:57:25.634Z</time>
      </trkpt>
      <trkpt lat="53.219514" lon="6.561783">
        <ele>44.978648</ele>
        <time>2026-05-05T15:57:27.638Z</time>
      </trkpt>
      <trkpt lat="53.219396" lon="6.561880">
        <ele>44.885192</ele>
        <time>2026-05-05T15:57:30.638Z</time>
      </trkpt>
      <trkpt lat="53.219315" lon="6.561958">
        <ele>44.818752</ele>
        <time>2026-05-05T15:57:32.638Z</time>
      </trkpt>
      <trkpt lat="53.219226" lon="6.562024">
        <ele>44.749556</ele>
        <time>2026-05-05T15:57:34.638Z</time>
      </trkpt>
      <trkpt lat="53.219107" lon="6.562121">
        <ele>44.655462</ele>
        <time>2026-05-05T15:57:37.637Z</time>
      </trkpt>
      <trkpt lat="53.219020" lon="6.562191">
        <ele>44.586841</ele>
        <time>2026-05-05T15:57:39.639Z</time>
      </trkpt>
      <trkpt lat="53.218939" lon="6.562262">
        <ele>44.521837</ele>
        <time>2026-05-05T15:57:41.637Z</time>
      </trkpt>
      <trkpt lat="53.218823" lon="6.562358">
        <ele>44.429844</ele>
        <time>2026-05-05T15:57:44.635Z</time>
      </trkpt>
      <trkpt lat="53.218706" lon="6.562468">
        <ele>44.334437</ele>
        <time>2026-05-05T15:57:47.636Z</time>
      </trkpt>
      <trkpt lat="53.218623" lon="6.562552">
        <ele>44.495429</ele>
        <time>2026-05-05T15:57:49.642Z</time>
      </trkpt>
      <trkpt lat="53.218539" lon="6.562640">
        <ele>44.672843</ele>
        <time>2026-05-05T15:57:51.634Z</time>
      </trkpt>
      <trkpt lat="53.218451" lon="6.562721">
        <ele>44.852622</ele>
        <time>2026-05-05T15:57:53.634Z</time>
      </trkpt>
      <trkpt lat="53.218370" lon="6.562800">
        <ele>45.020450</ele>
        <time>2026-05-05T15:57:55.632Z</time>
      </trkpt>
      <trkpt lat="53.218289" lon="6.562864">
        <ele>45.180776</ele>
        <time>2026-05-05T15:57:57.642Z</time>
      </trkpt>
      <trkpt lat="53.218172" lon="6.562971">
        <ele>45.419444</ele>
        <time>2026-05-05T15:58:00.639Z</time>
      </trkpt>
      <trkpt lat="53.218059" lon="6.563045">
        <ele>45.636611</ele>
        <time>2026-05-05T15:58:03.637Z</time>
      </trkpt>
      <trkpt lat="53.217943" lon="6.563145">
        <ele>45.870177</ele>
        <time>2026-05-05T15:58:06.634Z</time>
      </trkpt>
      <trkpt lat="53.217827" lon="6.563234">
        <ele>46.098579</ele>
        <time>2026-05-05T15:58:09.643Z</time>
      </trkpt>
      <trkpt lat="53.217705" lon="6.563320">
        <ele>46.335509</ele>
        <time>2026-05-05T15:58:12.635Z</time>
      </trkpt>
      <trkpt lat="53.217581" lon="6.563408">
        <ele>46.576570</ele>
        <time>2026-05-05T15:58:15.641Z</time>
      </trkpt>
      <trkpt lat="53.217497" lon="6.563467">
        <ele>46.739614</ele>
        <time>2026-05-05T15:58:17.641Z</time>
      </trkpt>
      <trkpt lat="53.217371" lon="6.563554">
        <ele>46.983562</ele>
        <time>2026-05-05T15:58:20.640Z</time>
      </trkpt>
      <trkpt lat="53.217257" lon="6.563641">
        <ele>47.207818</ele>
        <time>2026-05-05T15:58:23.639Z</time>
      </trkpt>
      <trkpt lat="53.217170" lon="6.563705">
        <ele>47.377911</ele>
        <time>2026-05-05T15:58:26.641Z</time>
      </trkpt>
      <trkpt lat="53.217081" lon="6.563746">
        <ele>47.543097</ele>
        <time>2026-05-05T15:58:38.639Z</time>
      </trkpt>
      <trkpt lat="53.216994" lon="6.563815">
        <ele>47.481027</ele>
        <time>2026-05-05T15:58:48.645Z</time>
      </trkpt>
      <trkpt lat="53.216898" lon="6.563887">
        <ele>47.404157</ele>
        <time>2026-05-05T15:58:52.642Z</time>
      </trkpt>
      <trkpt lat="53.216800" lon="6.563939">
        <ele>47.329048</ele>
        <time>2026-05-05T15:58:56.638Z</time>
      </trkpt>
      <trkpt lat="53.216704" lon="6.563987">
        <ele>47.255850</ele>
        <time>2026-05-05T15:59:00.637Z</time>
      </trkpt>
      <trkpt lat="53.216619" lon="6.564045">
        <ele>47.188779</ele>
        <time>2026-05-05T15:59:03.641Z</time>
      </trkpt>
      <trkpt lat="53.216525" lon="6.564104">
        <ele>47.115428</ele>
        <time>2026-05-05T15:59:06.642Z</time>
      </trkpt>
      <trkpt lat="53.216430" lon="6.564178">
        <ele>47.038859</ele>
        <time>2026-05-05T15:59:09.637Z</time>
      </trkpt>
      <trkpt lat="53.216344" lon="6.564235">
        <ele>46.971274</ele>
        <time>2026-05-05T15:59:12.641Z</time>
      </trkpt>
      <trkpt lat="53.216251" lon="6.564331">
        <ele>46.891413</ele>
        <time>2026-05-05T15:59:17.640Z</time>
      </trkpt>
      <trkpt lat="53.216158" lon="6.564428">
        <ele>46.811322</ele>
        <time>2026-05-05T15:59:21.640Z</time>
      </trkpt>
      <trkpt lat="53.216071" lon="6.564490">
        <ele>46.742229</ele>
        <time>2026-05-05T15:59:24.633Z</time>
      </trkpt>
      <trkpt lat="53.215979" lon="6.564566">
        <ele>46.667256</ele>
        <time>2026-05-05T15:59:27.636Z</time>
      </trkpt>
      <trkpt lat="53.215885" lon="6.564635">
        <ele>46.592254</ele>
        <time>2026-05-05T15:59:30.641Z</time>
      </trkpt>
      <trkpt lat="53.215787" lon="6.564687">
        <ele>46.517144</ele>
        <time>2026-05-05T15:59:33.639Z</time>
      </trkpt>
      <trkpt lat="53.215687" lon="6.564694">
        <ele>46.444035</ele>
        <time>2026-05-05T15:59:37.645Z</time>
      </trkpt>
      <trkpt lat="53.215650" lon="6.564517">
        <ele>46.362035</ele>
        <time>2026-05-05T15:59:41.639Z</time>
      </trkpt>
      <trkpt lat="53.215617" lon="6.564369">
        <ele>46.292959</ele>
        <time>2026-05-05T15:59:44.642Z</time>
      </trkpt>
      <trkpt lat="53.215589" lon="6.564226">
        <ele>46.223695</ele>
        <time>2026-05-05T15:59:47.642Z</time>
      </trkpt>
      <trkpt lat="53.215556" lon="6.564077">
        <ele>46.124236</ele>
        <time>2026-05-05T15:59:50.643Z</time>
      </trkpt>
      <trkpt lat="53.215520" lon="6.563930">
        <ele>46.024806</ele>
        <time>2026-05-05T15:59:53.640Z</time>
      </trkpt>
      <trkpt lat="53.215487" lon="6.563782">
        <ele>45.925934</ele>
        <time>2026-05-05T15:59:56.644Z</time>
      </trkpt>
      <trkpt lat="53.215456" lon="6.563634">
        <ele>45.827772</ele>
        <time>2026-05-05T15:59:59.642Z</time>
      </trkpt>
      <trkpt lat="53.215425" lon="6.563484">
        <ele>45.728427</ele>
        <time>2026-05-05T16:00:03.641Z</time>
      </trkpt>
      <trkpt lat="53.215320" lon="6.563505">
        <ele>45.617864</ele>
        <time>2026-05-05T16:00:08.642Z</time>
      </trkpt>
      <trkpt lat="53.215224" lon="6.563595">
        <ele>45.502761</ele>
        <time>2026-05-05T16:00:11.641Z</time>
      </trkpt>
      <trkpt lat="53.215126" lon="6.563668">
        <ele>45.390570</ele>
        <time>2026-05-05T16:00:14.639Z</time>
      </trkpt>
      <trkpt lat="53.215026" lon="6.563733">
        <ele>45.278378</ele>
        <time>2026-05-05T16:00:17.639Z</time>
      </trkpt>
      <trkpt lat="53.214926" lon="6.563795">
        <ele>45.166854</ele>
        <time>2026-05-05T16:00:20.633Z</time>
      </trkpt>
      <trkpt lat="53.214832" lon="6.563857">
        <ele>45.061188</ele>
        <time>2026-05-05T16:00:23.638Z</time>
      </trkpt>
      <trkpt lat="53.214739" lon="6.563846">
        <ele>44.963712</ele>
        <time>2026-05-05T16:00:27.637Z</time>
      </trkpt>
      <trkpt lat="53.214632" lon="6.563789">
        <ele>44.846288</ele>
        <time>2026-05-05T16:00:32.636Z</time>
      </trkpt>
      <trkpt lat="53.214549" lon="6.563689">
        <ele>44.739284</ele>
        <time>2026-05-05T16:00:37.644Z</time>
      </trkpt>
      <trkpt lat="53.214470" lon="6.563576">
        <ele>44.630531</ele>
        <time>2026-05-05T16:00:48.637Z</time>
      </trkpt>
      <trkpt lat="53.214368" lon="6.563538">
        <ele>44.521268</ele>
        <time>2026-05-05T16:00:52.635Z</time>
      </trkpt>
      <trkpt lat="53.214268" lon="6.563512">
        <ele>44.415457</ele>
        <time>2026-05-05T16:00:56.633Z</time>
      </trkpt>
      <trkpt lat="53.214148" lon="6.563515">
        <ele>44.189573</ele>
        <time>2026-05-05T16:01:00.632Z</time>
      </trkpt>
      <trkpt lat="53.214035" lon="6.563546">
        <ele>43.883999</ele>
        <time>2026-05-05T16:01:03.630Z</time>
      </trkpt>
      <trkpt lat="53.213935" lon="6.563599">
        <ele>43.604038</ele>
        <time>2026-05-05T16:01:06.633Z</time>
      </trkpt>
      <trkpt lat="53.213836" lon="6.563658">
        <ele>43.323545</ele>
        <time>2026-05-05T16:01:09.638Z</time>
      </trkpt>
      <trkpt lat="53.213742" lon="6.563716">
        <ele>43.056138</ele>
        <time>2026-05-05T16:01:12.635Z</time>
      </trkpt>
      <trkpt lat="53.213646" lon="6.563785">
        <ele>42.777248</ele>
        <time>2026-05-05T16:01:15.634Z</time>
      </trkpt>
      <trkpt lat="53.213558" lon="6.563833">
        <ele>42.530217</ele>
        <time>2026-05-05T16:01:18.640Z</time>
      </trkpt>
      <trkpt lat="53.213524" lon="6.563692">
        <ele>42.287325</ele>
        <time>2026-05-05T16:01:21.630Z</time>
      </trkpt>
      <trkpt lat="53.213572" lon="6.563495">
        <ele>41.947470</ele>
        <time>2026-05-05T16:01:24.636Z</time>
      </trkpt>
      <trkpt lat="53.213637" lon="6.563325">
        <ele>41.625168</ele>
        <time>2026-05-05T16:01:27.644Z</time>
      </trkpt>
      <trkpt lat="53.213691" lon="6.563147">
        <ele>41.306317</ele>
        <time>2026-05-05T16:01:30.637Z</time>
      </trkpt>
      <trkpt lat="53.213740" lon="6.562979">
        <ele>41.007714</ele>
        <time>2026-05-05T16:01:33.636Z</time>
      </trkpt>
      <trkpt lat="53.213786" lon="6.562807">
        <ele>40.706703</ele>
        <time>2026-05-05T16:01:36.637Z</time>
      </trkpt>
      <trkpt lat="53.213830" lon="6.562647">
        <ele>40.425363</ele>
        <time>2026-05-05T16:01:39.639Z</time>
      </trkpt>
      <trkpt lat="53.213876" lon="6.562499">
        <ele>40.158911</ele>
        <time>2026-05-05T16:01:46.636Z</time>
      </trkpt>
      <trkpt lat="53.213902" lon="6.562306">
        <ele>39.842802</ele>
        <time>2026-05-05T16:01:50.642Z</time>
      </trkpt>
      <trkpt lat="53.213939" lon="6.562134">
        <ele>39.555322</ele>
        <time>2026-05-05T16:01:53.640Z</time>
      </trkpt>
      <trkpt lat="53.213985" lon="6.561962">
        <ele>39.569862</ele>
        <time>2026-05-05T16:01:56.640Z</time>
      </trkpt>
      <trkpt lat="53.214032" lon="6.561783">
        <ele>39.584948</ele>
        <time>2026-05-05T16:01:59.639Z</time>
      </trkpt>
      <trkpt lat="53.214080" lon="6.561608">
        <ele>39.599805</ele>
        <time>2026-05-05T16:02:02.633Z</time>
      </trkpt>
      <trkpt lat="53.214143" lon="6.561441">
        <ele>39.615039</ele>
        <time>2026-05-05T16:02:05.634Z</time>
      </trkpt>
      <trkpt lat="53.214213" lon="6.561292">
        <ele>39.629657</ele>
        <time>2026-05-05T16:02:08.631Z</time>
      </trkpt>
      <trkpt lat="53.214285" lon="6.561147">
        <ele>39.644195</ele>
        <time>2026-05-05T16:02:11.635Z</time>
      </trkpt>
      <trkpt lat="53.214362" lon="6.561003">
        <ele>39.659096</ele>
        <time>2026-05-05T16:02:14.631Z</time>
      </trkpt>
      <trkpt lat="53.214443" lon="6.560871">
        <ele>39.673684</ele>
        <time>2026-05-05T16:02:17.639Z</time>
      </trkpt>
      <trkpt lat="53.214525" lon="6.560744">
        <ele>39.688099</ele>
        <time>2026-05-05T16:02:20.629Z</time>
      </trkpt>
      <trkpt lat="53.214607" lon="6.560608">
        <ele>39.702996</ele>
        <time>2026-05-05T16:02:23.637Z</time>
      </trkpt>
      <trkpt lat="53.214698" lon="6.560483">
        <ele>39.718183</ele>
        <time>2026-05-05T16:02:26.636Z</time>
      </trkpt>
      <trkpt lat="53.214777" lon="6.560333">
        <ele>39.733601</ele>
        <time>2026-05-05T16:02:29.637Z</time>
      </trkpt>
      <trkpt lat="53.214852" lon="6.560206">
        <ele>39.747369</ele>
        <time>2026-05-05T16:02:32.635Z</time>
      </trkpt>
      <trkpt lat="53.214891" lon="6.560054">
        <ele>39.760132</ele>
        <time>2026-05-05T16:02:35.637Z</time>
      </trkpt>
      <trkpt lat="53.214882" lon="6.559864">
        <ele>39.774843</ele>
        <time>2026-05-05T16:02:38.638Z</time>
      </trkpt>
      <trkpt lat="53.214882" lon="6.559665">
        <ele>39.793915</ele>
        <time>2026-05-05T16:02:41.637Z</time>
      </trkpt>
      <trkpt lat="53.214888" lon="6.559510">
        <ele>39.819573</ele>
        <time>2026-05-05T16:02:44.635Z</time>
      </trkpt>
      <trkpt lat="53.214898" lon="6.559344">
        <ele>39.847132</ele>
        <time>2026-05-05T16:02:47.643Z</time>
      </trkpt>
      <trkpt lat="53.214890" lon="6.559179">
        <ele>39.874478</ele>
        <time>2026-05-05T16:02:50.637Z</time>
      </trkpt>
      <trkpt lat="53.214804" lon="6.559057">
        <ele>39.905606</ele>
        <time>2026-05-05T16:02:54.634Z</time>
      </trkpt>
      <trkpt lat="53.214692" lon="6.559011">
        <ele>39.937422</ele>
        <time>2026-05-05T16:02:57.636Z</time>
      </trkpt>
      <trkpt lat="53.214566" lon="6.558963">
        <ele>39.973073</ele>
        <time>2026-05-05T16:03:00.637Z</time>
      </trkpt>
      <trkpt lat="53.214476" lon="6.558937">
        <ele>39.998269</ele>
        <time>2026-05-05T16:03:02.641Z</time>
      </trkpt>
      <trkpt lat="53.214354" lon="6.558904">
        <ele>40.032362</ele>
        <time>2026-05-05T16:03:05.636Z</time>
      </trkpt>
      <trkpt lat="53.214251" lon="6.558857">
        <ele>40.061817</ele>
        <time>2026-05-05T16:03:08.632Z</time>
      </trkpt>
      <trkpt lat="53.214218" lon="6.558687">
        <ele>40.091338</ele>
        <time>2026-05-05T16:03:12.638Z</time>
      </trkpt>
      <trkpt lat="53.214228" lon="6.558523">
        <ele>40.118570</ele>
        <time>2026-05-05T16:03:15.639Z</time>
      </trkpt>
      <trkpt lat="53.214158" lon="6.558426">
        <ele>40.143662</ele>
        <time>2026-05-05T16:03:19.634Z</time>
      </trkpt>
      <trkpt lat="53.214055" lon="6.558383">
        <ele>40.172950</ele>
        <time>2026-05-05T16:03:23.638Z</time>
      </trkpt>
      <trkpt lat="53.213942" lon="6.558316">
        <ele>40.206028</ele>
        <time>2026-05-05T16:03:27.636Z</time>
      </trkpt>
      <trkpt lat="53.213872" lon="6.558215">
        <ele>40.231548</ele>
        <time>2026-05-05T16:03:30.636Z</time>
      </trkpt>
      <trkpt lat="53.213780" lon="6.558177">
        <ele>40.257691</ele>
        <time>2026-05-05T16:03:33.636Z</time>
      </trkpt>
      <trkpt lat="53.213686" lon="6.558154">
        <ele>40.286873</ele>
        <time>2026-05-05T16:03:36.636Z</time>
      </trkpt>
      <trkpt lat="53.213599" lon="6.558070">
        <ele>40.419725</ele>
        <time>2026-05-05T16:03:48.632Z</time>
      </trkpt>
      <trkpt lat="53.213559" lon="6.557931">
        <ele>40.541810</ele>
        <time>2026-05-05T16:03:53.634Z</time>
      </trkpt>
      <trkpt lat="53.213451" lon="6.557952">
        <ele>40.685548</ele>
        <time>2026-05-05T16:03:57.636Z</time>
      </trkpt>
      <trkpt lat="53.213336" lon="6.557989">
        <ele>40.840371</ele>
        <time>2026-05-05T16:04:01.639Z</time>
      </trkpt>
      <trkpt lat="53.213226" lon="6.557968">
        <ele>40.986736</ele>
        <time>2026-05-05T16:04:05.640Z</time>
      </trkpt>
      <trkpt lat="53.213130" lon="6.557999">
        <ele>41.115997</ele>
        <time>2026-05-05T16:04:11.639Z</time>
      </trkpt>
      <trkpt lat="53.213071" lon="6.558127">
        <ele>41.243870</ele>
        <time>2026-05-05T16:04:14.638Z</time>
      </trkpt>
      <trkpt lat="53.212983" lon="6.558229">
        <ele>41.385482</ele>
        <time>2026-05-05T16:04:17.634Z</time>
      </trkpt>
      <trkpt lat="53.212894" lon="6.558284">
        <ele>41.510936</ele>
        <time>2026-05-05T16:04:20.635Z</time>
      </trkpt>
      <trkpt lat="53.212791" lon="6.558329">
        <ele>41.651683</ele>
        <time>2026-05-05T16:04:25.636Z</time>
      </trkpt>
      <trkpt lat="53.212694" lon="6.558344">
        <ele>41.780463</ele>
        <time>2026-05-05T16:04:29.636Z</time>
      </trkpt>
      <trkpt lat="53.212577" lon="6.558375">
        <ele>41.937069</ele>
        <time>2026-05-05T16:04:32.636Z</time>
      </trkpt>
      <trkpt lat="53.212460" lon="6.558428">
        <ele>42.097330</ele>
        <time>2026-05-05T16:04:35.635Z</time>
      </trkpt>
      <trkpt lat="53.212338" lon="6.558472">
        <ele>42.262330</ele>
        <time>2026-05-05T16:04:38.636Z</time>
      </trkpt>
      <trkpt lat="53.212227" lon="6.558506">
        <ele>42.411518</ele>
        <time>2026-05-05T16:04:41.637Z</time>
      </trkpt>
      <trkpt lat="53.212108" lon="6.558538">
        <ele>42.570860</ele>
        <time>2026-05-05T16:04:44.633Z</time>
      </trkpt>
      <trkpt lat="53.211991" lon="6.558568">
        <ele>42.566561</ele>
        <time>2026-05-05T16:04:47.633Z</time>
      </trkpt>
      <trkpt lat="53.211876" lon="6.558603">
        <ele>42.347274</ele>
        <time>2026-05-05T16:04:50.635Z</time>
      </trkpt>
      <trkpt lat="53.211787" lon="6.558581">
        <ele>42.178495</ele>
        <time>2026-05-05T16:04:53.637Z</time>
      </trkpt>
      <trkpt lat="53.211679" lon="6.558630">
        <ele>41.968548</ele>
        <time>2026-05-05T16:04:57.636Z</time>
      </trkpt>
      <trkpt lat="53.211568" lon="6.558686">
        <ele>41.751022</ele>
        <time>2026-05-05T16:05:00.642Z</time>
      </trkpt>
      <trkpt lat="53.211460" lon="6.558730">
        <ele>41.542477</ele>
        <time>2026-05-05T16:05:03.639Z</time>
      </trkpt>
      <trkpt lat="53.211338" lon="6.558777">
        <ele>41.307600</ele>
        <time>2026-05-05T16:05:06.639Z</time>
      </trkpt>
      <trkpt lat="53.211224" lon="6.558809">
        <ele>41.090742</ele>
        <time>2026-05-05T16:05:09.633Z</time>
      </trkpt>
      <trkpt lat="53.211121" lon="6.558818">
        <ele>40.897255</ele>
        <time>2026-05-05T16:05:12.638Z</time>
      </trkpt>
      <trkpt lat="53.211001" lon="6.558848">
        <ele>40.669633</ele>
        <time>2026-05-05T16:05:15.642Z</time>
      </trkpt>
      <trkpt lat="53.210878" lon="6.558888">
        <ele>40.434556</ele>
        <time>2026-05-05T16:05:18.639Z</time>
      </trkpt>
      <trkpt lat="53.210761" lon="6.558926">
        <ele>40.210957</ele>
        <time>2026-05-05T16:05:21.636Z</time>
      </trkpt>
      <trkpt lat="53.210674" lon="6.558792">
        <ele>39.988922</ele>
        <time>2026-05-05T16:05:25.644Z</time>
      </trkpt>
      <trkpt lat="53.210662" lon="6.558607">
        <ele>39.779867</ele>
        <time>2026-05-05T16:05:28.636Z</time>
      </trkpt>
      <trkpt lat="53.210667" lon="6.558416">
        <ele>39.565082</ele>
        <time>2026-05-05T16:05:31.637Z</time>
      </trkpt>
      <trkpt lat="53.210658" lon="6.558197">
        <ele>39.318467</ele>
        <time>2026-05-05T16:05:34.638Z</time>
      </trkpt>
      <trkpt lat="53.210647" lon="6.557975">
        <ele>39.152992</ele>
        <time>2026-05-05T16:05:37.642Z</time>
      </trkpt>
      <trkpt lat="53.210635" lon="6.557756">
        <ele>39.001788</ele>
        <time>2026-05-05T16:05:40.639Z</time>
      </trkpt>
      <trkpt lat="53.210629" lon="6.557548">
        <ele>38.858611</ele>
        <time>2026-05-05T16:05:43.642Z</time>
      </trkpt>
      <trkpt lat="53.210624" lon="6.557336">
        <ele>38.712736</ele>
        <time>2026-05-05T16:05:46.637Z</time>
      </trkpt>
      <trkpt lat="53.210624" lon="6.557128">
        <ele>38.569724</ele>
        <time>2026-05-05T16:05:49.636Z</time>
      </trkpt>
      <trkpt lat="53.210624" lon="6.556933">
        <ele>38.435650</ele>
        <time>2026-05-05T16:05:52.641Z</time>
      </trkpt>
      <trkpt lat="53.210614" lon="6.556735">
        <ele>38.299031</ele>
        <time>2026-05-05T16:05:55.642Z</time>
      </trkpt>
      <trkpt lat="53.210605" lon="6.556546">
        <ele>38.168672</ele>
        <time>2026-05-05T16:05:58.636Z</time>
      </trkpt>
      <trkpt lat="53.210605" lon="6.556363">
        <ele>38.042850</ele>
        <time>2026-05-05T16:06:01.635Z</time>
      </trkpt>
      <trkpt lat="53.210711" lon="6.556275">
        <ele>37.906942</ele>
        <time>2026-05-05T16:06:05.638Z</time>
      </trkpt>
      <trkpt lat="53.210811" lon="6.556239">
        <ele>37.789496</ele>
        <time>2026-05-05T16:06:08.648Z</time>
      </trkpt>
      <trkpt lat="53.210924" lon="6.556166">
        <ele>37.650392</ele>
        <time>2026-05-05T16:06:11.634Z</time>
      </trkpt>
      <trkpt lat="53.211017" lon="6.556193">
        <ele>37.542019</ele>
        <time>2026-05-05T16:06:15.637Z</time>
      </trkpt>
      <trkpt lat="53.210926" lon="6.556275">
        <ele>37.423302</ele>
        <time>2026-05-05T16:06:18.637Z</time>
      </trkpt>
      <trkpt lat="53.210821" lon="6.556309">
        <ele>37.300508</ele>
        <time>2026-05-05T16:06:20.634Z</time>
      </trkpt>
      <trkpt lat="53.210717" lon="6.556351">
        <ele>37.272104</ele>
        <time>2026-05-05T16:06:22.643Z</time>
      </trkpt>
      <trkpt lat="53.210604" lon="6.556394">
        <ele>37.424166</ele>
        <time>2026-05-05T16:06:24.636Z</time>
      </trkpt>
      <trkpt lat="53.210513" lon="6.556413">
        <ele>37.544492</ele>
        <time>2026-05-05T16:06:26.635Z</time>
      </trkpt>
      <trkpt lat="53.210392" lon="6.556471">
        <ele>37.709661</ele>
        <time>2026-05-05T16:06:28.640Z</time>
      </trkpt>
      <trkpt lat="53.210289" lon="6.556501">
        <ele>37.846842</ele>
        <time>2026-05-05T16:06:30.652Z</time>
      </trkpt>
      <trkpt lat="53.210182" lon="6.556534">
        <ele>37.989605</ele>
        <time>2026-05-05T16:06:32.634Z</time>
      </trkpt>
      <trkpt lat="53.210093" lon="6.556562">
        <ele>38.108431</ele>
        <time>2026-05-05T16:06:34.637Z</time>
      </trkpt>
      <trkpt lat="53.210000" lon="6.556593">
        <ele>38.232859</ele>
        <time>2026-05-05T16:06:36.642Z</time>
      </trkpt>
      <trkpt lat="53.209909" lon="6.556624">
        <ele>38.354714</ele>
        <time>2026-05-05T16:06:38.640Z</time>
      </trkpt>
      <trkpt lat="53.209815" lon="6.556658">
        <ele>38.480907</ele>
        <time>2026-05-05T16:06:40.636Z</time>
      </trkpt>
      <trkpt lat="53.209724" lon="6.556693">
        <ele>38.603429</ele>
        <time>2026-05-05T16:06:42.641Z</time>
      </trkpt>
      <trkpt lat="53.209601" lon="6.556752">
        <ele>38.771337</ele>
        <time>2026-05-05T16:06:45.635Z</time>
      </trkpt>
      <trkpt lat="53.209513" lon="6.556706">
        <ele>38.892322</ele>
        <time>2026-05-05T16:06:48.638Z</time>
      </trkpt>
      <trkpt lat="53.209601" lon="6.556616">
        <ele>39.027719</ele>
        <time>2026-05-05T16:06:53.636Z</time>
      </trkpt>
      <trkpt lat="53.209698" lon="6.556574">
        <ele>39.159196</ele>
        <time>2026-05-05T16:06:56.639Z</time>
      </trkpt>
      <trkpt lat="53.209799" lon="6.556545">
        <ele>39.293657</ele>
        <time>2026-05-05T16:06:59.638Z</time>
      </trkpt>
      <trkpt lat="53.209893" lon="6.556517">
        <ele>39.418937</ele>
        <time>2026-05-05T16:07:02.634Z</time>
      </trkpt>
      <trkpt lat="53.209990" lon="6.556448">
        <ele>39.557272</ele>
        <time>2026-05-05T16:07:05.635Z</time>
      </trkpt>
      <trkpt lat="53.210025" lon="6.556294">
        <ele>39.527608</ele>
        <time>2026-05-05T16:07:08.632Z</time>
      </trkpt>
      <trkpt lat="53.210018" lon="6.556101">
        <ele>39.449484</ele>
        <time>2026-05-05T16:07:11.638Z</time>
      </trkpt>
      <trkpt lat="53.210008" lon="6.555906">
        <ele>39.370406</ele>
        <time>2026-05-05T16:07:14.640Z</time>
      </trkpt>
      <trkpt lat="53.209998" lon="6.555697">
        <ele>39.285690</ele>
        <time>2026-05-05T16:07:17.638Z</time>
      </trkpt>
      <trkpt lat="53.209991" lon="6.555537">
        <ele>39.220870</ele>
        <time>2026-05-05T16:07:19.646Z</time>
      </trkpt>
      <trkpt lat="53.209985" lon="6.555379">
        <ele>39.156902</ele>
        <time>2026-05-05T16:07:21.636Z</time>
      </trkpt>
      <trkpt lat="53.209975" lon="6.555224">
        <ele>39.093912</ele>
        <time>2026-05-05T16:07:23.635Z</time>
      </trkpt>
      <trkpt lat="53.209970" lon="6.555070">
        <ele>39.031597</ele>
        <time>2026-05-05T16:07:25.644Z</time>
      </trkpt>
      <trkpt lat="53.209966" lon="6.554850">
        <ele>38.942665</ele>
        <time>2026-05-05T16:07:28.636Z</time>
      </trkpt>
      <trkpt lat="53.209954" lon="6.554645">
        <ele>38.859440</ele>
        <time>2026-05-05T16:07:31.636Z</time>
      </trkpt>
      <trkpt lat="53.209952" lon="6.554444">
        <ele>38.778214</ele>
        <time>2026-05-05T16:07:34.635Z</time>
      </trkpt>
      <trkpt lat="53.209942" lon="6.554255">
        <ele>38.701551</ele>
        <time>2026-05-05T16:07:37.639Z</time>
      </trkpt>
      <trkpt lat="53.209938" lon="6.554065">
        <ele>38.624734</ele>
        <time>2026-05-05T16:07:40.639Z</time>
      </trkpt>
      <trkpt lat="53.209942" lon="6.553884">
        <ele>38.551552</ele>
        <time>2026-05-05T16:07:43.642Z</time>
      </trkpt>
      <trkpt lat="53.209948" lon="6.553687">
        <ele>38.471851</ele>
        <time>2026-05-05T16:07:46.640Z</time>
      </trkpt>
      <trkpt lat="53.209947" lon="6.553494">
        <ele>38.393866</ele>
        <time>2026-05-05T16:07:49.635Z</time>
      </trkpt>
      <trkpt lat="53.209938" lon="6.553268">
        <ele>38.298465</ele>
        <time>2026-05-05T16:07:52.640Z</time>
      </trkpt>
      <trkpt lat="53.209938" lon="6.553109">
        <ele>38.230429</ele>
        <time>2026-05-05T16:07:54.640Z</time>
      </trkpt>
      <trkpt lat="53.209933" lon="6.552938">
        <ele>38.157170</ele>
        <time>2026-05-05T16:07:56.642Z</time>
      </trkpt>
      <trkpt lat="53.209928" lon="6.552773">
        <ele>38.086476</ele>
        <time>2026-05-05T16:07:58.637Z</time>
      </trkpt>
      <trkpt lat="53.209925" lon="6.552613">
        <ele>38.017978</ele>
        <time>2026-05-05T16:08:00.639Z</time>
      </trkpt>
      <trkpt lat="53.209904" lon="6.552457">
        <ele>37.949560</ele>
        <time>2026-05-05T16:08:02.636Z</time>
      </trkpt>
      <trkpt lat="53.209879" lon="6.552299">
        <ele>37.879632</ele>
        <time>2026-05-05T16:08:04.634Z</time>
      </trkpt>
      <trkpt lat="53.209836" lon="6.552154">
        <ele>37.810396</ele>
        <time>2026-05-05T16:08:06.641Z</time>
      </trkpt>
      <trkpt lat="53.209797" lon="6.552008">
        <ele>37.741989</ele>
        <time>2026-05-05T16:08:08.629Z</time>
      </trkpt>
      <trkpt lat="53.209757" lon="6.551855">
        <ele>37.670553</ele>
        <time>2026-05-05T16:08:10.639Z</time>
      </trkpt>
      <trkpt lat="53.209713" lon="6.551696">
        <ele>37.595604</ele>
        <time>2026-05-05T16:08:12.636Z</time>
      </trkpt>
      <trkpt lat="53.209675" lon="6.551546">
        <ele>37.525912</ele>
        <time>2026-05-05T16:08:14.635Z</time>
      </trkpt>
      <trkpt lat="53.209623" lon="6.551340">
        <ele>37.430254</ele>
        <time>2026-05-05T16:08:17.635Z</time>
      </trkpt>
      <trkpt lat="53.209567" lon="6.551131">
        <ele>37.332279</ele>
        <time>2026-05-05T16:08:20.633Z</time>
      </trkpt>
      <trkpt lat="53.209504" lon="6.550936">
        <ele>37.237470</ele>
        <time>2026-05-05T16:08:23.644Z</time>
      </trkpt>
      <trkpt lat="53.209451" lon="6.550756">
        <ele>37.151641</ele>
        <time>2026-05-05T16:08:26.639Z</time>
      </trkpt>
      <trkpt lat="53.209355" lon="6.550666">
        <ele>37.088251</ele>
        <time>2026-05-05T16:08:29.643Z</time>
      </trkpt>
      <trkpt lat="53.209263" lon="6.550753">
        <ele>37.127676</ele>
        <time>2026-05-05T16:08:32.644Z</time>
      </trkpt>
      <trkpt lat="53.209180" lon="6.550850">
        <ele>37.165453</ele>
        <time>2026-05-05T16:08:35.632Z</time>
      </trkpt>
      <trkpt lat="53.209212" lon="6.550701">
        <ele>37.200802</ele>
        <time>2026-05-05T16:08:41.639Z</time>
      </trkpt>
      <trkpt lat="53.209334" lon="6.550638">
        <ele>37.248419</ele>
        <time>2026-05-05T16:08:44.636Z</time>
      </trkpt>
      <trkpt lat="53.209380" lon="6.550488">
        <ele>37.286053</ele>
        <time>2026-05-05T16:08:47.635Z</time>
      </trkpt>
      <trkpt lat="53.209331" lon="6.550285">
        <ele>37.334930</ele>
        <time>2026-05-05T16:08:50.637Z</time>
      </trkpt>
      <trkpt lat="53.209290" lon="6.550089">
        <ele>37.381293</ele>
        <time>2026-05-05T16:08:53.635Z</time>
      </trkpt>
      <trkpt lat="53.209240" lon="6.549927">
        <ele>37.421992</ele>
        <time>2026-05-05T16:08:56.640Z</time>
      </trkpt>
      <trkpt lat="53.209187" lon="6.549761">
        <ele>37.464002</ele>
        <time>2026-05-05T16:08:59.640Z</time>
      </trkpt>
      <trkpt lat="53.209129" lon="6.549610">
        <ele>37.504062</ele>
        <time>2026-05-05T16:09:02.641Z</time>
      </trkpt>
      <trkpt lat="53.209074" lon="6.549453">
        <ele>37.544681</ele>
        <time>2026-05-05T16:09:16.639Z</time>
      </trkpt>
      <trkpt lat="53.209032" lon="6.549313">
        <ele>37.579648</ele>
        <time>2026-05-05T16:09:19.636Z</time>
      </trkpt>
      <trkpt lat="53.208971" lon="6.549153">
        <ele>37.622005</ele>
        <time>2026-05-05T16:09:22.636Z</time>
      </trkpt>
      <trkpt lat="53.208932" lon="6.548952">
        <ele>37.669189</ele>
        <time>2026-05-05T16:09:25.632Z</time>
      </trkpt>
      <trkpt lat="53.208891" lon="6.548767">
        <ele>37.713241</ele>
        <time>2026-05-05T16:09:28.638Z</time>
      </trkpt>
      <trkpt lat="53.208858" lon="6.548601">
        <ele>37.752301</ele>
        <time>2026-05-05T16:09:31.640Z</time>
      </trkpt>
      <trkpt lat="53.208818" lon="6.548439">
        <ele>37.735135</ele>
        <time>2026-05-05T16:09:34.635Z</time>
      </trkpt>
      <trkpt lat="53.208766" lon="6.548305">
        <ele>37.717597</ele>
        <time>2026-05-05T16:09:39.638Z</time>
      </trkpt>
      <trkpt lat="53.208679" lon="6.548192">
        <ele>37.697382</ele>
        <time>2026-05-05T16:09:43.640Z</time>
      </trkpt>
      <trkpt lat="53.208583" lon="6.548172">
        <ele>37.679639</ele>
        <time>2026-05-05T16:09:46.640Z</time>
      </trkpt>
      <trkpt lat="53.208462" lon="6.548175">
        <ele>37.657445</ele>
        <time>2026-05-05T16:09:49.640Z</time>
      </trkpt>
      <trkpt lat="53.208362" lon="6.548186">
        <ele>37.639065</ele>
        <time>2026-05-05T16:09:51.635Z</time>
      </trkpt>
      <trkpt lat="53.208272" lon="6.548209">
        <ele>37.622367</ele>
        <time>2026-05-05T16:09:53.642Z</time>
      </trkpt>
      <trkpt lat="53.208141" lon="6.548218">
        <ele>37.598321</ele>
        <time>2026-05-05T16:09:56.639Z</time>
      </trkpt>
      <trkpt lat="53.208015" lon="6.548222">
        <ele>37.575208</ele>
        <time>2026-05-05T16:09:59.638Z</time>
      </trkpt>
      <trkpt lat="53.207880" lon="6.548257">
        <ele>37.550152</ele>
        <time>2026-05-05T16:10:02.638Z</time>
      </trkpt>
      <trkpt lat="53.207768" lon="6.548303">
        <ele>37.528999</ele>
        <time>2026-05-05T16:10:05.646Z</time>
      </trkpt>
      <trkpt lat="53.207674" lon="6.548381">
        <ele>37.509748</ele>
        <time>2026-05-05T16:10:09.638Z</time>
      </trkpt>
      <trkpt lat="53.207623" lon="6.548245">
        <ele>37.492123</ele>
        <time>2026-05-05T16:10:13.641Z</time>
      </trkpt>
      <trkpt lat="53.207588" lon="6.548064">
        <ele>37.471231</ele>
        <time>2026-05-05T16:10:17.636Z</time>
      </trkpt>
      <trkpt lat="53.207548" lon="6.547879">
        <ele>37.449626</ele>
        <time>2026-05-05T16:10:20.638Z</time>
      </trkpt>
      <trkpt lat="53.207514" lon="6.547731">
        <ele>37.432215</ele>
        <time>2026-05-05T16:10:22.644Z</time>
      </trkpt>
      <trkpt lat="53.207464" lon="6.547538">
        <ele>37.396307</ele>
        <time>2026-05-05T16:10:25.638Z</time>
      </trkpt>
      <trkpt lat="53.207432" lon="6.547386">
        <ele>37.363194</ele>
        <time>2026-05-05T16:10:27.643Z</time>
      </trkpt>
      <trkpt lat="53.207392" lon="6.547242">
        <ele>37.330570</ele>
        <time>2026-05-05T16:10:29.637Z</time>
      </trkpt>
      <trkpt lat="53.207359" lon="6.547100">
        <ele>37.299265</ele>
        <time>2026-05-05T16:10:31.636Z</time>
      </trkpt>
      <trkpt lat="53.207318" lon="6.546891">
        <ele>37.254065</ele>
        <time>2026-05-05T16:10:34.640Z</time>
      </trkpt>
      <trkpt lat="53.207280" lon="6.546747">
        <ele>37.221724</ele>
        <time>2026-05-05T16:10:36.641Z</time>
      </trkpt>
      <trkpt lat="53.207240" lon="6.546602">
        <ele>37.188914</ele>
        <time>2026-05-05T16:10:38.636Z</time>
      </trkpt>
      <trkpt lat="53.207203" lon="6.546404">
        <ele>37.146285</ele>
        <time>2026-05-05T16:10:41.636Z</time>
      </trkpt>
      <trkpt lat="53.207150" lon="6.546223">
        <ele>37.104877</ele>
        <time>2026-05-05T16:10:44.641Z</time>
      </trkpt>
      <trkpt lat="53.207102" lon="6.546037">
        <ele>37.063252</ele>
        <time>2026-05-05T16:10:47.633Z</time>
      </trkpt>
      <trkpt lat="53.207073" lon="6.545892">
        <ele>37.031833</ele>
        <time>2026-05-05T16:10:49.638Z</time>
      </trkpt>
      <trkpt lat="53.207033" lon="6.545756">
        <ele>37.000693</ele>
        <time>2026-05-05T16:10:51.638Z</time>
      </trkpt>
      <trkpt lat="53.206964" lon="6.545645">
        <ele>36.967813</ele>
        <time>2026-05-05T16:10:54.635Z</time>
      </trkpt>
      <trkpt lat="53.206893" lon="6.545801">
        <ele>36.927544</ele>
        <time>2026-05-05T16:10:58.636Z</time>
      </trkpt>
      <trkpt lat="53.206808" lon="6.545872">
        <ele>36.894929</ele>
        <time>2026-05-05T16:11:01.637Z</time>
      </trkpt>
      <trkpt lat="53.206708" lon="6.545898">
        <ele>36.860199</ele>
        <time>2026-05-05T16:11:05.643Z</time>
      </trkpt>
      <trkpt lat="53.206641" lon="6.545785">
        <ele>36.827519</ele>
        <time>2026-05-05T16:11:09.635Z</time>
      </trkpt>
      <trkpt lat="53.206582" lon="6.545659">
        <ele>36.818976</ele>
        <time>2026-05-05T16:11:13.643Z</time>
      </trkpt>
      <trkpt lat="53.206507" lon="6.545523">
        <ele>36.858294</ele>
        <time>2026-05-05T16:11:17.634Z</time>
      </trkpt>
      <trkpt lat="53.206404" lon="6.545489">
        <ele>36.895578</ele>
        <time>2026-05-05T16:11:21.640Z</time>
      </trkpt>
      <trkpt lat="53.206312" lon="6.545525">
        <ele>36.929133</ele>
        <time>2026-05-05T16:11:25.642Z</time>
      </trkpt>
      <trkpt lat="53.206213" lon="6.545611">
        <ele>36.968762</ele>
        <time>2026-05-05T16:11:30.633Z</time>
      </trkpt>
      <trkpt lat="53.206116" lon="6.545656">
        <ele>37.004512</ele>
        <time>2026-05-05T16:11:35.640Z</time>
      </trkpt>
      <trkpt lat="53.206043" lon="6.545560">
        <ele>37.037511</ele>
        <time>2026-05-05T16:11:39.641Z</time>
      </trkpt>
      <trkpt lat="53.205970" lon="6.545653">
        <ele>37.070118</ele>
        <time>2026-05-05T16:11:43.642Z</time>
      </trkpt>
      <trkpt lat="53.205941" lon="6.545803">
        <ele>37.103642</ele>
        <time>2026-05-05T16:11:46.639Z</time>
      </trkpt>
      <trkpt lat="53.205911" lon="6.545966">
        <ele>37.139910</ele>
        <time>2026-05-05T16:11:49.636Z</time>
      </trkpt>
      <trkpt lat="53.205876" lon="6.546144">
        <ele>37.179756</ele>
        <time>2026-05-05T16:11:53.641Z</time>
      </trkpt>
      <trkpt lat="53.205845" lon="6.546306">
        <ele>37.215927</ele>
        <time>2026-05-05T16:11:57.640Z</time>
      </trkpt>
      <trkpt lat="53.205764" lon="6.546382">
        <ele>37.248921</ele>
        <time>2026-05-05T16:12:03.640Z</time>
      </trkpt>
      <trkpt lat="53.205844" lon="6.546476">
        <ele>37.283660</ele>
        <time>2026-05-05T16:12:09.643Z</time>
      </trkpt>
      <trkpt lat="53.205928" lon="6.546568">
        <ele>37.319334</ele>
        <time>2026-05-05T16:12:13.643Z</time>
      </trkpt>
      <trkpt lat="53.205992" lon="6.546683">
        <ele>37.352721</ele>
        <time>2026-05-05T16:12:18.639Z</time>
      </trkpt>
      <trkpt lat="53.206044" lon="6.546816">
        <ele>37.386502</ele>
        <time>2026-05-05T16:12:23.639Z</time>
      </trkpt>
      <trkpt lat="53.206113" lon="6.546933">
        <ele>37.421425</ele>
        <time>2026-05-05T16:12:29.641Z</time>
      </trkpt>
      <trkpt lat="53.206200" lon="6.547048">
        <ele>37.392937</ele>
        <time>2026-05-05T16:12:35.641Z</time>
      </trkpt>
      <trkpt lat="53.206289" lon="6.547092">
        <ele>37.281692</ele>
        <time>2026-05-05T16:12:42.641Z</time>
      </trkpt>
      <trkpt lat="53.206223" lon="6.546983">
        <ele>37.170430</ele>
        <time>2026-05-05T16:12:52.638Z</time>
      </trkpt>
      <trkpt lat="53.206151" lon="6.546887">
        <ele>37.059998</ele>
        <time>2026-05-05T16:12:55.643Z</time>
      </trkpt>
      <trkpt lat="53.206078" lon="6.546744">
        <ele>36.925121</ele>
        <time>2026-05-05T16:12:59.645Z</time>
      </trkpt>
      <trkpt lat="53.206004" lon="6.546644">
        <ele>36.811021</ele>
        <time>2026-05-05T16:13:03.641Z</time>
      </trkpt>
      <trkpt lat="53.205933" lon="6.546537">
        <ele>36.696388</ele>
        <time>2026-05-05T16:13:07.643Z</time>
      </trkpt>
      <trkpt lat="53.205850" lon="6.546443">
        <ele>36.576185</ele>
        <time>2026-05-05T16:13:11.640Z</time>
      </trkpt>
      <trkpt lat="53.205762" lon="6.546353">
        <ele>36.452502</ele>
        <time>2026-05-05T16:13:15.638Z</time>
      </trkpt>
      <trkpt lat="53.205663" lon="6.546252">
        <ele>36.313452</ele>
        <time>2026-05-05T16:13:19.640Z</time>
      </trkpt>
      <trkpt lat="53.205593" lon="6.546148">
        <ele>36.201149</ele>
        <time>2026-05-05T16:13:22.641Z</time>
      </trkpt>
      <trkpt lat="53.205516" lon="6.546002">
        <ele>36.061503</ele>
        <time>2026-05-05T16:13:26.641Z</time>
      </trkpt>
      <trkpt lat="53.205446" lon="6.545874">
        <ele>35.937080</ele>
        <time>2026-05-05T16:13:29.641Z</time>
      </trkpt>
      <trkpt lat="53.205377" lon="6.545758">
        <ele>35.819722</ele>
        <time>2026-05-05T16:13:32.640Z</time>
      </trkpt>
      <trkpt lat="53.205288" lon="6.545650">
        <ele>35.687857</ele>
        <time>2026-05-05T16:13:35.638Z</time>
      </trkpt>
      <trkpt lat="53.205193" lon="6.545567">
        <ele>35.559351</ele>
        <time>2026-05-05T16:13:38.641Z</time>
      </trkpt>
      <trkpt lat="53.205091" lon="6.545548">
        <ele>35.436344</ele>
        <time>2026-05-05T16:13:41.642Z</time>
      </trkpt>
      <trkpt lat="53.204986" lon="6.545499">
        <ele>35.305677</ele>
        <time>2026-05-05T16:13:45.640Z</time>
      </trkpt>
      <trkpt lat="53.204939" lon="6.545338">
        <ele>35.386567</ele>
        <time>2026-05-05T16:13:48.640Z</time>
      </trkpt>
      <trkpt lat="53.204896" lon="6.545204">
        <ele>35.480605</ele>
        <time>2026-05-05T16:13:50.640Z</time>
      </trkpt>
      <trkpt lat="53.204851" lon="6.545064">
        <ele>35.578891</ele>
        <time>2026-05-05T16:13:52.638Z</time>
      </trkpt>
      <trkpt lat="53.204796" lon="6.544883">
        <ele>35.704441</ele>
        <time>2026-05-05T16:13:55.637Z</time>
      </trkpt>
      <trkpt lat="53.204740" lon="6.544736">
        <ele>35.812208</ele>
        <time>2026-05-05T16:13:58.641Z</time>
      </trkpt>
      <trkpt lat="53.204702" lon="6.544573">
        <ele>35.920407</ele>
        <time>2026-05-05T16:14:01.640Z</time>
      </trkpt>
      <trkpt lat="53.204663" lon="6.544400">
        <ele>36.034753</ele>
        <time>2026-05-05T16:14:04.643Z</time>
      </trkpt>
      <trkpt lat="53.204723" lon="6.544263">
        <ele>36.139739</ele>
        <time>2026-05-05T16:14:10.646Z</time>
      </trkpt>
      <trkpt lat="53.204805" lon="6.544180">
        <ele>36.238776</ele>
        <time>2026-05-05T16:14:13.641Z</time>
      </trkpt>
      <trkpt lat="53.204890" lon="6.544088">
        <ele>36.343396</ele>
        <time>2026-05-05T16:14:16.643Z</time>
      </trkpt>
      <trkpt lat="53.204944" lon="6.543956">
        <ele>36.442278</ele>
        <time>2026-05-05T16:14:19.644Z</time>
      </trkpt>
      <trkpt lat="53.204993" lon="6.543787">
        <ele>36.558424</ele>
        <time>2026-05-05T16:14:22.643Z</time>
      </trkpt>
      <trkpt lat="53.205032" lon="6.543620">
        <ele>36.669304</ele>
        <time>2026-05-05T16:14:25.639Z</time>
      </trkpt>
      <trkpt lat="53.205066" lon="6.543468">
        <ele>36.769672</ele>
        <time>2026-05-05T16:14:28.641Z</time>
      </trkpt>
      <trkpt lat="53.205100" lon="6.543317">
        <ele>36.869461</ele>
        <time>2026-05-05T16:14:31.643Z</time>
      </trkpt>
      <trkpt lat="53.205172" lon="6.543045">
        <ele>37.053417</ele>
        <time>2026-05-05T16:15:31.654Z</time>
      </trkpt>
      <trkpt lat="53.205219" lon="6.542863">
        <ele>37.159581</ele>
        <time>2026-05-05T16:15:35.641Z</time>
      </trkpt>
      <trkpt lat="53.205237" lon="6.542681">
        <ele>37.208548</ele>
        <time>2026-05-05T16:15:39.637Z</time>
      </trkpt>
      <trkpt lat="53.205159" lon="6.542565">
        <ele>37.254843</ele>
        <time>2026-05-05T16:15:42.654Z</time>
      </trkpt>
      <trkpt lat="53.205133" lon="6.542386">
        <ele>37.303737</ele>
        <time>2026-05-05T16:15:45.638Z</time>
      </trkpt>
      <trkpt lat="53.205161" lon="6.542185">
        <ele>37.358517</ele>
        <time>2026-05-05T16:15:48.638Z</time>
      </trkpt>
      <trkpt lat="53.205174" lon="6.542008">
        <ele>37.405854</ele>
        <time>2026-05-05T16:15:51.638Z</time>
      </trkpt>
      <trkpt lat="53.205171" lon="6.541819">
        <ele>37.456043</ele>
        <time>2026-05-05T16:15:54.639Z</time>
      </trkpt>
      <trkpt lat="53.205177" lon="6.541602">
        <ele>37.513707</ele>
        <time>2026-05-05T16:15:57.637Z</time>
      </trkpt>
      <trkpt lat="53.205154" lon="6.541401">
        <ele>37.568029</ele>
        <time>2026-05-05T16:16:00.642Z</time>
      </trkpt>
      <trkpt lat="53.205109" lon="6.541200">
        <ele>37.624991</ele>
        <time>2026-05-05T16:16:03.639Z</time>
      </trkpt>
      <trkpt lat="53.205055" lon="6.541005">
        <ele>37.682019</ele>
        <time>2026-05-05T16:16:06.641Z</time>
      </trkpt>
      <trkpt lat="53.205011" lon="6.540815">
        <ele>37.736094</ele>
        <time>2026-05-05T16:16:09.638Z</time>
      </trkpt>
      <trkpt lat="53.204970" lon="6.540639">
        <ele>37.786223</ele>
        <time>2026-05-05T16:16:12.638Z</time>
      </trkpt>
      <trkpt lat="53.204906" lon="6.540475">
        <ele>37.838183</ele>
        <time>2026-05-05T16:16:15.635Z</time>
      </trkpt>
      <trkpt lat="53.204826" lon="6.540321">
        <ele>37.892297</ele>
        <time>2026-05-05T16:16:18.642Z</time>
      </trkpt>
      <trkpt lat="53.204738" lon="6.540176">
        <ele>37.946208</ele>
        <time>2026-05-05T16:16:21.641Z</time>
      </trkpt>
      <trkpt lat="53.204665" lon="6.540044">
        <ele>37.978332</ele>
        <time>2026-05-05T16:16:24.639Z</time>
      </trkpt>
      <trkpt lat="53.204602" lon="6.539872">
        <ele>38.014380</ele>
        <time>2026-05-05T16:16:27.635Z</time>
      </trkpt>
      <trkpt lat="53.204532" lon="6.539705">
        <ele>38.050825</ele>
        <time>2026-05-05T16:16:30.637Z</time>
      </trkpt>
      <trkpt lat="53.204460" lon="6.539551">
        <ele>38.085756</ele>
        <time>2026-05-05T16:16:33.645Z</time>
      </trkpt>
      <trkpt lat="53.204378" lon="6.539389">
        <ele>38.123680</ele>
        <time>2026-05-05T16:16:36.636Z</time>
      </trkpt>
      <trkpt lat="53.204293" lon="6.539233">
        <ele>38.161388</ele>
        <time>2026-05-05T16:16:39.637Z</time>
      </trkpt>
      <trkpt lat="53.204221" lon="6.539097">
        <ele>38.193843</ele>
        <time>2026-05-05T16:16:41.642Z</time>
      </trkpt>
      <trkpt lat="53.204122" lon="6.538946">
        <ele>38.233872</ele>
        <time>2026-05-05T16:16:44.643Z</time>
      </trkpt>
      <trkpt lat="53.204028" lon="6.538819">
        <ele>38.269970</ele>
        <time>2026-05-05T16:16:47.644Z</time>
      </trkpt>
      <trkpt lat="53.203928" lon="6.538712">
        <ele>38.305427</ele>
        <time>2026-05-05T16:16:50.642Z</time>
      </trkpt>
      <trkpt lat="53.203812" lon="6.538638">
        <ele>38.342497</ele>
        <time>2026-05-05T16:16:53.651Z</time>
      </trkpt>
      <trkpt lat="53.203711" lon="6.538600">
        <ele>38.373404</ele>
        <time>2026-05-05T16:16:56.639Z</time>
      </trkpt>
      <trkpt lat="53.203597" lon="6.538565">
        <ele>38.408006</ele>
        <time>2026-05-05T16:16:59.638Z</time>
      </trkpt>
      <trkpt lat="53.203489" lon="6.538582">
        <ele>38.440389</ele>
        <time>2026-05-05T16:17:02.637Z</time>
      </trkpt>
      <trkpt lat="53.203391" lon="6.538616">
        <ele>38.470269</ele>
        <time>2026-05-05T16:17:05.636Z</time>
      </trkpt>
      <trkpt lat="53.203282" lon="6.538540">
        <ele>38.467141</ele>
        <time>2026-05-05T16:17:08.636Z</time>
      </trkpt>
      <trkpt lat="53.203167" lon="6.538471">
        <ele>38.445797</ele>
        <time>2026-05-05T16:17:11.638Z</time>
      </trkpt>
      <trkpt lat="53.203072" lon="6.538421">
        <ele>38.428399</ele>
        <time>2026-05-05T16:17:14.639Z</time>
      </trkpt>
      <trkpt lat="53.202955" lon="6.538359">
        <ele>38.406959</ele>
        <time>2026-05-05T16:17:17.640Z</time>
      </trkpt>
      <trkpt lat="53.202849" lon="6.538317">
        <ele>38.387931</ele>
        <time>2026-05-05T16:17:20.641Z</time>
      </trkpt>
      <trkpt lat="53.202754" lon="6.538288">
        <ele>38.371063</ele>
        <time>2026-05-05T16:17:23.641Z</time>
      </trkpt>
      <trkpt lat="53.202659" lon="6.538273">
        <ele>38.354396</ele>
        <time>2026-05-05T16:17:26.637Z</time>
      </trkpt>
      <trkpt lat="53.202557" lon="6.538280">
        <ele>38.336566</ele>
        <time>2026-05-05T16:17:29.639Z</time>
      </trkpt>
      <trkpt lat="53.202448" lon="6.538309">
        <ele>38.317288</ele>
        <time>2026-05-05T16:17:32.637Z</time>
      </trkpt>
      <trkpt lat="53.202329" lon="6.538350">
        <ele>38.296065</ele>
        <time>2026-05-05T16:17:35.638Z</time>
      </trkpt>
      <trkpt lat="53.202219" lon="6.538389">
        <ele>38.276424</ele>
        <time>2026-05-05T16:17:38.637Z</time>
      </trkpt>
      <trkpt lat="53.202115" lon="6.538404">
        <ele>38.258191</ele>
        <time>2026-05-05T16:17:41.640Z</time>
      </trkpt>
      <trkpt lat="53.201986" lon="6.538413">
        <ele>38.235641</ele>
        <time>2026-05-05T16:17:44.644Z</time>
      </trkpt>
      <trkpt lat="53.201865" lon="6.538376">
        <ele>38.214155</ele>
        <time>2026-05-05T16:17:47.636Z</time>
      </trkpt>
      <trkpt lat="53.201753" lon="6.538326">
        <ele>38.193906</ele>
        <time>2026-05-05T16:17:50.635Z</time>
      </trkpt>
      <trkpt lat="53.201641" lon="6.538294">
        <ele>38.174059</ele>
        <time>2026-05-05T16:17:53.641Z</time>
      </trkpt>
      <trkpt lat="53.201518" lon="6.538289">
        <ele>38.103558</ele>
        <time>2026-05-05T16:17:56.643Z</time>
      </trkpt>
      <trkpt lat="53.201421" lon="6.538283">
        <ele>38.029651</ele>
        <time>2026-05-05T16:17:59.643Z</time>
      </trkpt>
      <trkpt lat="53.201324" lon="6.538290">
        <ele>37.955725</ele>
        <time>2026-05-05T16:18:02.639Z</time>
      </trkpt>
      <trkpt lat="53.201229" lon="6.538327">
        <ele>37.881449</ele>
        <time>2026-05-05T16:18:05.640Z</time>
      </trkpt>
      <trkpt lat="53.201202" lon="6.538532">
        <ele>37.785718</ele>
        <time>2026-05-05T16:18:09.640Z</time>
      </trkpt>
      <trkpt lat="53.201253" lon="6.538719">
        <ele>37.692006</ele>
        <time>2026-05-05T16:18:12.641Z</time>
      </trkpt>
      <trkpt lat="53.201324" lon="6.538887">
        <ele>37.598232</ele>
        <time>2026-05-05T16:18:15.635Z</time>
      </trkpt>
      <trkpt lat="53.201380" lon="6.539047">
        <ele>37.513714</ele>
        <time>2026-05-05T16:18:18.640Z</time>
      </trkpt>
      <trkpt lat="53.201438" lon="6.539220">
        <ele>37.423294</ele>
        <time>2026-05-05T16:18:21.639Z</time>
      </trkpt>
      <trkpt lat="53.201491" lon="6.539395">
        <ele>37.333857</ele>
        <time>2026-05-05T16:18:24.638Z</time>
      </trkpt>
      <trkpt lat="53.201534" lon="6.539559">
        <ele>37.252208</ele>
        <time>2026-05-05T16:18:27.640Z</time>
      </trkpt>
      <trkpt lat="53.201591" lon="6.539729">
        <ele>37.163353</ele>
        <time>2026-05-05T16:18:30.640Z</time>
      </trkpt>
      <trkpt lat="53.201631" lon="6.539923">
        <ele>37.069778</ele>
        <time>2026-05-05T16:18:33.637Z</time>
      </trkpt>
      <trkpt lat="53.201669" lon="6.540097">
        <ele>36.985310</ele>
        <time>2026-05-05T16:18:36.639Z</time>
      </trkpt>
      <trkpt lat="53.201705" lon="6.540277">
        <ele>36.898760</ele>
        <time>2026-05-05T16:18:39.638Z</time>
      </trkpt>
      <trkpt lat="53.201735" lon="6.540460">
        <ele>36.812227</ele>
        <time>2026-05-05T16:18:42.645Z</time>
      </trkpt>
      <trkpt lat="53.201757" lon="6.540627">
        <ele>36.874043</ele>
        <time>2026-05-05T16:18:45.638Z</time>
      </trkpt>
      <trkpt lat="53.201778" lon="6.540813">
        <ele>36.978012</ele>
        <time>2026-05-05T16:18:48.638Z</time>
      </trkpt>
      <trkpt lat="53.201803" lon="6.541004">
        <ele>37.085404</ele>
        <time>2026-05-05T16:18:51.637Z</time>
      </trkpt>
      <trkpt lat="53.201830" lon="6.541164">
        <ele>37.176714</ele>
        <time>2026-05-05T16:18:54.636Z</time>
      </trkpt>
      <trkpt lat="53.201873" lon="6.541328">
        <ele>37.275051</ele>
        <time>2026-05-05T16:18:58.643Z</time>
      </trkpt>
      <trkpt lat="53.201919" lon="6.541468">
        <ele>37.362763</ele>
        <time>2026-05-05T16:19:01.642Z</time>
      </trkpt>
      <trkpt lat="53.201981" lon="6.541605">
        <ele>37.457080</ele>
        <time>2026-05-05T16:19:04.641Z</time>
      </trkpt>
      <trkpt lat="53.202007" lon="6.541754">
        <ele>37.542328</ele>
        <time>2026-05-05T16:19:07.634Z</time>
      </trkpt>
      <trkpt lat="53.201929" lon="6.541857">
        <ele>37.633527</ele>
        <time>2026-05-05T16:19:11.640Z</time>
      </trkpt>
      <trkpt lat="53.201840" lon="6.541964">
        <ele>37.734104</ele>
        <time>2026-05-05T16:19:16.636Z</time>
      </trkpt>
      <trkpt lat="53.201816" lon="6.542119">
        <ele>37.822044</ele>
        <time>2026-05-05T16:19:21.633Z</time>
      </trkpt>
      <trkpt lat="53.201890" lon="6.542233">
        <ele>37.914382</ele>
        <time>2026-05-05T16:19:24.640Z</time>
      </trkpt>
      <trkpt lat="53.201975" lon="6.542356">
        <ele>38.017536</ele>
        <time>2026-05-05T16:19:27.639Z</time>
      </trkpt>
      <trkpt lat="53.202053" lon="6.542487">
        <ele>38.118997</ele>
        <time>2026-05-05T16:19:30.640Z</time>
      </trkpt>
      <trkpt lat="53.202135" lon="6.542605">
        <ele>38.218273</ele>
        <time>2026-05-05T16:19:33.640Z</time>
      </trkpt>
      <trkpt lat="53.202206" lon="6.542707">
        <ele>38.304171</ele>
        <time>2026-05-05T16:19:36.640Z</time>
      </trkpt>
      <trkpt lat="53.202270" lon="6.542840">
        <ele>38.397882</ele>
        <time>2026-05-05T16:19:39.637Z</time>
      </trkpt>
      <trkpt lat="53.202350" lon="6.542987">
        <ele>38.437579</ele>
        <time>2026-05-05T16:19:42.639Z</time>
      </trkpt>
      <trkpt lat="53.202423" lon="6.543151">
        <ele>38.419787</ele>
        <time>2026-05-05T16:19:45.636Z</time>
      </trkpt>
      <trkpt lat="53.202497" lon="6.543327">
        <ele>38.401063</ele>
        <time>2026-05-05T16:19:48.637Z</time>
      </trkpt>
      <trkpt lat="53.202567" lon="6.543500">
        <ele>38.382884</ele>
        <time>2026-05-05T16:19:51.638Z</time>
      </trkpt>
      <trkpt lat="53.202617" lon="6.543656">
        <ele>38.367478</ele>
        <time>2026-05-05T16:19:54.638Z</time>
      </trkpt>
      <trkpt lat="53.202657" lon="6.543799">
        <ele>38.353736</ele>
        <time>2026-05-05T16:19:57.636Z</time>
      </trkpt>
      <trkpt lat="53.202688" lon="6.543953">
        <ele>38.339589</ele>
        <time>2026-05-05T16:20:00.634Z</time>
      </trkpt>
      <trkpt lat="53.202728" lon="6.544124">
        <ele>38.323604</ele>
        <time>2026-05-05T16:20:03.637Z</time>
      </trkpt>
      <trkpt lat="53.202780" lon="6.544275">
        <ele>38.308438</ele>
        <time>2026-05-05T16:20:06.640Z</time>
      </trkpt>
      <trkpt lat="53.202822" lon="6.544449">
        <ele>38.292103</ele>
        <time>2026-05-05T16:20:10.640Z</time>
      </trkpt>
      <trkpt lat="53.202842" lon="6.544625">
        <ele>38.276504</ele>
        <time>2026-05-05T16:20:15.638Z</time>
      </trkpt>
      <trkpt lat="53.202854" lon="6.544775">
        <ele>38.263327</ele>
        <time>2026-05-05T16:20:19.638Z</time>
      </trkpt>
      <trkpt lat="53.202879" lon="6.545007">
        <ele>38.242802</ele>
        <time>2026-05-05T16:20:50.635Z</time>
      </trkpt>
      <trkpt lat="53.202754" lon="6.544796">
        <ele>38.216961</ele>
        <time>2026-05-05T16:21:23.647Z</time>
      </trkpt>
      <trkpt lat="53.202683" lon="6.544701">
        <ele>38.203734</ele>
        <time>2026-05-05T16:21:26.642Z</time>
      </trkpt>
      <trkpt lat="53.202612" lon="6.544557">
        <ele>38.187493</ele>
        <time>2026-05-05T16:21:30.642Z</time>
      </trkpt>
      <trkpt lat="53.202534" lon="6.544474">
        <ele>38.157759</ele>
        <time>2026-05-05T16:21:33.641Z</time>
      </trkpt>
      <trkpt lat="53.202440" lon="6.544373">
        <ele>38.118609</ele>
        <time>2026-05-05T16:21:37.646Z</time>
      </trkpt>
      <trkpt lat="53.202340" lon="6.544288">
        <ele>38.079308</ele>
        <time>2026-05-05T16:21:41.645Z</time>
      </trkpt>
      <trkpt lat="53.202255" lon="6.544227">
        <ele>38.046905</ele>
        <time>2026-05-05T16:21:44.646Z</time>
      </trkpt>
      <trkpt lat="53.202164" lon="6.544182">
        <ele>38.013666</ele>
        <time>2026-05-05T16:21:47.641Z</time>
      </trkpt>
      <trkpt lat="53.202064" lon="6.544143">
        <ele>37.977700</ele>
        <time>2026-05-05T16:21:50.641Z</time>
      </trkpt>
      <trkpt lat="53.201959" lon="6.544116">
        <ele>37.940493</ele>
        <time>2026-05-05T16:21:53.642Z</time>
      </trkpt>
      <trkpt lat="53.201849" lon="6.544103">
        <ele>37.901872</ele>
        <time>2026-05-05T16:21:57.642Z</time>
      </trkpt>
      <trkpt lat="53.201751" lon="6.544110">
        <ele>37.867518</ele>
        <time>2026-05-05T16:22:00.637Z</time>
      </trkpt>
      <trkpt lat="53.201653" lon="6.544116">
        <ele>37.833173</ele>
        <time>2026-05-05T16:22:03.640Z</time>
      </trkpt>
      <trkpt lat="53.201559" lon="6.544125">
        <ele>37.800198</ele>
        <time>2026-05-05T16:22:06.641Z</time>
      </trkpt>
      <trkpt lat="53.201444" lon="6.544153">
        <ele>37.759496</ele>
        <time>2026-05-05T16:22:10.639Z</time>
      </trkpt>
      <trkpt lat="53.201332" lon="6.544212">
        <ele>37.718364</ele>
        <time>2026-05-05T16:22:14.638Z</time>
      </trkpt>
      <trkpt lat="53.201234" lon="6.544282">
        <ele>37.681032</ele>
        <time>2026-05-05T16:22:17.647Z</time>
      </trkpt>
      <trkpt lat="53.201133" lon="6.544375">
        <ele>37.640636</ele>
        <time>2026-05-05T16:22:21.641Z</time>
      </trkpt>
      <trkpt lat="53.201042" lon="6.544477">
        <ele>37.602248</ele>
        <time>2026-05-05T16:22:26.640Z</time>
      </trkpt>
      <trkpt lat="53.200962" lon="6.544558">
        <ele>37.569480</ele>
        <time>2026-05-05T16:22:31.641Z</time>
      </trkpt>
      <trkpt lat="53.200870" lon="6.544603">
        <ele>37.665000</ele>
        <time>2026-05-05T16:22:38.641Z</time>
      </trkpt>
      <trkpt lat="53.200839" lon="6.544800">
        <ele>37.901287</ele>
        <time>2026-05-05T16:23:22.640Z</time>
      </trkpt>
      <trkpt lat="53.200780" lon="6.544956">
        <ele>38.115311</ele>
        <time>2026-05-05T16:23:26.646Z</time>
      </trkpt>
      <trkpt lat="53.200736" lon="6.545089">
        <ele>38.291567</ele>
        <time>2026-05-05T16:23:29.639Z</time>
      </trkpt>
      <trkpt lat="53.200690" lon="6.545229">
        <ele>38.476805</ele>
        <time>2026-05-05T16:23:32.645Z</time>
      </trkpt>
      <trkpt lat="53.200644" lon="6.545399">
        <ele>38.693205</ele>
        <time>2026-05-05T16:23:36.644Z</time>
      </trkpt>
      <trkpt lat="53.200605" lon="6.545548">
        <ele>38.881837</ele>
        <time>2026-05-05T16:23:40.640Z</time>
      </trkpt>
      <trkpt lat="53.200564" lon="6.545718">
        <ele>39.094434</ele>
        <time>2026-05-05T16:23:45.639Z</time>
      </trkpt>
      <trkpt lat="53.200533" lon="6.545867">
        <ele>39.277415</ele>
        <time>2026-05-05T16:23:50.640Z</time>
      </trkpt>
      <trkpt lat="53.200498" lon="6.546032">
        <ele>39.480474</ele>
        <time>2026-05-05T16:23:54.643Z</time>
      </trkpt>
      <trkpt lat="53.200507" lon="6.546234">
        <ele>39.715457</ele>
        <time>2026-05-05T16:23:58.639Z</time>
      </trkpt>
      <trkpt lat="53.200544" lon="6.546424">
        <ele>39.947226</ele>
        <time>2026-05-05T16:24:02.642Z</time>
      </trkpt>
      <trkpt lat="53.200569" lon="6.546582">
        <ele>40.136805</ele>
        <time>2026-05-05T16:24:05.643Z</time>
      </trkpt>
      <trkpt lat="53.200587" lon="6.546741">
        <ele>40.324522</ele>
        <time>2026-05-05T16:24:08.640Z</time>
      </trkpt>
      <trkpt lat="53.200614" lon="6.546889">
        <ele>40.503999</ele>
        <time>2026-05-05T16:24:11.640Z</time>
      </trkpt>
      <trkpt lat="53.200645" lon="6.547073">
        <ele>40.725734</ele>
        <time>2026-05-05T16:24:15.641Z</time>
      </trkpt>
      <trkpt lat="53.200681" lon="6.547221">
        <ele>40.911041</ele>
        <time>2026-05-05T16:24:18.644Z</time>
      </trkpt>
      <trkpt lat="53.200721" lon="6.547360">
        <ele>41.044153</ele>
        <time>2026-05-05T16:24:21.645Z</time>
      </trkpt>
      <trkpt lat="53.200774" lon="6.547529">
        <ele>41.066577</ele>
        <time>2026-05-05T16:24:25.641Z</time>
      </trkpt>
      <trkpt lat="53.200818" lon="6.547662">
        <ele>41.084438</ele>
        <time>2026-05-05T16:24:29.644Z</time>
      </trkpt>
      <trkpt lat="53.200875" lon="6.547813">
        <ele>41.105418</ele>
        <time>2026-05-05T16:24:33.644Z</time>
      </trkpt>
      <trkpt lat="53.200926" lon="6.547954">
        <ele>41.124781</ele>
        <time>2026-05-05T16:24:36.647Z</time>
      </trkpt>
      <trkpt lat="53.200973" lon="6.548106">
        <ele>41.144889</ele>
        <time>2026-05-05T16:24:39.642Z</time>
      </trkpt>
      <trkpt lat="53.201012" lon="6.548258">
        <ele>41.164327</ele>
        <time>2026-05-05T16:24:42.641Z</time>
      </trkpt>
      <trkpt lat="53.201055" lon="6.548441">
        <ele>41.187434</ele>
        <time>2026-05-05T16:24:46.646Z</time>
      </trkpt>
      <trkpt lat="53.201109" lon="6.548592">
        <ele>41.208107</ele>
        <time>2026-05-05T16:24:49.641Z</time>
      </trkpt>
      <trkpt lat="53.201155" lon="6.548737">
        <ele>41.227395</ele>
        <time>2026-05-05T16:24:52.643Z</time>
      </trkpt>
      <trkpt lat="53.201195" lon="6.548877">
        <ele>41.245629</ele>
        <time>2026-05-05T16:24:55.641Z</time>
      </trkpt>
      <trkpt lat="53.201247" lon="6.549044">
        <ele>41.267754</ele>
        <time>2026-05-05T16:24:59.640Z</time>
      </trkpt>
      <trkpt lat="53.201301" lon="6.549174">
        <ele>41.286350</ele>
        <time>2026-05-05T16:25:02.648Z</time>
      </trkpt>
      <trkpt lat="53.201358" lon="6.549311">
        <ele>41.305958</ele>
        <time>2026-05-05T16:25:05.643Z</time>
      </trkpt>
      <trkpt lat="53.201405" lon="6.549469">
        <ele>41.326695</ele>
        <time>2026-05-05T16:25:09.643Z</time>
      </trkpt>
      <trkpt lat="53.201460" lon="6.549623">
        <ele>41.347771</ele>
        <time>2026-05-05T16:25:14.644Z</time>
      </trkpt>
      <trkpt lat="53.201530" lon="6.549722">
        <ele>41.365775</ele>
        <time>2026-05-05T16:25:19.642Z</time>
      </trkpt>
      <trkpt lat="53.201569" lon="6.549877">
        <ele>41.385538</ele>
        <time>2026-05-05T16:25:32.640Z</time>
      </trkpt>
      <trkpt lat="53.201602" lon="6.550057">
        <ele>41.259976</ele>
        <time>2026-05-05T16:25:36.643Z</time>
      </trkpt>
      <trkpt lat="53.201637" lon="6.550223">
        <ele>41.086099</ele>
        <time>2026-05-05T16:25:40.646Z</time>
      </trkpt>
      <trkpt lat="53.201688" lon="6.550383">
        <ele>40.907026</ele>
        <time>2026-05-05T16:25:44.642Z</time>
      </trkpt>
      <trkpt lat="53.201734" lon="6.550517">
        <ele>40.754430</ele>
        <time>2026-05-05T16:25:47.644Z</time>
      </trkpt>
      <trkpt lat="53.201760" lon="6.550686">
        <ele>40.582034</ele>
        <time>2026-05-05T16:25:50.640Z</time>
      </trkpt>
      <trkpt lat="53.201785" lon="6.550842">
        <ele>40.422481</ele>
        <time>2026-05-05T16:25:53.645Z</time>
      </trkpt>
      <trkpt lat="53.201814" lon="6.551024">
        <ele>40.236407</ele>
        <time>2026-05-05T16:25:57.639Z</time>
      </trkpt>
      <trkpt lat="53.201859" lon="6.551160">
        <ele>40.082898</ele>
        <time>2026-05-05T16:26:00.644Z</time>
      </trkpt>
      <trkpt lat="53.201912" lon="6.551316">
        <ele>39.905700</ele>
        <time>2026-05-05T16:26:03.638Z</time>
      </trkpt>
      <trkpt lat="53.201959" lon="6.551476">
        <ele>39.729631</ele>
        <time>2026-05-05T16:26:06.639Z</time>
      </trkpt>
      <trkpt lat="53.201980" lon="6.551627">
        <ele>39.576471</ele>
        <time>2026-05-05T16:26:09.643Z</time>
      </trkpt>
      <trkpt lat="53.202011" lon="6.551772">
        <ele>39.424356</ele>
        <time>2026-05-05T16:26:13.639Z</time>
      </trkpt>
      <trkpt lat="53.202047" lon="6.551925">
        <ele>39.261945</ele>
        <time>2026-05-05T16:26:19.641Z</time>
      </trkpt>
      <trkpt lat="53.202108" lon="6.552223">
        <ele>38.950798</ele>
        <time>2026-05-05T16:29:45.640Z</time>
      </trkpt>
      <trkpt lat="53.202090" lon="6.552380">
        <ele>38.792863</ele>
        <time>2026-05-05T16:29:50.643Z</time>
      </trkpt>
      <trkpt lat="53.202134" lon="6.552556">
        <ele>38.604435</ele>
        <time>2026-05-05T16:29:54.644Z</time>
      </trkpt>
      <trkpt lat="53.202166" lon="6.552703">
        <ele>38.449902</ele>
        <time>2026-05-05T16:29:57.642Z</time>
      </trkpt>
      <trkpt lat="53.202222" lon="6.552882">
        <ele>38.413745</ele>
        <time>2026-05-05T16:30:04.639Z</time>
      </trkpt>
      <trkpt lat="53.202258" lon="6.553063">
        <ele>38.401428</ele>
        <time>2026-05-05T16:30:07.647Z</time>
      </trkpt>
      <trkpt lat="53.202251" lon="6.553214">
        <ele>38.391647</ele>
        <time>2026-05-05T16:30:10.654Z</time>
      </trkpt>
      <trkpt lat="53.202178" lon="6.553315">
        <ele>38.381424</ele>
        <time>2026-05-05T16:30:14.637Z</time>
      </trkpt>
      <trkpt lat="53.202070" lon="6.553330">
        <ele>38.369739</ele>
        <time>2026-05-05T16:30:18.639Z</time>
      </trkpt>
      <trkpt lat="53.201969" lon="6.553351">
        <ele>38.358765</ele>
        <time>2026-05-05T16:30:21.638Z</time>
      </trkpt>
      <trkpt lat="53.201865" lon="6.553394">
        <ele>38.347213</ele>
        <time>2026-05-05T16:30:24.644Z</time>
      </trkpt>
      <trkpt lat="53.201771" lon="6.553461">
        <ele>38.336192</ele>
        <time>2026-05-05T16:30:27.635Z</time>
      </trkpt>
      <trkpt lat="53.201688" lon="6.553535">
        <ele>38.326047</ele>
        <time>2026-05-05T16:30:30.643Z</time>
      </trkpt>
      <trkpt lat="53.201597" lon="6.553606">
        <ele>38.315216</ele>
        <time>2026-05-05T16:30:33.635Z</time>
      </trkpt>
      <trkpt lat="53.201508" lon="6.553707">
        <ele>38.303613</ele>
        <time>2026-05-05T16:30:36.633Z</time>
      </trkpt>
      <trkpt lat="53.201447" lon="6.553836">
        <ele>38.292998</ele>
        <time>2026-05-05T16:30:39.637Z</time>
      </trkpt>
      <trkpt lat="53.201394" lon="6.553996">
        <ele>38.281190</ele>
        <time>2026-05-05T16:30:42.641Z</time>
      </trkpt>
      <trkpt lat="53.201318" lon="6.554139">
        <ele>38.268843</ele>
        <time>2026-05-05T16:30:45.642Z</time>
      </trkpt>
      <trkpt lat="53.201225" lon="6.554268">
        <ele>38.255806</ele>
        <time>2026-05-05T16:30:48.640Z</time>
      </trkpt>
      <trkpt lat="53.201122" lon="6.554353">
        <ele>38.243417</ele>
        <time>2026-05-05T16:30:51.635Z</time>
      </trkpt>
      <trkpt lat="53.201050" lon="6.554460">
        <ele>38.233024</ele>
        <time>2026-05-05T16:30:58.633Z</time>
      </trkpt>
      <trkpt lat="53.200914" lon="6.554545">
        <ele>38.312018</ele>
        <time>2026-05-05T16:31:01.647Z</time>
      </trkpt>
      <trkpt lat="53.200811" lon="6.554602">
        <ele>38.380148</ele>
        <time>2026-05-05T16:31:03.638Z</time>
      </trkpt>
      <trkpt lat="53.200719" lon="6.554651">
        <ele>38.440779</ele>
        <time>2026-05-05T16:31:06.637Z</time>
      </trkpt>
      <trkpt lat="53.200628" lon="6.554603">
        <ele>38.500699</ele>
        <time>2026-05-05T16:31:10.640Z</time>
      </trkpt>
      <trkpt lat="53.200551" lon="6.554518">
        <ele>38.558657</ele>
        <time>2026-05-05T16:31:13.645Z</time>
      </trkpt>
      <trkpt lat="53.200466" lon="6.554414">
        <ele>38.624824</ele>
        <time>2026-05-05T16:31:16.637Z</time>
      </trkpt>
      <trkpt lat="53.200385" lon="6.554313">
        <ele>38.688301</ele>
        <time>2026-05-05T16:31:19.642Z</time>
      </trkpt>
      <trkpt lat="53.200294" lon="6.554258">
        <ele>38.749066</ele>
        <time>2026-05-05T16:31:22.647Z</time>
      </trkpt>
      <trkpt lat="53.200211" lon="6.554327">
        <ele>38.807282</ele>
        <time>2026-05-05T16:31:25.646Z</time>
      </trkpt>
      <trkpt lat="53.200154" lon="6.554457">
        <ele>38.867873</ele>
        <time>2026-05-05T16:31:28.644Z</time>
      </trkpt>
      <trkpt lat="53.200099" lon="6.554585">
        <ele>38.927119</ele>
        <time>2026-05-05T16:31:31.642Z</time>
      </trkpt>
      <trkpt lat="53.200037" lon="6.554713">
        <ele>38.989029</ele>
        <time>2026-05-05T16:31:35.643Z</time>
      </trkpt>
      <trkpt lat="53.199958" lon="6.554850">
        <ele>39.060549</ele>
        <time>2026-05-05T16:31:40.643Z</time>
      </trkpt>
      <trkpt lat="53.199889" lon="6.554954">
        <ele>39.118917</ele>
        <time>2026-05-05T16:31:43.641Z</time>
      </trkpt>
      <trkpt lat="53.199835" lon="6.555082">
        <ele>39.177799</ele>
        <time>2026-05-05T16:31:46.642Z</time>
      </trkpt>
      <trkpt lat="53.199772" lon="6.555207">
        <ele>39.239238</ele>
        <time>2026-05-05T16:31:49.638Z</time>
      </trkpt>
      <trkpt lat="53.199704" lon="6.555352">
        <ele>39.308498</ele>
        <time>2026-05-05T16:31:52.646Z</time>
      </trkpt>
      <trkpt lat="53.199639" lon="6.555494">
        <ele>39.350862</ele>
        <time>2026-05-05T16:31:55.641Z</time>
      </trkpt>
      <trkpt lat="53.199712" lon="6.555648">
        <ele>39.303817</ele>
        <time>2026-05-05T16:31:59.648Z</time>
      </trkpt>
      <trkpt lat="53.199811" lon="6.555748">
        <ele>39.257543</ele>
        <time>2026-05-05T16:32:02.637Z</time>
      </trkpt>
      <trkpt lat="53.199903" lon="6.555878">
        <ele>39.209341</ele>
        <time>2026-05-05T16:32:05.639Z</time>
      </trkpt>
      <trkpt lat="53.199987" lon="6.556017">
        <ele>39.162042</ele>
        <time>2026-05-05T16:32:08.638Z</time>
      </trkpt>
      <trkpt lat="53.200064" lon="6.556156">
        <ele>39.116688</ele>
        <time>2026-05-05T16:32:11.639Z</time>
      </trkpt>
      <trkpt lat="53.200141" lon="6.556279">
        <ele>39.074069</ele>
        <time>2026-05-05T16:32:14.639Z</time>
      </trkpt>
      <trkpt lat="53.200238" lon="6.556400">
        <ele>39.025645</ele>
        <time>2026-05-05T16:32:17.636Z</time>
      </trkpt>
      <trkpt lat="53.200321" lon="6.556539">
        <ele>38.978629</ele>
        <time>2026-05-05T16:32:20.637Z</time>
      </trkpt>
      <trkpt lat="53.200302" lon="6.556703">
        <ele>38.938614</ele>
        <time>2026-05-05T16:32:23.645Z</time>
      </trkpt>
      <trkpt lat="53.200224" lon="6.556849">
        <ele>38.891750</ele>
        <time>2026-05-05T16:32:26.644Z</time>
      </trkpt>
      <trkpt lat="53.200158" lon="6.556995">
        <ele>38.847934</ele>
        <time>2026-05-05T16:32:29.649Z</time>
      </trkpt>
      <trkpt lat="53.200084" lon="6.557142">
        <ele>38.801936</ele>
        <time>2026-05-05T16:32:32.637Z</time>
      </trkpt>
      <trkpt lat="53.200013" lon="6.557279">
        <ele>38.758540</ele>
        <time>2026-05-05T16:32:35.640Z</time>
      </trkpt>
      <trkpt lat="53.199946" lon="6.557428">
        <ele>38.713908</ele>
        <time>2026-05-05T16:32:38.643Z</time>
      </trkpt>
      <trkpt lat="53.199888" lon="6.557574">
        <ele>38.671941</ele>
        <time>2026-05-05T16:32:41.648Z</time>
      </trkpt>
      <trkpt lat="53.199809" lon="6.557671">
        <ele>38.642412</ele>
        <time>2026-05-05T16:32:46.641Z</time>
      </trkpt>
      <trkpt lat="53.199741" lon="6.557529">
        <ele>38.648399</ele>
        <time>2026-05-05T16:32:53.635Z</time>
      </trkpt>
      <trkpt lat="53.199672" lon="6.557425">
        <ele>38.653510</ele>
        <time>2026-05-05T16:32:56.646Z</time>
      </trkpt>
      <trkpt lat="53.199594" lon="6.557322">
        <ele>38.658978</ele>
        <time>2026-05-05T16:32:59.641Z</time>
      </trkpt>
      <trkpt lat="53.199512" lon="6.557216">
        <ele>38.664681</ele>
        <time>2026-05-05T16:33:02.637Z</time>
      </trkpt>
      <trkpt lat="53.199426" lon="6.557159">
        <ele>38.669768</ele>
        <time>2026-05-05T16:33:06.639Z</time>
      </trkpt>
      <trkpt lat="53.199325" lon="6.557087">
        <ele>38.675806</ele>
        <time>2026-05-05T16:33:11.645Z</time>
      </trkpt>
      <trkpt lat="53.199226" lon="6.557130">
        <ele>38.681431</ele>
        <time>2026-05-05T16:33:16.635Z</time>
      </trkpt>
      <trkpt lat="53.199140" lon="6.557026">
        <ele>38.687269</ele>
        <time>2026-05-05T16:33:20.638Z</time>
      </trkpt>
      <trkpt lat="53.199060" lon="6.556942">
        <ele>38.692466</ele>
        <time>2026-05-05T16:33:28.642Z</time>
      </trkpt>
      <trkpt lat="53.198964" lon="6.556960">
        <ele>38.697777</ele>
        <time>2026-05-05T16:33:31.642Z</time>
      </trkpt>
      <trkpt lat="53.198874" lon="6.557092">
        <ele>38.704364</ele>
        <time>2026-05-05T16:33:34.640Z</time>
      </trkpt>
      <trkpt lat="53.198804" lon="6.557208">
        <ele>38.709787</ele>
        <time>2026-05-05T16:33:37.642Z</time>
      </trkpt>
      <trkpt lat="53.198712" lon="6.557326">
        <ele>38.716166</ele>
        <time>2026-05-05T16:33:41.636Z</time>
      </trkpt>
      <trkpt lat="53.198639" lon="6.557449">
        <ele>38.721869</ele>
        <time>2026-05-05T16:33:44.647Z</time>
      </trkpt>
      <trkpt lat="53.198577" lon="6.557589">
        <ele>38.727603</ele>
        <time>2026-05-05T16:33:47.638Z</time>
      </trkpt>
      <trkpt lat="53.198501" lon="6.557734">
        <ele>38.733949</ele>
        <time>2026-05-05T16:33:51.638Z</time>
      </trkpt>
      <trkpt lat="53.198399" lon="6.558032">
        <ele>38.747271</ele>
        <time>2026-05-05T16:34:17.643Z</time>
      </trkpt>
      <trkpt lat="53.198363" lon="6.558193">
        <ele>38.755162</ele>
        <time>2026-05-05T16:34:20.638Z</time>
      </trkpt>
      <trkpt lat="53.198333" lon="6.558392">
        <ele>38.764585</ele>
        <time>2026-05-05T16:34:23.638Z</time>
      </trkpt>
      <trkpt lat="53.198294" lon="6.558576">
        <ele>38.773547</ele>
        <time>2026-05-05T16:34:26.637Z</time>
      </trkpt>
      <trkpt lat="53.198256" lon="6.558751">
        <ele>38.782094</ele>
        <time>2026-05-05T16:34:29.639Z</time>
      </trkpt>
      <trkpt lat="53.198222" lon="6.558938">
        <ele>38.791067</ele>
        <time>2026-05-05T16:34:32.648Z</time>
      </trkpt>
      <trkpt lat="53.198201" lon="6.559101">
        <ele>38.798723</ele>
        <time>2026-05-05T16:34:35.639Z</time>
      </trkpt>
      <trkpt lat="53.198228" lon="6.559249">
        <ele>38.805827</ele>
        <time>2026-05-05T16:34:38.647Z</time>
      </trkpt>
      <trkpt lat="53.198308" lon="6.559328">
        <ele>38.812952</ele>
        <time>2026-05-05T16:34:41.639Z</time>
      </trkpt>
      <trkpt lat="53.198395" lon="6.559402">
        <ele>38.820436</ele>
        <time>2026-05-05T16:34:44.638Z</time>
      </trkpt>
      <trkpt lat="53.198494" lon="6.559510">
        <ele>38.829502</ele>
        <time>2026-05-05T16:34:48.639Z</time>
      </trkpt>
      <trkpt lat="53.198514" lon="6.559676">
        <ele>38.837277</ele>
        <time>2026-05-05T16:34:51.637Z</time>
      </trkpt>
      <trkpt lat="53.198477" lon="6.559871">
        <ele>38.846669</ele>
        <time>2026-05-05T16:34:54.638Z</time>
      </trkpt>
      <trkpt lat="53.198435" lon="6.560035">
        <ele>38.854859</ele>
        <time>2026-05-05T16:34:57.643Z</time>
      </trkpt>
      <trkpt lat="53.198393" lon="6.560173">
        <ele>38.861966</ele>
        <time>2026-05-05T16:35:00.643Z</time>
      </trkpt>
      <trkpt lat="53.198344" lon="6.560306">
        <ele>38.869136</ele>
        <time>2026-05-05T16:35:03.644Z</time>
      </trkpt>
      <trkpt lat="53.198291" lon="6.560463">
        <ele>38.877411</ele>
        <time>2026-05-05T16:35:07.638Z</time>
      </trkpt>
      <trkpt lat="53.198253" lon="6.560613">
        <ele>38.914360</ele>
        <time>2026-05-05T16:35:10.641Z</time>
      </trkpt>
      <trkpt lat="53.198212" lon="6.560779">
        <ele>38.957882</ele>
        <time>2026-05-05T16:35:13.638Z</time>
      </trkpt>
      <trkpt lat="53.198164" lon="6.560923">
        <ele>38.997825</ele>
        <time>2026-05-05T16:35:16.642Z</time>
      </trkpt>
      <trkpt lat="53.198133" lon="6.561104">
        <ele>39.043455</ele>
        <time>2026-05-05T16:35:22.640Z</time>
      </trkpt>
      <trkpt lat="53.198092" lon="6.561287">
        <ele>39.090812</ele>
        <time>2026-05-05T16:35:26.641Z</time>
      </trkpt>
      <trkpt lat="53.198051" lon="6.561460">
        <ele>39.135907</ele>
        <time>2026-05-05T16:35:30.636Z</time>
      </trkpt>
      <trkpt lat="53.197999" lon="6.561638">
        <ele>39.183908</ele>
        <time>2026-05-05T16:35:34.642Z</time>
      </trkpt>
      <trkpt lat="53.197916" lon="6.561748">
        <ele>39.226789</ele>
        <time>2026-05-05T16:35:38.640Z</time>
      </trkpt>
      <trkpt lat="53.197791" lon="6.561681">
        <ele>39.279909</ele>
        <time>2026-05-05T16:35:41.637Z</time>
      </trkpt>
      <trkpt lat="53.197696" lon="6.561592">
        <ele>39.323987</ele>
        <time>2026-05-05T16:35:44.640Z</time>
      </trkpt>
      <trkpt lat="53.197593" lon="6.561557">
        <ele>39.366517</ele>
        <time>2026-05-05T16:35:48.638Z</time>
      </trkpt>
      <trkpt lat="53.197507" lon="6.561642">
        <ele>39.406956</ele>
        <time>2026-05-05T16:35:51.639Z</time>
      </trkpt>
      <trkpt lat="53.197460" lon="6.561801">
        <ele>39.449933</ele>
        <time>2026-05-05T16:35:54.639Z</time>
      </trkpt>
      <trkpt lat="53.197435" lon="6.561969">
        <ele>39.491892</ele>
        <time>2026-05-05T16:35:57.645Z</time>
      </trkpt>
      <trkpt lat="53.197416" lon="6.562146">
        <ele>39.535478</ele>
        <time>2026-05-05T16:36:00.639Z</time>
      </trkpt>
      <trkpt lat="53.197398" lon="6.562341">
        <ele>39.583302</ele>
        <time>2026-05-05T16:36:03.643Z</time>
      </trkpt>
      <trkpt lat="53.197372" lon="6.562538">
        <ele>39.627382</ele>
        <time>2026-05-05T16:36:06.637Z</time>
      </trkpt>
      <trkpt lat="53.197344" lon="6.562744">
        <ele>39.669257</ele>
        <time>2026-05-05T16:36:09.641Z</time>
      </trkpt>
      <trkpt lat="53.197315" lon="6.562966">
        <ele>39.714300</ele>
        <time>2026-05-05T16:36:12.640Z</time>
      </trkpt>
      <trkpt lat="53.197301" lon="6.563125">
        <ele>39.746158</ele>
        <time>2026-05-05T16:36:14.642Z</time>
      </trkpt>
      <trkpt lat="53.197285" lon="6.563288">
        <ele>39.778902</ele>
        <time>2026-05-05T16:36:19.641Z</time>
      </trkpt>
      <trkpt lat="53.197239" lon="6.563427">
        <ele>39.810382</ele>
        <time>2026-05-05T16:36:28.636Z</time>
      </trkpt>
      <trkpt lat="53.197077" lon="6.563789">
        <ele>39.899956</ele>
        <time>2026-05-05T16:38:19.646Z</time>
      </trkpt>
      <trkpt lat="53.197178" lon="6.563798">
        <ele>39.933426</ele>
        <time>2026-05-05T16:39:11.637Z</time>
      </trkpt>
      <trkpt lat="53.197191" lon="6.563992">
        <ele>39.972124</ele>
        <time>2026-05-05T16:39:17.640Z</time>
      </trkpt>
      <trkpt lat="53.197173" lon="6.564182">
        <ele>40.010257</ele>
        <time>2026-05-05T16:39:21.642Z</time>
      </trkpt>
      <trkpt lat="53.197147" lon="6.564377">
        <ele>40.049859</ele>
        <time>2026-05-05T16:39:25.640Z</time>
      </trkpt>
      <trkpt lat="53.197135" lon="6.564564">
        <ele>40.087142</ele>
        <time>2026-05-05T16:39:29.640Z</time>
      </trkpt>
      <trkpt lat="53.197134" lon="6.564717">
        <ele>40.117474</ele>
        <time>2026-05-05T16:39:32.642Z</time>
      </trkpt>
      <trkpt lat="53.197075" lon="6.564832">
        <ele>40.147489</ele>
        <time>2026-05-05T16:39:35.641Z</time>
      </trkpt>
      <trkpt lat="53.196970" lon="6.564849">
        <ele>40.182398</ele>
        <time>2026-05-05T16:39:38.640Z</time>
      </trkpt>
      <trkpt lat="53.196859" lon="6.564874">
        <ele>40.174326</ele>
        <time>2026-05-05T16:39:41.639Z</time>
      </trkpt>
      <trkpt lat="53.196755" lon="6.564884">
        <ele>40.124720</ele>
        <time>2026-05-05T16:39:44.636Z</time>
      </trkpt>
      <trkpt lat="53.196663" lon="6.564888">
        <ele>40.080896</ele>
        <time>2026-05-05T16:39:47.637Z</time>
      </trkpt>
      <trkpt lat="53.196542" lon="6.564912">
        <ele>40.022872</ele>
        <time>2026-05-05T16:39:51.637Z</time>
      </trkpt>
      <trkpt lat="53.196431" lon="6.564930">
        <ele>39.969767</ele>
        <time>2026-05-05T16:39:54.636Z</time>
      </trkpt>
      <trkpt lat="53.196322" lon="6.564945">
        <ele>39.917686</ele>
        <time>2026-05-05T16:39:57.636Z</time>
      </trkpt>
      <trkpt lat="53.196215" lon="6.564965">
        <ele>39.866416</ele>
        <time>2026-05-05T16:40:00.638Z</time>
      </trkpt>
      <trkpt lat="53.196102" lon="6.564977">
        <ele>39.812498</ele>
        <time>2026-05-05T16:40:03.637Z</time>
      </trkpt>
      <trkpt lat="53.195993" lon="6.564988">
        <ele>39.760499</ele>
        <time>2026-05-05T16:40:06.636Z</time>
      </trkpt>
      <trkpt lat="53.195891" lon="6.565018">
        <ele>39.711180</ele>
        <time>2026-05-05T16:40:09.637Z</time>
      </trkpt>
      <trkpt lat="53.195791" lon="6.565032">
        <ele>39.663394</ele>
        <time>2026-05-05T16:40:12.641Z</time>
      </trkpt>
      <trkpt lat="53.195676" lon="6.565043">
        <ele>39.608543</ele>
        <time>2026-05-05T16:40:15.639Z</time>
      </trkpt>
      <trkpt lat="53.195565" lon="6.565057">
        <ele>39.555535</ele>
        <time>2026-05-05T16:40:18.645Z</time>
      </trkpt>
      <trkpt lat="53.195473" lon="6.565066">
        <ele>39.511651</ele>
        <time>2026-05-05T16:40:21.635Z</time>
      </trkpt>
      <trkpt lat="53.195354" lon="6.565095">
        <ele>39.454384</ele>
        <time>2026-05-05T16:40:25.647Z</time>
      </trkpt>
      <trkpt lat="53.195256" lon="6.565090">
        <ele>39.407696</ele>
        <time>2026-05-05T16:40:28.636Z</time>
      </trkpt>
      <trkpt lat="53.195156" lon="6.565072">
        <ele>39.359801</ele>
        <time>2026-05-05T16:40:31.641Z</time>
      </trkpt>
      <trkpt lat="53.195084" lon="6.565203">
        <ele>39.345468</ele>
        <time>2026-05-05T16:40:35.639Z</time>
      </trkpt>
      <trkpt lat="53.195081" lon="6.565358">
        <ele>39.346721</ele>
        <time>2026-05-05T16:40:38.645Z</time>
      </trkpt>
      <trkpt lat="53.195089" lon="6.565536">
        <ele>39.348162</ele>
        <time>2026-05-05T16:40:41.646Z</time>
      </trkpt>
      <trkpt lat="53.195106" lon="6.565725">
        <ele>39.349706</ele>
        <time>2026-05-05T16:40:44.645Z</time>
      </trkpt>
      <trkpt lat="53.195119" lon="6.565923">
        <ele>39.351315</ele>
        <time>2026-05-05T16:40:47.645Z</time>
      </trkpt>
      <trkpt lat="53.195127" lon="6.566089">
        <ele>39.352660</ele>
        <time>2026-05-05T16:40:50.637Z</time>
      </trkpt>
      <trkpt lat="53.195133" lon="6.566268">
        <ele>39.354108</ele>
        <time>2026-05-05T16:40:53.643Z</time>
      </trkpt>
      <trkpt lat="53.195141" lon="6.566435">
        <ele>39.355461</ele>
        <time>2026-05-05T16:40:56.637Z</time>
      </trkpt>
      <trkpt lat="53.195139" lon="6.566611">
        <ele>39.356882</ele>
        <time>2026-05-05T16:40:59.643Z</time>
      </trkpt>
      <trkpt lat="53.195152" lon="6.566795">
        <ele>39.358379</ele>
        <time>2026-05-05T16:41:02.643Z</time>
      </trkpt>
      <trkpt lat="53.195163" lon="6.566979">
        <ele>39.359872</ele>
        <time>2026-05-05T16:41:05.635Z</time>
      </trkpt>
      <trkpt lat="53.195173" lon="6.567180">
        <ele>39.361501</ele>
        <time>2026-05-05T16:41:08.642Z</time>
      </trkpt>
      <trkpt lat="53.195190" lon="6.567352">
        <ele>39.362909</ele>
        <time>2026-05-05T16:41:11.636Z</time>
      </trkpt>
      <trkpt lat="53.195199" lon="6.567555">
        <ele>39.364553</ele>
        <time>2026-05-05T16:41:14.643Z</time>
      </trkpt>
      <trkpt lat="53.195193" lon="6.567737">
        <ele>39.366025</ele>
        <time>2026-05-05T16:41:17.643Z</time>
      </trkpt>
      <trkpt lat="53.195193" lon="6.567901">
        <ele>39.367349</ele>
        <time>2026-05-05T16:41:20.640Z</time>
      </trkpt>
      <trkpt lat="53.195206" lon="6.568084">
        <ele>39.371984</ele>
        <time>2026-05-05T16:41:23.638Z</time>
      </trkpt>
      <trkpt lat="53.195214" lon="6.568246">
        <ele>39.406676</ele>
        <time>2026-05-05T16:41:26.646Z</time>
      </trkpt>
      <trkpt lat="53.195204" lon="6.568445">
        <ele>39.449296</ele>
        <time>2026-05-05T16:41:30.641Z</time>
      </trkpt>
      <trkpt lat="53.195158" lon="6.568622">
        <ele>39.490472</ele>
        <time>2026-05-05T16:41:33.641Z</time>
      </trkpt>
      <trkpt lat="53.195092" lon="6.568787">
        <ele>39.532815</ele>
        <time>2026-05-05T16:41:36.637Z</time>
      </trkpt>
      <trkpt lat="53.195023" lon="6.568956">
        <ele>39.576463</ele>
        <time>2026-05-05T16:41:39.640Z</time>
      </trkpt>
      <trkpt lat="53.194977" lon="6.569143">
        <ele>39.619606</ele>
        <time>2026-05-05T16:41:42.644Z</time>
      </trkpt>
      <trkpt lat="53.194991" lon="6.569337">
        <ele>39.661309</ele>
        <time>2026-05-05T16:41:45.643Z</time>
      </trkpt>
      <trkpt lat="53.195015" lon="6.569511">
        <ele>39.699416</ele>
        <time>2026-05-05T16:41:48.636Z</time>
      </trkpt>
      <trkpt lat="53.195037" lon="6.569712">
        <ele>39.743024</ele>
        <time>2026-05-05T16:41:51.641Z</time>
      </trkpt>
      <trkpt lat="53.195062" lon="6.569905">
        <ele>39.785166</ele>
        <time>2026-05-05T16:41:54.640Z</time>
      </trkpt>
      <trkpt lat="53.195083" lon="6.570066">
        <ele>39.820332</ele>
        <time>2026-05-05T16:41:57.643Z</time>
      </trkpt>
      <trkpt lat="53.195110" lon="6.570253">
        <ele>39.861384</ele>
        <time>2026-05-05T16:42:00.641Z</time>
      </trkpt>
      <trkpt lat="53.195143" lon="6.570450">
        <ele>39.905041</ele>
        <time>2026-05-05T16:42:03.640Z</time>
      </trkpt>
      <trkpt lat="53.195171" lon="6.570623">
        <ele>39.943286</ele>
        <time>2026-05-05T16:42:06.641Z</time>
      </trkpt>
      <trkpt lat="53.195210" lon="6.570770">
        <ele>39.977598</ele>
        <time>2026-05-05T16:42:09.636Z</time>
      </trkpt>
      <trkpt lat="53.195241" lon="6.570969">
        <ele>40.017683</ele>
        <time>2026-05-05T16:42:12.639Z</time>
      </trkpt>
      <trkpt lat="53.195262" lon="6.571180">
        <ele>40.048901</ele>
        <time>2026-05-05T16:42:15.639Z</time>
      </trkpt>
      <trkpt lat="53.195296" lon="6.571375">
        <ele>40.078544</ele>
        <time>2026-05-05T16:42:18.639Z</time>
      </trkpt>
      <trkpt lat="53.195322" lon="6.571522">
        <ele>40.100915</ele>
        <time>2026-05-05T16:42:20.639Z</time>
      </trkpt>
      <trkpt lat="53.195343" lon="6.571680">
        <ele>40.124536</ele>
        <time>2026-05-05T16:42:22.640Z</time>
      </trkpt>
      <trkpt lat="53.195359" lon="6.571882">
        <ele>40.154276</ele>
        <time>2026-05-05T16:42:25.639Z</time>
      </trkpt>
      <trkpt lat="53.195380" lon="6.572075">
        <ele>40.182906</ele>
        <time>2026-05-05T16:42:28.640Z</time>
      </trkpt>
      <trkpt lat="53.195408" lon="6.572287">
        <ele>40.214592</ele>
        <time>2026-05-05T16:42:31.639Z</time>
      </trkpt>
      <trkpt lat="53.195436" lon="6.572492">
        <ele>40.245280</ele>
        <time>2026-05-05T16:42:34.639Z</time>
      </trkpt>
      <trkpt lat="53.195467" lon="6.572664">
        <ele>40.271496</ele>
        <time>2026-05-05T16:42:37.639Z</time>
      </trkpt>
      <trkpt lat="53.195487" lon="6.572856">
        <ele>40.299940</ele>
        <time>2026-05-05T16:42:41.642Z</time>
      </trkpt>
      <trkpt lat="53.195501" lon="6.573075">
        <ele>40.332085</ele>
        <time>2026-05-05T16:42:44.638Z</time>
      </trkpt>
      <trkpt lat="53.195526" lon="6.573292">
        <ele>40.364338</ele>
        <time>2026-05-05T16:42:47.643Z</time>
      </trkpt>
      <trkpt lat="53.195557" lon="6.573441">
        <ele>40.387359</ele>
        <time>2026-05-05T16:42:49.642Z</time>
      </trkpt>
      <trkpt lat="53.195586" lon="6.573655">
        <ele>40.419382</ele>
        <time>2026-05-05T16:42:52.641Z</time>
      </trkpt>
      <trkpt lat="53.195623" lon="6.573827">
        <ele>40.446056</ele>
        <time>2026-05-05T16:42:55.641Z</time>
      </trkpt>
      <trkpt lat="53.195642" lon="6.573982">
        <ele>40.452343</ele>
        <time>2026-05-05T16:42:58.635Z</time>
      </trkpt>
      <trkpt lat="53.195667" lon="6.574179">
        <ele>40.458740</ele>
        <time>2026-05-05T16:43:01.641Z</time>
      </trkpt>
      <trkpt lat="53.195679" lon="6.574401">
        <ele>40.465822</ele>
        <time>2026-05-05T16:43:04.640Z</time>
      </trkpt>
      <trkpt lat="53.195697" lon="6.574550">
        <ele>40.470651</ele>
        <time>2026-05-05T16:43:06.641Z</time>
      </trkpt>
      <trkpt lat="53.195712" lon="6.574698">
        <ele>40.475419</ele>
        <time>2026-05-05T16:43:08.641Z</time>
      </trkpt>
      <trkpt lat="53.195736" lon="6.574891">
        <ele>40.481682</ele>
        <time>2026-05-05T16:43:11.643Z</time>
      </trkpt>
      <trkpt lat="53.195765" lon="6.575082">
        <ele>40.487942</ele>
        <time>2026-05-05T16:43:14.648Z</time>
      </trkpt>
      <trkpt lat="53.195805" lon="6.575257">
        <ele>40.493892</ele>
        <time>2026-05-05T16:43:17.640Z</time>
      </trkpt>
      <trkpt lat="53.195858" lon="6.575439">
        <ele>40.500321</ele>
        <time>2026-05-05T16:43:20.641Z</time>
      </trkpt>
      <trkpt lat="53.195913" lon="6.575614">
        <ele>40.506600</ele>
        <time>2026-05-05T16:43:23.637Z</time>
      </trkpt>
      <trkpt lat="53.195893" lon="6.575466">
        <ele>40.511420</ele>
        <time>2026-05-05T16:43:35.640Z</time>
      </trkpt>
      <trkpt lat="53.195923" lon="6.575654">
        <ele>40.517601</ele>
        <time>2026-05-05T16:44:17.641Z</time>
      </trkpt>
      <trkpt lat="53.195974" lon="6.575821">
        <ele>40.523556</ele>
        <time>2026-05-05T16:44:21.646Z</time>
      </trkpt>
      <trkpt lat="53.196003" lon="6.575974">
        <ele>40.528654</ele>
        <time>2026-05-05T16:44:24.639Z</time>
      </trkpt>
      <trkpt lat="53.196028" lon="6.576145">
        <ele>40.534246</ele>
        <time>2026-05-05T16:44:27.645Z</time>
      </trkpt>
      <trkpt lat="53.196051" lon="6.576319">
        <ele>40.539907</ele>
        <time>2026-05-05T16:44:30.638Z</time>
      </trkpt>
      <trkpt lat="53.196071" lon="6.576495">
        <ele>40.695630</ele>
        <time>2026-05-05T16:44:33.635Z</time>
      </trkpt>
      <trkpt lat="53.196103" lon="6.576649">
        <ele>41.005756</ele>
        <time>2026-05-05T16:44:36.635Z</time>
      </trkpt>
      <trkpt lat="53.196128" lon="6.576816">
        <ele>41.333261</ele>
        <time>2026-05-05T16:44:39.635Z</time>
      </trkpt>
      <trkpt lat="53.196159" lon="6.576981">
        <ele>41.662267</ele>
        <time>2026-05-05T16:44:42.638Z</time>
      </trkpt>
      <trkpt lat="53.196203" lon="6.577142">
        <ele>41.998955</ele>
        <time>2026-05-05T16:44:45.640Z</time>
      </trkpt>
      <trkpt lat="53.196252" lon="6.577302">
        <ele>42.340841</ele>
        <time>2026-05-05T16:44:48.636Z</time>
      </trkpt>
      <trkpt lat="53.196300" lon="6.577481">
        <ele>42.713968</ele>
        <time>2026-05-05T16:44:51.642Z</time>
      </trkpt>
      <trkpt lat="53.196349" lon="6.577658">
        <ele>43.084945</ele>
        <time>2026-05-05T16:44:54.641Z</time>
      </trkpt>
      <trkpt lat="53.196401" lon="6.577827">
        <ele>43.446415</ele>
        <time>2026-05-05T16:44:57.642Z</time>
      </trkpt>
      <trkpt lat="53.196452" lon="6.577990">
        <ele>43.796287</ele>
        <time>2026-05-05T16:45:00.641Z</time>
      </trkpt>
      <trkpt lat="53.196497" lon="6.578165">
        <ele>44.158617</ele>
        <time>2026-05-05T16:45:03.641Z</time>
      </trkpt>
      <trkpt lat="53.196559" lon="6.578340">
        <ele>44.545436</ele>
        <time>2026-05-05T16:45:06.640Z</time>
      </trkpt>
      <trkpt lat="53.196614" lon="6.578489">
        <ele>44.878415</ele>
        <time>2026-05-05T16:45:09.634Z</time>
      </trkpt>
      <trkpt lat="53.196669" lon="6.578645">
        <ele>45.222803</ele>
        <time>2026-05-05T16:45:12.639Z</time>
      </trkpt>
      <trkpt lat="53.196720" lon="6.578814">
        <ele>45.582830</ele>
        <time>2026-05-05T16:45:15.640Z</time>
      </trkpt>
      <trkpt lat="53.196774" lon="6.578989">
        <ele>45.957354</ele>
        <time>2026-05-05T16:45:18.639Z</time>
      </trkpt>
      <trkpt lat="53.196830" lon="6.579154">
        <ele>46.260529</ele>
        <time>2026-05-05T16:45:21.639Z</time>
      </trkpt>
      <trkpt lat="53.196883" lon="6.579326">
        <ele>46.290897</ele>
        <time>2026-05-05T16:45:24.645Z</time>
      </trkpt>
      <trkpt lat="53.196919" lon="6.579482">
        <ele>46.317145</ele>
        <time>2026-05-05T16:45:27.643Z</time>
      </trkpt>
      <trkpt lat="53.196966" lon="6.579651">
        <ele>46.346398</ele>
        <time>2026-05-05T16:45:30.636Z</time>
      </trkpt>
      <trkpt lat="53.197021" lon="6.579811">
        <ele>46.375361</ele>
        <time>2026-05-05T16:45:33.636Z</time>
      </trkpt>
      <trkpt lat="53.197076" lon="6.579967">
        <ele>46.403780</ele>
        <time>2026-05-05T16:45:36.637Z</time>
      </trkpt>
      <trkpt lat="53.197124" lon="6.580120">
        <ele>46.430897</ele>
        <time>2026-05-05T16:45:39.637Z</time>
      </trkpt>
      <trkpt lat="53.197174" lon="6.580258">
        <ele>46.456218</ele>
        <time>2026-05-05T16:45:42.641Z</time>
      </trkpt>
      <trkpt lat="53.197214" lon="6.580406">
        <ele>46.481710</ele>
        <time>2026-05-05T16:45:46.640Z</time>
      </trkpt>
      <trkpt lat="53.197250" lon="6.580573">
        <ele>46.509576</ele>
        <time>2026-05-05T16:45:52.640Z</time>
      </trkpt>
      <trkpt lat="53.197346" lon="6.580646">
        <ele>46.537223</ele>
        <time>2026-05-05T16:45:56.638Z</time>
      </trkpt>
      <trkpt lat="53.197430" lon="6.580549">
        <ele>46.563992</ele>
        <time>2026-05-05T16:46:00.646Z</time>
      </trkpt>
      <trkpt lat="53.197525" lon="6.580487">
        <ele>46.590725</ele>
        <time>2026-05-05T16:46:03.639Z</time>
      </trkpt>
      <trkpt lat="53.197624" lon="6.580414">
        <ele>46.619090</ele>
        <time>2026-05-05T16:46:06.638Z</time>
      </trkpt>
      <trkpt lat="53.197721" lon="6.580457">
        <ele>46.645394</ele>
        <time>2026-05-05T16:46:10.638Z</time>
      </trkpt>
      <trkpt lat="53.197756" lon="6.580638">
        <ele>46.675255</ele>
        <time>2026-05-05T16:46:13.644Z</time>
      </trkpt>
      <trkpt lat="53.197796" lon="6.580839">
        <ele>46.708508</ele>
        <time>2026-05-05T16:46:16.644Z</time>
      </trkpt>
      <trkpt lat="53.197841" lon="6.581041">
        <ele>46.706740</ele>
        <time>2026-05-05T16:46:19.637Z</time>
      </trkpt>
      <trkpt lat="53.197880" lon="6.581231">
        <ele>46.666325</ele>
        <time>2026-05-05T16:46:22.640Z</time>
      </trkpt>
      <trkpt lat="53.197926" lon="6.581417">
        <ele>46.625833</ele>
        <time>2026-05-05T16:46:25.642Z</time>
      </trkpt>
      <trkpt lat="53.197952" lon="6.581583">
        <ele>46.591307</ele>
        <time>2026-05-05T16:46:28.642Z</time>
      </trkpt>
      <trkpt lat="53.197986" lon="6.581740">
        <ele>46.557714</ele>
        <time>2026-05-05T16:46:31.637Z</time>
      </trkpt>
      <trkpt lat="53.198032" lon="6.581916">
        <ele>46.519074</ele>
        <time>2026-05-05T16:46:34.640Z</time>
      </trkpt>
      <trkpt lat="53.198077" lon="6.582090">
        <ele>46.480937</ele>
        <time>2026-05-05T16:46:37.640Z</time>
      </trkpt>
      <trkpt lat="53.198140" lon="6.582266">
        <ele>46.439681</ele>
        <time>2026-05-05T16:46:40.641Z</time>
      </trkpt>
      <trkpt lat="53.198216" lon="6.582417">
        <ele>46.399995</ele>
        <time>2026-05-05T16:46:43.636Z</time>
      </trkpt>
      <trkpt lat="53.198302" lon="6.582548">
        <ele>46.360888</ele>
        <time>2026-05-05T16:46:46.639Z</time>
      </trkpt>
      <trkpt lat="53.198385" lon="6.582667">
        <ele>46.324136</ele>
        <time>2026-05-05T16:46:49.636Z</time>
      </trkpt>
      <trkpt lat="53.198470" lon="6.582774">
        <ele>46.288376</ele>
        <time>2026-05-05T16:46:52.639Z</time>
      </trkpt>
      <trkpt lat="53.198540" lon="6.582880">
        <ele>46.256629</ele>
        <time>2026-05-05T16:46:55.639Z</time>
      </trkpt>
      <trkpt lat="53.198584" lon="6.583073">
        <ele>46.215076</ele>
        <time>2026-05-05T16:46:59.640Z</time>
      </trkpt>
      <trkpt lat="53.198534" lon="6.583255">
        <ele>46.174786</ele>
        <time>2026-05-05T16:47:02.639Z</time>
      </trkpt>
      <trkpt lat="53.198449" lon="6.583418">
        <ele>46.131300</ele>
        <time>2026-05-05T16:47:05.638Z</time>
      </trkpt>
      <trkpt lat="53.198374" lon="6.583580">
        <ele>45.937623</ele>
        <time>2026-05-05T16:47:08.645Z</time>
      </trkpt>
      <trkpt lat="53.198323" lon="6.583728">
        <ele>45.741891</ele>
        <time>2026-05-05T16:47:11.643Z</time>
      </trkpt>
      <trkpt lat="53.198344" lon="6.583896">
        <ele>45.545153</ele>
        <time>2026-05-05T16:47:14.636Z</time>
      </trkpt>
      <trkpt lat="53.198389" lon="6.584079">
        <ele>45.318379</ele>
        <time>2026-05-05T16:47:17.643Z</time>
      </trkpt>
      <trkpt lat="53.198442" lon="6.584276">
        <ele>45.070815</ele>
        <time>2026-05-05T16:47:20.643Z</time>
      </trkpt>
      <trkpt lat="53.198492" lon="6.584464">
        <ele>44.835012</ele>
        <time>2026-05-05T16:47:23.641Z</time>
      </trkpt>
      <trkpt lat="53.198533" lon="6.584641">
        <ele>44.617463</ele>
        <time>2026-05-05T16:47:26.641Z</time>
      </trkpt>
      <trkpt lat="53.198564" lon="6.584814">
        <ele>44.410459</ele>
        <time>2026-05-05T16:47:29.641Z</time>
      </trkpt>
      <trkpt lat="53.198602" lon="6.584982">
        <ele>44.204598</ele>
        <time>2026-05-05T16:47:32.641Z</time>
      </trkpt>
      <trkpt lat="53.198633" lon="6.585168">
        <ele>43.983275</ele>
        <time>2026-05-05T16:47:35.641Z</time>
      </trkpt>
      <trkpt lat="53.198676" lon="6.585329">
        <ele>43.781197</ele>
        <time>2026-05-05T16:47:38.640Z</time>
      </trkpt>
      <trkpt lat="53.198710" lon="6.585528">
        <ele>43.543973</ele>
        <time>2026-05-05T16:47:41.635Z</time>
      </trkpt>
      <trkpt lat="53.198747" lon="6.585742">
        <ele>43.288638</ele>
        <time>2026-05-05T16:47:44.648Z</time>
      </trkpt>
      <trkpt lat="53.198774" lon="6.585903">
        <ele>43.096978</ele>
        <time>2026-05-05T16:47:46.639Z</time>
      </trkpt>
      <trkpt lat="53.198802" lon="6.586060">
        <ele>42.909192</ele>
        <time>2026-05-05T16:47:48.638Z</time>
      </trkpt>
      <trkpt lat="53.198833" lon="6.586206">
        <ele>42.731621</ele>
        <time>2026-05-05T16:47:50.640Z</time>
      </trkpt>
      <trkpt lat="53.198864" lon="6.586421">
        <ele>42.622312</ele>
        <time>2026-05-05T16:47:53.635Z</time>
      </trkpt>
      <trkpt lat="53.198898" lon="6.586634">
        <ele>42.549598</ele>
        <time>2026-05-05T16:47:56.637Z</time>
      </trkpt>
      <trkpt lat="53.198917" lon="6.586796">
        <ele>42.495144</ele>
        <time>2026-05-05T16:47:58.639Z</time>
      </trkpt>
      <trkpt lat="53.198942" lon="6.587013">
        <ele>42.422251</ele>
        <time>2026-05-05T16:48:01.630Z</time>
      </trkpt>
      <trkpt lat="53.198962" lon="6.587221">
        <ele>42.352760</ele>
        <time>2026-05-05T16:48:04.646Z</time>
      </trkpt>
      <trkpt lat="53.198985" lon="6.587430">
        <ele>42.282663</ele>
        <time>2026-05-05T16:48:07.638Z</time>
      </trkpt>
      <trkpt lat="53.199013" lon="6.587637">
        <ele>42.212661</ele>
        <time>2026-05-05T16:48:10.644Z</time>
      </trkpt>
      <trkpt lat="53.199038" lon="6.587786">
        <ele>42.161619</ele>
        <time>2026-05-05T16:48:12.638Z</time>
      </trkpt>
      <trkpt lat="53.199056" lon="6.587940">
        <ele>42.109862</ele>
        <time>2026-05-05T16:48:14.650Z</time>
      </trkpt>
      <trkpt lat="53.199081" lon="6.588153">
        <ele>42.038264</ele>
        <time>2026-05-05T16:48:17.638Z</time>
      </trkpt>
      <trkpt lat="53.199095" lon="6.588339">
        <ele>41.976426</ele>
        <time>2026-05-05T16:48:20.645Z</time>
      </trkpt>
      <trkpt lat="53.199105" lon="6.588533">
        <ele>41.912195</ele>
        <time>2026-05-05T16:48:23.639Z</time>
      </trkpt>
      <trkpt lat="53.199126" lon="6.588738">
        <ele>41.843590</ele>
        <time>2026-05-05T16:48:26.641Z</time>
      </trkpt>
      <trkpt lat="53.199147" lon="6.588915">
        <ele>41.784069</ele>
        <time>2026-05-05T16:48:29.640Z</time>
      </trkpt>
      <trkpt lat="53.199175" lon="6.589070">
        <ele>41.730666</ele>
        <time>2026-05-05T16:48:33.637Z</time>
      </trkpt>
      <trkpt lat="53.199247" lon="6.589218">
        <ele>41.576647</ele>
        <time>2026-05-05T16:48:37.639Z</time>
      </trkpt>
      <trkpt lat="53.199281" lon="6.589368">
        <ele>41.307993</ele>
        <time>2026-05-05T16:48:42.647Z</time>
      </trkpt>
      <trkpt lat="53.199336" lon="6.589546">
        <ele>40.972494</ele>
        <time>2026-05-05T16:48:46.638Z</time>
      </trkpt>
      <trkpt lat="53.199393" lon="6.589719">
        <ele>40.641758</ele>
        <time>2026-05-05T16:48:49.641Z</time>
      </trkpt>
      <trkpt lat="53.199434" lon="6.589896">
        <ele>40.323868</ele>
        <time>2026-05-05T16:48:52.646Z</time>
      </trkpt>
      <trkpt lat="53.199492" lon="6.590059">
        <ele>40.006288</ele>
        <time>2026-05-05T16:48:55.637Z</time>
      </trkpt>
      <trkpt lat="53.199625" lon="6.590101">
        <ele>39.627776</ele>
        <time>2026-05-05T16:48:58.638Z</time>
      </trkpt>
      <trkpt lat="53.199730" lon="6.590034">
        <ele>39.313440</ele>
        <time>2026-05-05T16:49:01.638Z</time>
      </trkpt>
      <trkpt lat="53.199834" lon="6.589964">
        <ele>38.999870</ele>
        <time>2026-05-05T16:49:04.636Z</time>
      </trkpt>
      <trkpt lat="53.199966" lon="6.589865">
        <ele>38.595210</ele>
        <time>2026-05-05T16:49:07.639Z</time>
      </trkpt>
      <trkpt lat="53.200055" lon="6.589807">
        <ele>38.328043</ele>
        <time>2026-05-05T16:49:09.638Z</time>
      </trkpt>
      <trkpt lat="53.200174" lon="6.589717">
        <ele>37.962719</ele>
        <time>2026-05-05T16:49:12.638Z</time>
      </trkpt>
      <trkpt lat="53.200273" lon="6.589613">
        <ele>37.635628</ele>
        <time>2026-05-05T16:49:15.642Z</time>
      </trkpt>
      <trkpt lat="53.200306" lon="6.589423">
        <ele>37.304255</ele>
        <time>2026-05-05T16:49:19.640Z</time>
      </trkpt>
      <trkpt lat="53.200275" lon="6.589239">
        <ele>36.984083</ele>
        <time>2026-05-05T16:49:22.641Z</time>
      </trkpt>
      <trkpt lat="53.200227" lon="6.589043">
        <ele>36.671977</ele>
        <time>2026-05-05T16:49:25.641Z</time>
      </trkpt>
      <trkpt lat="53.200179" lon="6.588848">
        <ele>36.802778</ele>
        <time>2026-05-05T16:49:28.638Z</time>
      </trkpt>
      <trkpt lat="53.200145" lon="6.588684">
        <ele>36.910451</ele>
        <time>2026-05-05T16:49:31.643Z</time>
      </trkpt>
      <trkpt lat="53.200113" lon="6.588521">
        <ele>37.016875</ele>
        <time>2026-05-05T16:49:34.635Z</time>
      </trkpt>
      <trkpt lat="53.200091" lon="6.588375">
        <ele>37.110280</ele>
        <time>2026-05-05T16:49:38.642Z</time>
      </trkpt>
      <trkpt lat="53.200130" lon="6.588208">
        <ele>37.221489</ele>
        <time>2026-05-05T16:50:34.681Z</time>
      </trkpt>
      <trkpt lat="53.200257" lon="6.588201">
        <ele>37.353100</ele>
        <time>2026-05-05T16:51:08.643Z</time>
      </trkpt>
      <trkpt lat="53.200327" lon="6.588315">
        <ele>37.454388</ele>
        <time>2026-05-05T16:51:12.641Z</time>
      </trkpt>
      <trkpt lat="53.200403" lon="6.588424">
        <ele>37.558166</ele>
        <time>2026-05-05T16:51:17.644Z</time>
      </trkpt>
      <trkpt lat="53.200496" lon="6.588481">
        <ele>37.660777</ele>
        <time>2026-05-05T16:51:21.642Z</time>
      </trkpt>
      <trkpt lat="53.200594" lon="6.588584">
        <ele>37.780721</ele>
        <time>2026-05-05T16:51:25.640Z</time>
      </trkpt>
      <trkpt lat="53.200638" lon="6.588730">
        <ele>37.882122</ele>
        <time>2026-05-05T16:51:29.639Z</time>
      </trkpt>
      <trkpt lat="53.200656" lon="6.588931">
        <ele>38.008214</ele>
        <time>2026-05-05T16:51:33.640Z</time>
      </trkpt>
      <trkpt lat="53.200656" lon="6.589108">
        <ele>38.118029</ele>
        <time>2026-05-05T16:51:36.640Z</time>
      </trkpt>
      <trkpt lat="53.200598" lon="6.589247">
        <ele>38.223130</ele>
        <time>2026-05-05T16:51:39.639Z</time>
      </trkpt>
      <trkpt lat="53.200547" lon="6.589391">
        <ele>38.326919</ele>
        <time>2026-05-05T16:51:42.637Z</time>
      </trkpt>
      <trkpt lat="53.200550" lon="6.589561">
        <ele>38.432438</ele>
        <time>2026-05-05T16:51:45.639Z</time>
      </trkpt>
      <trkpt lat="53.200578" lon="6.589705">
        <ele>38.523256</ele>
        <time>2026-05-05T16:51:48.652Z</time>
      </trkpt>
      <trkpt lat="53.200662" lon="6.589797">
        <ele>38.517956</ele>
        <time>2026-05-05T16:51:52.636Z</time>
      </trkpt>
      <trkpt lat="53.200710" lon="6.589973">
        <ele>38.511846</ele>
        <time>2026-05-05T16:51:57.633Z</time>
      </trkpt>
      <trkpt lat="53.200704" lon="6.590135">
        <ele>38.506717</ele>
        <time>2026-05-05T16:52:00.650Z</time>
      </trkpt>
      <trkpt lat="53.200704" lon="6.590314">
        <ele>38.501061</ele>
        <time>2026-05-05T16:52:04.637Z</time>
      </trkpt>
      <trkpt lat="53.200659" lon="6.590450">
        <ele>38.496151</ele>
        <time>2026-05-05T16:52:09.641Z</time>
      </trkpt>
      <trkpt lat="53.200633" lon="6.590607">
        <ele>38.491004</ele>
        <time>2026-05-05T16:52:13.633Z</time>
      </trkpt>
      <trkpt lat="53.200693" lon="6.590767">
        <ele>38.485040</ele>
        <time>2026-05-05T16:52:17.635Z</time>
      </trkpt>
      <trkpt lat="53.200747" lon="6.590950">
        <ele>38.478594</ele>
        <time>2026-05-05T16:52:20.643Z</time>
      </trkpt>
      <trkpt lat="53.200797" lon="6.591145">
        <ele>38.471891</ele>
        <time>2026-05-05T16:52:23.634Z</time>
      </trkpt>
      <trkpt lat="53.200840" lon="6.591323">
        <ele>38.465826</ele>
        <time>2026-05-05T16:52:26.633Z</time>
      </trkpt>
      <trkpt lat="53.200880" lon="6.591501">
        <ele>38.459819</ele>
        <time>2026-05-05T16:52:29.640Z</time>
      </trkpt>
      <trkpt lat="53.200920" lon="6.591695">
        <ele>38.453336</ele>
        <time>2026-05-05T16:52:32.633Z</time>
      </trkpt>
      <trkpt lat="53.200967" lon="6.591895">
        <ele>38.446547</ele>
        <time>2026-05-05T16:52:35.636Z</time>
      </trkpt>
      <trkpt lat="53.201011" lon="6.592104">
        <ele>38.439547</ele>
        <time>2026-05-05T16:52:38.638Z</time>
      </trkpt>
      <trkpt lat="53.201045" lon="6.592250">
        <ele>38.434598</ele>
        <time>2026-05-05T16:52:40.638Z</time>
      </trkpt>
      <trkpt lat="53.201075" lon="6.592394">
        <ele>38.429780</ele>
        <time>2026-05-05T16:52:42.640Z</time>
      </trkpt>
      <trkpt lat="53.201107" lon="6.592540">
        <ele>38.483015</ele>
        <time>2026-05-05T16:52:44.639Z</time>
      </trkpt>
      <trkpt lat="53.201144" lon="6.592694">
        <ele>38.561091</ele>
        <time>2026-05-05T16:52:46.637Z</time>
      </trkpt>
      <trkpt lat="53.201182" lon="6.592832">
        <ele>38.632558</ele>
        <time>2026-05-05T16:52:48.638Z</time>
      </trkpt>
      <trkpt lat="53.201216" lon="6.592984">
        <ele>38.708905</ele>
        <time>2026-05-05T16:52:50.645Z</time>
      </trkpt>
      <trkpt lat="53.201244" lon="6.593145">
        <ele>38.787790</ele>
        <time>2026-05-05T16:52:52.638Z</time>
      </trkpt>
      <trkpt lat="53.201283" lon="6.593291">
        <ele>38.863011</ele>
        <time>2026-05-05T16:52:54.635Z</time>
      </trkpt>
      <trkpt lat="53.201336" lon="6.593439">
        <ele>38.944147</ele>
        <time>2026-05-05T16:52:57.639Z</time>
      </trkpt>
      <trkpt lat="53.201365" lon="6.593594">
        <ele>39.020556</ele>
        <time>2026-05-05T16:52:59.643Z</time>
      </trkpt>
      <trkpt lat="53.201407" lon="6.593786">
        <ele>39.116736</ele>
        <time>2026-05-05T16:53:02.635Z</time>
      </trkpt>
      <trkpt lat="53.201452" lon="6.593961">
        <ele>39.206347</ele>
        <time>2026-05-05T16:53:05.637Z</time>
      </trkpt>
      <trkpt lat="53.201502" lon="6.594130">
        <ele>39.295040</ele>
        <time>2026-05-05T16:53:08.640Z</time>
      </trkpt>
      <trkpt lat="53.201557" lon="6.594292">
        <ele>39.382660</ele>
        <time>2026-05-05T16:53:11.639Z</time>
      </trkpt>
      <trkpt lat="53.201630" lon="6.594425">
        <ele>39.467541</ele>
        <time>2026-05-05T16:53:14.641Z</time>
      </trkpt>
      <trkpt lat="53.201721" lon="6.594510">
        <ele>39.549453</ele>
        <time>2026-05-05T16:53:17.642Z</time>
      </trkpt>
      <trkpt lat="53.201812" lon="6.594571">
        <ele>39.626484</ele>
        <time>2026-05-05T16:53:20.635Z</time>
      </trkpt>
      <trkpt lat="53.201921" lon="6.594628">
        <ele>39.716211</ele>
        <time>2026-05-05T16:53:24.642Z</time>
      </trkpt>
      <trkpt lat="53.202026" lon="6.594684">
        <ele>39.802799</ele>
        <time>2026-05-05T16:53:28.640Z</time>
      </trkpt>
      <trkpt lat="53.202118" lon="6.594668">
        <ele>39.866505</ele>
        <time>2026-05-05T16:53:32.649Z</time>
      </trkpt>
      <trkpt lat="53.202162" lon="6.594508">
        <ele>39.927545</ele>
        <time>2026-05-05T16:53:35.640Z</time>
      </trkpt>
      <trkpt lat="53.202196" lon="6.594324">
        <ele>39.994306</ele>
        <time>2026-05-05T16:53:38.640Z</time>
      </trkpt>
      <trkpt lat="53.202226" lon="6.594147">
        <ele>40.058083</ele>
        <time>2026-05-05T16:53:41.639Z</time>
      </trkpt>
      <trkpt lat="53.202253" lon="6.593976">
        <ele>40.119395</ele>
        <time>2026-05-05T16:53:44.639Z</time>
      </trkpt>
      <trkpt lat="53.202280" lon="6.593811">
        <ele>40.178698</ele>
        <time>2026-05-05T16:53:47.640Z</time>
      </trkpt>
      <trkpt lat="53.202376" lon="6.593767">
        <ele>40.236321</ele>
        <time>2026-05-05T16:53:50.636Z</time>
      </trkpt>
      <trkpt lat="53.202492" lon="6.593773">
        <ele>40.303496</ele>
        <time>2026-05-05T16:53:53.638Z</time>
      </trkpt>
      <trkpt lat="53.202609" lon="6.593768">
        <ele>40.371240</ele>
        <time>2026-05-05T16:53:56.639Z</time>
      </trkpt>
      <trkpt lat="53.202729" lon="6.593747">
        <ele>40.441079</ele>
        <time>2026-05-05T16:53:59.646Z</time>
      </trkpt>
      <trkpt lat="53.202841" lon="6.593728">
        <ele>40.506240</ele>
        <time>2026-05-05T16:54:02.644Z</time>
      </trkpt>
      <trkpt lat="53.202953" lon="6.593713">
        <ele>40.571276</ele>
        <time>2026-05-05T16:54:05.643Z</time>
      </trkpt>
      <trkpt lat="53.203070" lon="6.593702">
        <ele>40.639105</ele>
        <time>2026-05-05T16:54:08.639Z</time>
      </trkpt>
      <trkpt lat="53.203176" lon="6.593692">
        <ele>40.700558</ele>
        <time>2026-05-05T16:54:11.640Z</time>
      </trkpt>
      <trkpt lat="53.203284" lon="6.593673">
        <ele>40.763417</ele>
        <time>2026-05-05T16:54:14.638Z</time>
      </trkpt>
      <trkpt lat="53.203396" lon="6.593662">
        <ele>40.828356</ele>
        <time>2026-05-05T16:54:17.640Z</time>
      </trkpt>
      <trkpt lat="53.203510" lon="6.593662">
        <ele>40.897561</ele>
        <time>2026-05-05T16:54:20.640Z</time>
      </trkpt>
      <trkpt lat="53.203623" lon="6.593655">
        <ele>40.980837</ele>
        <time>2026-05-05T16:54:23.641Z</time>
      </trkpt>
      <trkpt lat="53.203735" lon="6.593654">
        <ele>41.063320</ele>
        <time>2026-05-05T16:54:26.636Z</time>
      </trkpt>
      <trkpt lat="53.203855" lon="6.593665">
        <ele>41.151826</ele>
        <time>2026-05-05T16:54:29.639Z</time>
      </trkpt>
      <trkpt lat="53.203979" lon="6.593697">
        <ele>41.244230</ele>
        <time>2026-05-05T16:54:32.639Z</time>
      </trkpt>
      <trkpt lat="53.204100" lon="6.593727">
        <ele>41.334317</ele>
        <time>2026-05-05T16:54:35.639Z</time>
      </trkpt>
      <trkpt lat="53.204224" lon="6.593764">
        <ele>41.427083</ele>
        <time>2026-05-05T16:54:38.635Z</time>
      </trkpt>
      <trkpt lat="53.204340" lon="6.593815">
        <ele>41.515423</ele>
        <time>2026-05-05T16:54:41.634Z</time>
      </trkpt>
      <trkpt lat="53.204449" lon="6.593858">
        <ele>41.597906</ele>
        <time>2026-05-05T16:54:44.644Z</time>
      </trkpt>
      <trkpt lat="53.204567" lon="6.593901">
        <ele>41.686853</ele>
        <time>2026-05-05T16:54:47.638Z</time>
      </trkpt>
      <trkpt lat="53.204687" lon="6.593895">
        <ele>41.775266</ele>
        <time>2026-05-05T16:54:50.636Z</time>
      </trkpt>
      <trkpt lat="53.204771" lon="6.593772">
        <ele>41.857548</ele>
        <time>2026-05-05T16:54:53.644Z</time>
      </trkpt>
      <trkpt lat="53.204841" lon="6.593595">
        <ele>41.951107</ele>
        <time>2026-05-05T16:54:56.644Z</time>
      </trkpt>
      <trkpt lat="53.204893" lon="6.593414">
        <ele>42.039655</ele>
        <time>2026-05-05T16:54:59.643Z</time>
      </trkpt>
      <trkpt lat="53.204953" lon="6.593218">
        <ele>42.136747</ele>
        <time>2026-05-05T16:55:02.640Z</time>
      </trkpt>
      <trkpt lat="53.205019" lon="6.593056">
        <ele>42.280454</ele>
        <time>2026-05-05T16:55:05.642Z</time>
      </trkpt>
      <trkpt lat="53.205107" lon="6.592941">
        <ele>42.656545</ele>
        <time>2026-05-05T16:55:08.638Z</time>
      </trkpt>
      <trkpt lat="53.205200" lon="6.592979">
        <ele>42.978766</ele>
        <time>2026-05-05T16:55:11.638Z</time>
      </trkpt>
      <trkpt lat="53.205297" lon="6.593111">
        <ele>43.399911</ele>
        <time>2026-05-05T16:55:14.641Z</time>
      </trkpt>
      <trkpt lat="53.205398" lon="6.593198">
        <ele>43.782391</ele>
        <time>2026-05-05T16:55:17.641Z</time>
      </trkpt>
      <trkpt lat="53.205515" lon="6.593212">
        <ele>44.177156</ele>
        <time>2026-05-05T16:55:20.634Z</time>
      </trkpt>
      <trkpt lat="53.205634" lon="6.593224">
        <ele>44.578371</ele>
        <time>2026-05-05T16:55:23.641Z</time>
      </trkpt>
      <trkpt lat="53.205754" lon="6.593237">
        <ele>44.983071</ele>
        <time>2026-05-05T16:55:26.640Z</time>
      </trkpt>
      <trkpt lat="53.205874" lon="6.593248">
        <ele>45.387530</ele>
        <time>2026-05-05T16:55:29.640Z</time>
      </trkpt>
      <trkpt lat="53.205999" lon="6.593261">
        <ele>45.809024</ele>
        <time>2026-05-05T16:55:32.639Z</time>
      </trkpt>
      <trkpt lat="53.206121" lon="6.593271">
        <ele>46.220100</ele>
        <time>2026-05-05T16:55:35.646Z</time>
      </trkpt>
      <trkpt lat="53.206234" lon="6.593280">
        <ele>46.600825</ele>
        <time>2026-05-05T16:55:38.645Z</time>
      </trkpt>
      <trkpt lat="53.206347" lon="6.593285">
        <ele>46.981251</ele>
        <time>2026-05-05T16:55:41.644Z</time>
      </trkpt>
      <trkpt lat="53.206452" lon="6.593275">
        <ele>47.335195</ele>
        <time>2026-05-05T16:55:44.644Z</time>
      </trkpt>
      <trkpt lat="53.206558" lon="6.593245">
        <ele>47.697019</ele>
        <time>2026-05-05T16:55:47.645Z</time>
      </trkpt>
      <trkpt lat="53.206669" lon="6.593187">
        <ele>48.088447</ele>
        <time>2026-05-05T16:55:50.644Z</time>
      </trkpt>
      <trkpt lat="53.206765" lon="6.593060">
        <ele>48.403245</ele>
        <time>2026-05-05T16:55:53.643Z</time>
      </trkpt>
      <trkpt lat="53.206848" lon="6.592919">
        <ele>48.640232</ele>
        <time>2026-05-05T16:55:56.639Z</time>
      </trkpt>
      <trkpt lat="53.206920" lon="6.592799">
        <ele>48.843844</ele>
        <time>2026-05-05T16:55:59.638Z</time>
      </trkpt>
      <trkpt lat="53.206999" lon="6.592668">
        <ele>49.066686</ele>
        <time>2026-05-05T16:56:03.638Z</time>
      </trkpt>
      <trkpt lat="53.207060" lon="6.592523">
        <ele>49.279093</ele>
        <time>2026-05-05T16:56:06.639Z</time>
      </trkpt>
      <trkpt lat="53.207098" lon="6.592370">
        <ele>49.477640</ele>
        <time>2026-05-05T16:56:09.642Z</time>
      </trkpt>
      <trkpt lat="53.207109" lon="6.592189">
        <ele>49.695721</ele>
        <time>2026-05-05T16:56:12.641Z</time>
      </trkpt>
      <trkpt lat="53.207110" lon="6.592035">
        <ele>49.880333</ele>
        <time>2026-05-05T16:56:15.640Z</time>
      </trkpt>
      <trkpt lat="53.207108" lon="6.591879">
        <ele>50.067374</ele>
        <time>2026-05-05T16:56:18.642Z</time>
      </trkpt>
      <trkpt lat="53.207109" lon="6.591699">
        <ele>50.283152</ele>
        <time>2026-05-05T16:56:21.641Z</time>
      </trkpt>
      <trkpt lat="53.207112" lon="6.591513">
        <ele>50.506193</ele>
        <time>2026-05-05T16:56:24.640Z</time>
      </trkpt>
      <trkpt lat="53.207107" lon="6.591323">
        <ele>50.734167</ele>
        <time>2026-05-05T16:56:27.647Z</time>
      </trkpt>
      <trkpt lat="53.207131" lon="6.591154">
        <ele>50.942366</ele>
        <time>2026-05-05T16:56:30.638Z</time>
      </trkpt>
      <trkpt lat="53.207166" lon="6.591015">
        <ele>51.123113</ele>
        <time>2026-05-05T16:56:33.640Z</time>
      </trkpt>
      <trkpt lat="53.207256" lon="6.590945">
        <ele>51.321828</ele>
        <time>2026-05-05T16:56:37.637Z</time>
      </trkpt>
      <trkpt lat="53.207352" lon="6.590977">
        <ele>51.517757</ele>
        <time>2026-05-05T16:56:40.639Z</time>
      </trkpt>
      <trkpt lat="53.207455" lon="6.591030">
        <ele>51.733473</ele>
        <time>2026-05-05T16:56:43.641Z</time>
      </trkpt>
      <trkpt lat="53.207548" lon="6.591134">
        <ele>51.652960</ele>
        <time>2026-05-05T16:56:47.644Z</time>
      </trkpt>
      <trkpt lat="53.207651" lon="6.591270">
        <ele>51.093235</ele>
        <time>2026-05-05T16:56:50.645Z</time>
      </trkpt>
      <trkpt lat="53.207731" lon="6.591395">
        <ele>50.626213</ele>
        <time>2026-05-05T16:56:52.644Z</time>
      </trkpt>
      <trkpt lat="53.207835" lon="6.591516">
        <ele>50.085908</ele>
        <time>2026-05-05T16:56:55.637Z</time>
      </trkpt>
      <trkpt lat="53.207913" lon="6.591605">
        <ele>49.683217</ele>
        <time>2026-05-05T16:56:58.643Z</time>
      </trkpt>
      <trkpt lat="53.208003" lon="6.591523">
        <ele>49.246197</ele>
        <time>2026-05-05T16:57:05.641Z</time>
      </trkpt>
      <trkpt lat="53.208071" lon="6.591383">
        <ele>48.786039</ele>
        <time>2026-05-05T16:57:12.641Z</time>
      </trkpt>
      <trkpt lat="53.208160" lon="6.591340">
        <ele>48.391116</ele>
        <time>2026-05-05T16:57:17.641Z</time>
      </trkpt>
      <trkpt lat="53.208258" lon="6.591534">
        <ele>47.743223</ele>
        <time>2026-05-05T17:00:03.642Z</time>
      </trkpt>
      <trkpt lat="53.208346" lon="6.591641">
        <ele>47.279208</ele>
        <time>2026-05-05T17:00:08.639Z</time>
      </trkpt>
      <trkpt lat="53.208449" lon="6.591546">
        <ele>46.777643</ele>
        <time>2026-05-05T17:00:12.640Z</time>
      </trkpt>
      <trkpt lat="53.208530" lon="6.591420">
        <ele>46.305768</ele>
        <time>2026-05-05T17:00:15.635Z</time>
      </trkpt>
      <trkpt lat="53.208603" lon="6.591301">
        <ele>45.870904</ele>
        <time>2026-05-05T17:00:18.641Z</time>
      </trkpt>
      <trkpt lat="53.208665" lon="6.591191">
        <ele>45.485296</ele>
        <time>2026-05-05T17:00:21.641Z</time>
      </trkpt>
      <trkpt lat="53.208733" lon="6.591084">
        <ele>45.087021</ele>
        <time>2026-05-05T17:00:24.640Z</time>
      </trkpt>
      <trkpt lat="53.208816" lon="6.590961">
        <ele>44.613992</ele>
        <time>2026-05-05T17:00:27.638Z</time>
      </trkpt>
      <trkpt lat="53.208901" lon="6.590824">
        <ele>44.178516</ele>
        <time>2026-05-05T17:00:30.640Z</time>
      </trkpt>
      <trkpt lat="53.208983" lon="6.590701">
        <ele>44.093674</ele>
        <time>2026-05-05T17:00:33.641Z</time>
      </trkpt>
      <trkpt lat="53.209045" lon="6.590589">
        <ele>44.023370</ele>
        <time>2026-05-05T17:00:36.646Z</time>
      </trkpt>
      <trkpt lat="53.209115" lon="6.590465">
        <ele>43.944820</ele>
        <time>2026-05-05T17:00:39.645Z</time>
      </trkpt>
      <trkpt lat="53.209197" lon="6.590334">
        <ele>43.857471</ele>
        <time>2026-05-05T17:00:42.639Z</time>
      </trkpt>
      <trkpt lat="53.209272" lon="6.590200">
        <ele>43.772926</ele>
        <time>2026-05-05T17:00:45.638Z</time>
      </trkpt>
      <trkpt lat="53.209350" lon="6.590088">
        <ele>43.693745</ele>
        <time>2026-05-05T17:00:48.639Z</time>
      </trkpt>
      <trkpt lat="53.209419" lon="6.589978">
        <ele>43.620317</ele>
        <time>2026-05-05T17:00:51.636Z</time>
      </trkpt>
      <trkpt lat="53.209489" lon="6.589837">
        <ele>43.535894</ele>
        <time>2026-05-05T17:00:55.637Z</time>
      </trkpt>
      <trkpt lat="53.209467" lon="6.589688">
        <ele>43.465155</ele>
        <time>2026-05-05T17:00:58.639Z</time>
      </trkpt>
      <trkpt lat="53.209396" lon="6.589548">
        <ele>43.380591</ele>
        <time>2026-05-05T17:01:01.634Z</time>
      </trkpt>
      <trkpt lat="53.209315" lon="6.589405">
        <ele>43.289861</ele>
        <time>2026-05-05T17:01:04.636Z</time>
      </trkpt>
      <trkpt lat="53.209234" lon="6.589279">
        <ele>43.204653</ele>
        <time>2026-05-05T17:01:07.637Z</time>
      </trkpt>
      <trkpt lat="53.209167" lon="6.589153">
        <ele>43.126982</ele>
        <time>2026-05-05T17:01:10.638Z</time>
      </trkpt>
      <trkpt lat="53.209101" lon="6.588990">
        <ele>43.036284</ele>
        <time>2026-05-05T17:01:14.640Z</time>
      </trkpt>
      <trkpt lat="53.209144" lon="6.588816">
        <ele>42.949516</ele>
        <time>2026-05-05T17:01:18.638Z</time>
      </trkpt>
      <trkpt lat="53.209212" lon="6.588705">
        <ele>42.876322</ele>
        <time>2026-05-05T17:01:21.641Z</time>
      </trkpt>
      <trkpt lat="53.209279" lon="6.588594">
        <ele>42.803863</ele>
        <time>2026-05-05T17:01:24.640Z</time>
      </trkpt>
      <trkpt lat="53.209352" lon="6.588453">
        <ele>42.720896</ele>
        <time>2026-05-05T17:01:27.640Z</time>
      </trkpt>
      <trkpt lat="53.209415" lon="6.588315">
        <ele>42.643653</ele>
        <time>2026-05-05T17:01:29.641Z</time>
      </trkpt>
      <trkpt lat="53.209467" lon="6.588170">
        <ele>42.568419</ele>
        <time>2026-05-05T17:01:31.641Z</time>
      </trkpt>
      <trkpt lat="53.209440" lon="6.588004">
        <ele>42.491848</ele>
        <time>2026-05-05T17:01:33.635Z</time>
      </trkpt>
      <trkpt lat="53.209428" lon="6.587846">
        <ele>42.420952</ele>
        <time>2026-05-05T17:01:35.638Z</time>
      </trkpt>
      <trkpt lat="53.209476" lon="6.587711">
        <ele>42.351064</ele>
        <time>2026-05-05T17:01:37.638Z</time>
      </trkpt>
      <trkpt lat="53.209570" lon="6.587553">
        <ele>42.251926</ele>
        <time>2026-05-05T17:01:40.641Z</time>
      </trkpt>
      <trkpt lat="53.209666" lon="6.587393">
        <ele>42.151108</ele>
        <time>2026-05-05T17:01:43.647Z</time>
      </trkpt>
      <trkpt lat="53.209736" lon="6.587283">
        <ele>42.079660</ele>
        <time>2026-05-05T17:01:45.640Z</time>
      </trkpt>
      <trkpt lat="53.209802" lon="6.587177">
        <ele>42.011594</ele>
        <time>2026-05-05T17:01:47.637Z</time>
      </trkpt>
      <trkpt lat="53.209872" lon="6.587066">
        <ele>41.939841</ele>
        <time>2026-05-05T17:01:49.645Z</time>
      </trkpt>
      <trkpt lat="53.209939" lon="6.586960">
        <ele>41.871237</ele>
        <time>2026-05-05T17:01:51.640Z</time>
      </trkpt>
      <trkpt lat="53.210019" lon="6.586795">
        <ele>41.776736</ele>
        <time>2026-05-05T17:01:54.645Z</time>
      </trkpt>
      <trkpt lat="53.210033" lon="6.586593">
        <ele>41.686218</ele>
        <time>2026-05-05T17:01:57.638Z</time>
      </trkpt>
      <trkpt lat="53.209979" lon="6.586399">
        <ele>41.590988</ele>
        <time>2026-05-05T17:02:00.636Z</time>
      </trkpt>
      <trkpt lat="53.209934" lon="6.586268">
        <ele>41.523763</ele>
        <time>2026-05-05T17:02:02.638Z</time>
      </trkpt>
      <trkpt lat="53.209893" lon="6.586134">
        <ele>41.474638</ele>
        <time>2026-05-05T17:02:04.645Z</time>
      </trkpt>
      <trkpt lat="53.209845" lon="6.586003">
        <ele>41.485320</ele>
        <time>2026-05-05T17:02:06.642Z</time>
      </trkpt>
      <trkpt lat="53.209783" lon="6.585812">
        <ele>41.500431</ele>
        <time>2026-05-05T17:02:09.642Z</time>
      </trkpt>
      <trkpt lat="53.209737" lon="6.585673">
        <ele>41.511476</ele>
        <time>2026-05-05T17:02:11.647Z</time>
      </trkpt>
      <trkpt lat="53.209688" lon="6.585546">
        <ele>41.521984</ele>
        <time>2026-05-05T17:02:13.641Z</time>
      </trkpt>
      <trkpt lat="53.209638" lon="6.585406">
        <ele>41.533322</ele>
        <time>2026-05-05T17:02:15.641Z</time>
      </trkpt>
      <trkpt lat="53.209591" lon="6.585274">
        <ele>41.544003</ele>
        <time>2026-05-05T17:02:17.642Z</time>
      </trkpt>
      <trkpt lat="53.209521" lon="6.585092">
        <ele>41.559047</ele>
        <time>2026-05-05T17:02:20.642Z</time>
      </trkpt>
      <trkpt lat="53.209471" lon="6.584961">
        <ele>41.569852</ele>
        <time>2026-05-05T17:02:22.640Z</time>
      </trkpt>
      <trkpt lat="53.209399" lon="6.584778">
        <ele>41.585081</ele>
        <time>2026-05-05T17:02:25.642Z</time>
      </trkpt>
      <trkpt lat="53.209331" lon="6.584597">
        <ele>41.599943</ele>
        <time>2026-05-05T17:02:28.641Z</time>
      </trkpt>
      <trkpt lat="53.209297" lon="6.584417">
        <ele>41.613071</ele>
        <time>2026-05-05T17:02:31.636Z</time>
      </trkpt>
      <trkpt lat="53.209344" lon="6.584231">
        <ele>41.627112</ele>
        <time>2026-05-05T17:02:34.647Z</time>
      </trkpt>
      <trkpt lat="53.209447" lon="6.584143">
        <ele>41.640549</ele>
        <time>2026-05-05T17:02:37.647Z</time>
      </trkpt>
      <trkpt lat="53.209553" lon="6.584059">
        <ele>41.654176</ele>
        <time>2026-05-05T17:02:40.641Z</time>
      </trkpt>
      <trkpt lat="53.209669" lon="6.583961">
        <ele>41.669274</ele>
        <time>2026-05-05T17:02:43.647Z</time>
      </trkpt>
      <trkpt lat="53.209784" lon="6.583875">
        <ele>41.687285</ele>
        <time>2026-05-05T17:02:46.638Z</time>
      </trkpt>
      <trkpt lat="53.209905" lon="6.583901">
        <ele>41.718591</ele>
        <time>2026-05-05T17:02:49.638Z</time>
      </trkpt>
      <trkpt lat="53.209971" lon="6.584019">
        <ele>41.743403</ele>
        <time>2026-05-05T17:02:51.638Z</time>
      </trkpt>
      <trkpt lat="53.210031" lon="6.584150">
        <ele>41.768747</ele>
        <time>2026-05-05T17:02:53.637Z</time>
      </trkpt>
      <trkpt lat="53.210091" lon="6.584273">
        <ele>41.793126</ele>
        <time>2026-05-05T17:02:55.641Z</time>
      </trkpt>
      <trkpt lat="53.210144" lon="6.584404">
        <ele>41.817421</ele>
        <time>2026-05-05T17:02:57.638Z</time>
      </trkpt>
      <trkpt lat="53.210196" lon="6.584535">
        <ele>41.841573</ele>
        <time>2026-05-05T17:02:59.636Z</time>
      </trkpt>
      <trkpt lat="53.210272" lon="6.584718">
        <ele>41.875796</ele>
        <time>2026-05-05T17:03:02.643Z</time>
      </trkpt>
      <trkpt lat="53.210315" lon="6.584853">
        <ele>41.899294</ele>
        <time>2026-05-05T17:03:04.638Z</time>
      </trkpt>
      <trkpt lat="53.210383" lon="6.585036">
        <ele>41.932390</ele>
        <time>2026-05-05T17:03:07.639Z</time>
      </trkpt>
      <trkpt lat="53.210450" lon="6.585230">
        <ele>41.966804</ele>
        <time>2026-05-05T17:03:10.636Z</time>
      </trkpt>
      <trkpt lat="53.210514" lon="6.585416">
        <ele>41.999770</ele>
        <time>2026-05-05T17:03:13.639Z</time>
      </trkpt>
      <trkpt lat="53.210563" lon="6.585548">
        <ele>42.023636</ele>
        <time>2026-05-05T17:03:15.638Z</time>
      </trkpt>
      <trkpt lat="53.210629" lon="6.585739">
        <ele>42.057523</ele>
        <time>2026-05-05T17:03:18.650Z</time>
      </trkpt>
      <trkpt lat="53.210681" lon="6.585875">
        <ele>42.082319</ele>
        <time>2026-05-05T17:03:20.638Z</time>
      </trkpt>
      <trkpt lat="53.210730" lon="6.586009">
        <ele>42.106446</ele>
        <time>2026-05-05T17:03:22.641Z</time>
      </trkpt>
      <trkpt lat="53.210780" lon="6.586142">
        <ele>42.130578</ele>
        <time>2026-05-05T17:03:24.641Z</time>
      </trkpt>
      <trkpt lat="53.210850" lon="6.586320">
        <ele>42.157793</ele>
        <time>2026-05-05T17:03:27.649Z</time>
      </trkpt>
      <trkpt lat="53.210923" lon="6.586508">
        <ele>42.183038</ele>
        <time>2026-05-05T17:03:30.639Z</time>
      </trkpt>
      <trkpt lat="53.210971" lon="6.586636">
        <ele>42.200054</ele>
        <time>2026-05-05T17:03:32.640Z</time>
      </trkpt>
      <trkpt lat="53.211021" lon="6.586765">
        <ele>42.217367</ele>
        <time>2026-05-05T17:03:34.635Z</time>
      </trkpt>
      <trkpt lat="53.211076" lon="6.586894">
        <ele>42.235208</ele>
        <time>2026-05-05T17:03:36.639Z</time>
      </trkpt>
      <trkpt lat="53.211128" lon="6.587025">
        <ele>42.252916</ele>
        <time>2026-05-05T17:03:38.641Z</time>
      </trkpt>
      <trkpt lat="53.211189" lon="6.587141">
        <ele>42.270309</ele>
        <time>2026-05-05T17:03:40.641Z</time>
      </trkpt>
      <trkpt lat="53.211261" lon="6.587249">
        <ele>42.288517</ele>
        <time>2026-05-05T17:03:42.642Z</time>
      </trkpt>
      <trkpt lat="53.211376" lon="6.587351">
        <ele>42.313016</ele>
        <time>2026-05-05T17:03:45.642Z</time>
      </trkpt>
      <trkpt lat="53.211464" lon="6.587396">
        <ele>42.330331</ele>
        <time>2026-05-05T17:03:47.640Z</time>
      </trkpt>
      <trkpt lat="53.211593" lon="6.587440">
        <ele>42.355102</ele>
        <time>2026-05-05T17:03:50.638Z</time>
      </trkpt>
      <trkpt lat="53.211718" lon="6.587444">
        <ele>42.378623</ele>
        <time>2026-05-05T17:03:53.633Z</time>
      </trkpt>
      <trkpt lat="53.211842" lon="6.587380">
        <ele>42.403041</ele>
        <time>2026-05-05T17:03:56.646Z</time>
      </trkpt>
      <trkpt lat="53.211956" lon="6.587288">
        <ele>42.426862</ele>
        <time>2026-05-05T17:03:59.637Z</time>
      </trkpt>
      <trkpt lat="53.212036" lon="6.587199">
        <ele>42.444947</ele>
        <time>2026-05-05T17:04:01.639Z</time>
      </trkpt>
      <trkpt lat="53.212119" lon="6.587103">
        <ele>42.463943</ele>
        <time>2026-05-05T17:04:03.644Z</time>
      </trkpt>
      <trkpt lat="53.212192" lon="6.587008">
        <ele>42.480495</ele>
        <time>2026-05-05T17:04:05.638Z</time>
      </trkpt>
      <trkpt lat="53.212292" lon="6.586874">
        <ele>42.437499</ele>
        <time>2026-05-05T17:04:08.644Z</time>
      </trkpt>
      <trkpt lat="53.212328" lon="6.586710">
        <ele>42.402421</ele>
        <time>2026-05-05T17:04:11.637Z</time>
      </trkpt>
      <trkpt lat="53.212297" lon="6.586527">
        <ele>42.364229</ele>
        <time>2026-05-05T17:04:14.643Z</time>
      </trkpt>
      <trkpt lat="53.212322" lon="6.586328">
        <ele>42.323396</ele>
        <time>2026-05-05T17:04:17.636Z</time>
      </trkpt>
      <trkpt lat="53.212402" lon="6.586191">
        <ele>42.284969</ele>
        <time>2026-05-05T17:04:20.643Z</time>
      </trkpt>
      <trkpt lat="53.212486" lon="6.586048">
        <ele>42.244742</ele>
        <time>2026-05-05T17:04:23.635Z</time>
      </trkpt>
      <trkpt lat="53.212562" lon="6.585926">
        <ele>42.209390</ele>
        <time>2026-05-05T17:04:26.636Z</time>
      </trkpt>
      <trkpt lat="53.212632" lon="6.585817">
        <ele>42.177293</ele>
        <time>2026-05-05T17:04:29.640Z</time>
      </trkpt>
      <trkpt lat="53.212697" lon="6.585662">
        <ele>42.139293</ele>
        <time>2026-05-05T17:04:33.643Z</time>
      </trkpt>
      <trkpt lat="53.212635" lon="6.585499">
        <ele>42.100515</ele>
        <time>2026-05-05T17:04:37.641Z</time>
      </trkpt>
      <trkpt lat="53.212562" lon="6.585378">
        <ele>42.066022</ele>
        <time>2026-05-05T17:04:40.636Z</time>
      </trkpt>
      <trkpt lat="53.212494" lon="6.585267">
        <ele>42.034134</ele>
        <time>2026-05-05T17:04:43.638Z</time>
      </trkpt>
      <trkpt lat="53.212429" lon="6.585160">
        <ele>42.003526</ele>
        <time>2026-05-05T17:04:46.637Z</time>
      </trkpt>
      <trkpt lat="53.212379" lon="6.584989">
        <ele>41.965311</ele>
        <time>2026-05-05T17:04:50.632Z</time>
      </trkpt>
      <trkpt lat="53.212357" lon="6.584812">
        <ele>41.929008</ele>
        <time>2026-05-05T17:04:53.639Z</time>
      </trkpt>
      <trkpt lat="53.212297" lon="6.584643">
        <ele>41.889553</ele>
        <time>2026-05-05T17:04:56.639Z</time>
      </trkpt>
      <trkpt lat="53.212236" lon="6.584484">
        <ele>41.839701</ele>
        <time>2026-05-05T17:04:59.638Z</time>
      </trkpt>
      <trkpt lat="53.212182" lon="6.584330">
        <ele>41.787575</ele>
        <time>2026-05-05T17:05:02.643Z</time>
      </trkpt>
      <trkpt lat="53.212126" lon="6.584185">
        <ele>41.737177</ele>
        <time>2026-05-05T17:05:05.635Z</time>
      </trkpt>
      <trkpt lat="53.212187" lon="6.584072">
        <ele>41.692740</ele>
        <time>2026-05-05T17:05:09.636Z</time>
      </trkpt>
      <trkpt lat="53.212279" lon="6.584066">
        <ele>41.647832</ele>
        <time>2026-05-05T17:05:12.641Z</time>
      </trkpt>
      <trkpt lat="53.212365" lon="6.584014">
        <ele>41.603220</ele>
        <time>2026-05-05T17:05:15.640Z</time>
      </trkpt>
      <trkpt lat="53.212441" lon="6.583925">
        <ele>41.557944</ele>
        <time>2026-05-05T17:05:18.640Z</time>
      </trkpt>
      <trkpt lat="53.212542" lon="6.583825">
        <ele>41.500672</ele>
        <time>2026-05-05T17:05:22.640Z</time>
      </trkpt>
      <trkpt lat="53.212613" lon="6.583725">
        <ele>41.455368</ele>
        <time>2026-05-05T17:05:25.641Z</time>
      </trkpt>
      <trkpt lat="53.212695" lon="6.583637">
        <ele>41.407824</ele>
        <time>2026-05-05T17:05:28.640Z</time>
      </trkpt>
      <trkpt lat="53.212774" lon="6.583556">
        <ele>41.362608</ele>
        <time>2026-05-05T17:05:31.636Z</time>
      </trkpt>
      <trkpt lat="53.212869" lon="6.583464">
        <ele>41.309043</ele>
        <time>2026-05-05T17:05:35.641Z</time>
      </trkpt>
      <trkpt lat="53.212965" lon="6.583362">
        <ele>41.253543</ele>
        <time>2026-05-05T17:05:39.639Z</time>
      </trkpt>
      <trkpt lat="53.213059" lon="6.583235">
        <ele>41.194567</ele>
        <time>2026-05-05T17:05:43.639Z</time>
      </trkpt>
      <trkpt lat="53.213144" lon="6.583140">
        <ele>41.144679</ele>
        <time>2026-05-05T17:05:46.635Z</time>
      </trkpt>
      <trkpt lat="53.213227" lon="6.583066">
        <ele>41.098786</ele>
        <time>2026-05-05T17:05:49.637Z</time>
      </trkpt>
      <trkpt lat="53.213312" lon="6.582992">
        <ele>41.052031</ele>
        <time>2026-05-05T17:05:52.632Z</time>
      </trkpt>
      <trkpt lat="53.213401" lon="6.582905">
        <ele>41.001730</ele>
        <time>2026-05-05T17:05:55.638Z</time>
      </trkpt>
      <trkpt lat="53.213491" lon="6.582777">
        <ele>41.022138</ele>
        <time>2026-05-05T17:05:59.644Z</time>
      </trkpt>
      <trkpt lat="53.213569" lon="6.582687">
        <ele>41.039776</ele>
        <time>2026-05-05T17:06:02.638Z</time>
      </trkpt>
      <trkpt lat="53.213666" lon="6.582587">
        <ele>41.060982</ele>
        <time>2026-05-05T17:06:06.634Z</time>
      </trkpt>
      <trkpt lat="53.213770" lon="6.582489">
        <ele>41.083197</ele>
        <time>2026-05-05T17:06:10.641Z</time>
      </trkpt>
      <trkpt lat="53.213849" lon="6.582413">
        <ele>41.100158</ele>
        <time>2026-05-05T17:06:13.643Z</time>
      </trkpt>
      <trkpt lat="53.213930" lon="6.582310">
        <ele>41.119098</ele>
        <time>2026-05-05T17:06:17.638Z</time>
      </trkpt>
      <trkpt lat="53.213894" lon="6.582129">
        <ele>41.140344</ele>
        <time>2026-05-05T17:06:21.641Z</time>
      </trkpt>
      <trkpt lat="53.213838" lon="6.581964">
        <ele>41.161472</ele>
        <time>2026-05-05T17:06:25.640Z</time>
      </trkpt>
      <trkpt lat="53.213788" lon="6.581819">
        <ele>41.180112</ele>
        <time>2026-05-05T17:06:29.641Z</time>
      </trkpt>
      <trkpt lat="53.213739" lon="6.581687">
        <ele>41.197413</ele>
        <time>2026-05-05T17:06:32.635Z</time>
      </trkpt>
      <trkpt lat="53.213682" lon="6.581533">
        <ele>41.217581</ele>
        <time>2026-05-05T17:06:35.638Z</time>
      </trkpt>
      <trkpt lat="53.213683" lon="6.581363">
        <ele>41.236520</ele>
        <time>2026-05-05T17:06:39.647Z</time>
      </trkpt>
      <trkpt lat="53.213774" lon="6.581254">
        <ele>41.257354</ele>
        <time>2026-05-05T17:06:42.637Z</time>
      </trkpt>
      <trkpt lat="53.213871" lon="6.581138">
        <ele>41.279549</ele>
        <time>2026-05-05T17:06:45.636Z</time>
      </trkpt>
      <trkpt lat="53.213964" lon="6.581024">
        <ele>41.301010</ele>
        <time>2026-05-05T17:06:48.637Z</time>
      </trkpt>
      <trkpt lat="53.214059" lon="6.580909">
        <ele>41.322838</ele>
        <time>2026-05-05T17:06:51.638Z</time>
      </trkpt>
      <trkpt lat="53.214155" lon="6.580802">
        <ele>41.343806</ele>
        <time>2026-05-05T17:06:54.634Z</time>
      </trkpt>
      <trkpt lat="53.214253" lon="6.580687">
        <ele>41.364859</ele>
        <time>2026-05-05T17:06:57.638Z</time>
      </trkpt>
      <trkpt lat="53.214348" lon="6.580568">
        <ele>41.385733</ele>
        <time>2026-05-05T17:07:00.641Z</time>
      </trkpt>
      <trkpt lat="53.214446" lon="6.580452">
        <ele>41.406846</ele>
        <time>2026-05-05T17:07:03.636Z</time>
      </trkpt>
      <trkpt lat="53.214544" lon="6.580373">
        <ele>41.425974</ele>
        <time>2026-05-05T17:07:06.643Z</time>
      </trkpt>
      <trkpt lat="53.214648" lon="6.580469">
        <ele>41.446861</ele>
        <time>2026-05-05T17:07:10.639Z</time>
      </trkpt>
      <trkpt lat="53.214733" lon="6.580569">
        <ele>41.465136</ele>
        <time>2026-05-05T17:07:14.637Z</time>
      </trkpt>
      <trkpt lat="53.214831" lon="6.580618">
        <ele>41.483117</ele>
        <time>2026-05-05T17:07:18.635Z</time>
      </trkpt>
      <trkpt lat="53.214922" lon="6.580577">
        <ele>41.499684</ele>
        <time>2026-05-05T17:07:21.634Z</time>
      </trkpt>
      <trkpt lat="53.215010" lon="6.580497">
        <ele>41.517295</ele>
        <time>2026-05-05T17:07:24.646Z</time>
      </trkpt>
      <trkpt lat="53.215094" lon="6.580402">
        <ele>41.535127</ele>
        <time>2026-05-05T17:07:28.634Z</time>
      </trkpt>
      <trkpt lat="53.215187" lon="6.580371">
        <ele>41.551796</ele>
        <time>2026-05-05T17:07:32.644Z</time>
      </trkpt>
      <trkpt lat="53.215297" lon="6.580297">
        <ele>41.572640</ele>
        <time>2026-05-05T17:07:36.632Z</time>
      </trkpt>
      <trkpt lat="53.215344" lon="6.580143">
        <ele>41.590833</ele>
        <time>2026-05-05T17:07:39.639Z</time>
      </trkpt>
      <trkpt lat="53.215414" lon="6.580028">
        <ele>41.608093</ele>
        <time>2026-05-05T17:07:42.640Z</time>
      </trkpt>
      <trkpt lat="53.215498" lon="6.579956">
        <ele>41.624689</ele>
        <time>2026-05-05T17:07:45.632Z</time>
      </trkpt>
      <trkpt lat="53.215616" lon="6.579947">
        <ele>41.645451</ele>
        <time>2026-05-05T17:07:49.643Z</time>
      </trkpt>
      <trkpt lat="53.215678" lon="6.580097">
        <ele>41.684026</ele>
        <time>2026-05-05T17:07:52.643Z</time>
      </trkpt>
      <trkpt lat="53.215742" lon="6.580254">
        <ele>41.733155</ele>
        <time>2026-05-05T17:07:55.637Z</time>
      </trkpt>
      <trkpt lat="53.215793" lon="6.580405">
        <ele>41.778001</ele>
        <time>2026-05-05T17:07:58.637Z</time>
      </trkpt>
      <trkpt lat="53.215845" lon="6.580567">
        <ele>41.825547</ele>
        <time>2026-05-05T17:08:01.643Z</time>
      </trkpt>
      <trkpt lat="53.215911" lon="6.580717">
        <ele>41.873697</ele>
        <time>2026-05-05T17:08:04.642Z</time>
      </trkpt>
      <trkpt lat="53.216018" lon="6.580748">
        <ele>41.920611</ele>
        <time>2026-05-05T17:08:07.645Z</time>
      </trkpt>
      <trkpt lat="53.216124" lon="6.580649">
        <ele>41.973076</ele>
        <time>2026-05-05T17:08:10.639Z</time>
      </trkpt>
      <trkpt lat="53.216222" lon="6.580549">
        <ele>42.022688</ele>
        <time>2026-05-05T17:08:13.640Z</time>
      </trkpt>
      <trkpt lat="53.216314" lon="6.580452">
        <ele>42.069689</ele>
        <time>2026-05-05T17:08:16.641Z</time>
      </trkpt>
      <trkpt lat="53.216403" lon="6.580361">
        <ele>42.114770</ele>
        <time>2026-05-05T17:08:19.639Z</time>
      </trkpt>
      <trkpt lat="53.216501" lon="6.580257">
        <ele>42.164929</ele>
        <time>2026-05-05T17:08:22.646Z</time>
      </trkpt>
      <trkpt lat="53.216593" lon="6.580156">
        <ele>42.212490</ele>
        <time>2026-05-05T17:08:25.640Z</time>
      </trkpt>
      <trkpt lat="53.216655" lon="6.580042">
        <ele>42.252327</ele>
        <time>2026-05-05T17:08:28.636Z</time>
      </trkpt>
      <trkpt lat="53.216641" lon="6.579892">
        <ele>42.291596</ele>
        <time>2026-05-05T17:08:31.638Z</time>
      </trkpt>
      <trkpt lat="53.216591" lon="6.579739">
        <ele>42.336683</ele>
        <time>2026-05-05T17:08:34.638Z</time>
      </trkpt>
      <trkpt lat="53.216532" lon="6.579585">
        <ele>42.383974</ele>
        <time>2026-05-05T17:08:37.643Z</time>
      </trkpt>
      <trkpt lat="53.216473" lon="6.579405">
        <ele>42.421830</ele>
        <time>2026-05-05T17:08:40.644Z</time>
      </trkpt>
      <trkpt lat="53.216419" lon="6.579241">
        <ele>42.385795</ele>
        <time>2026-05-05T17:08:43.635Z</time>
      </trkpt>
      <trkpt lat="53.216372" lon="6.579092">
        <ele>42.353369</ele>
        <time>2026-05-05T17:08:46.639Z</time>
      </trkpt>
      <trkpt lat="53.216323" lon="6.578950">
        <ele>42.321814</ele>
        <time>2026-05-05T17:08:49.632Z</time>
      </trkpt>
      <trkpt lat="53.216274" lon="6.578801">
        <ele>42.289084</ele>
        <time>2026-05-05T17:08:52.636Z</time>
      </trkpt>
      <trkpt lat="53.216237" lon="6.578663">
        <ele>42.259971</ele>
        <time>2026-05-05T17:08:55.637Z</time>
      </trkpt>
      <trkpt lat="53.216217" lon="6.578481">
        <ele>42.224344</ele>
        <time>2026-05-05T17:08:59.644Z</time>
      </trkpt>
      <trkpt lat="53.216174" lon="6.578320">
        <ele>42.190401</ele>
        <time>2026-05-05T17:09:03.652Z</time>
      </trkpt>
      <trkpt lat="53.216123" lon="6.578168">
        <ele>42.156854</ele>
        <time>2026-05-05T17:09:07.642Z</time>
      </trkpt>
      <trkpt lat="53.216038" lon="6.578076">
        <ele>42.124285</ele>
        <time>2026-05-05T17:09:11.637Z</time>
      </trkpt>
      <trkpt lat="53.215943" lon="6.578127">
        <ele>42.092198</ele>
        <time>2026-05-05T17:09:17.642Z</time>
      </trkpt>
      <trkpt lat="53.215861" lon="6.578192">
        <ele>42.063012</ele>
        <time>2026-05-05T17:09:21.640Z</time>
      </trkpt>
      <trkpt lat="53.215763" lon="6.578158">
        <ele>42.030828</ele>
        <time>2026-05-05T17:09:24.635Z</time>
      </trkpt>
      <trkpt lat="53.215667" lon="6.578182">
        <ele>41.999616</ele>
        <time>2026-05-05T17:09:27.639Z</time>
      </trkpt>
      <trkpt lat="53.215568" lon="6.578224">
        <ele>41.966772</ele>
        <time>2026-05-05T17:09:30.632Z</time>
      </trkpt>
      <trkpt lat="53.215484" lon="6.578160">
        <ele>41.937084</ele>
        <time>2026-05-05T17:09:33.631Z</time>
      </trkpt>
      <trkpt lat="53.215389" lon="6.578050">
        <ele>41.899913</ele>
        <time>2026-05-05T17:09:37.633Z</time>
      </trkpt>
      <trkpt lat="53.215301" lon="6.577954">
        <ele>41.866115</ele>
        <time>2026-05-05T17:09:41.645Z</time>
      </trkpt>
      <trkpt lat="53.215218" lon="6.577867">
        <ele>41.892292</ele>
        <time>2026-05-05T17:09:45.638Z</time>
      </trkpt>
      <trkpt lat="53.215123" lon="6.577758">
        <ele>41.994252</ele>
        <time>2026-05-05T17:09:49.637Z</time>
      </trkpt>
      <trkpt lat="53.215058" lon="6.577651">
        <ele>42.074990</ele>
        <time>2026-05-05T17:09:55.643Z</time>
      </trkpt>
      <trkpt lat="53.215142" lon="6.577449">
        <ele>42.205262</ele>
        <time>2026-05-05T17:11:35.643Z</time>
      </trkpt>
      <trkpt lat="53.215219" lon="6.577310">
        <ele>42.305566</ele>
        <time>2026-05-05T17:11:39.650Z</time>
      </trkpt>
      <trkpt lat="53.215275" lon="6.577177">
        <ele>42.391690</ele>
        <time>2026-05-05T17:11:43.641Z</time>
      </trkpt>
      <trkpt lat="53.215294" lon="6.577014">
        <ele>42.479652</ele>
        <time>2026-05-05T17:11:48.641Z</time>
      </trkpt>
      <trkpt lat="53.215220" lon="6.576897">
        <ele>42.569797</ele>
        <time>2026-05-05T17:11:52.640Z</time>
      </trkpt>
      <trkpt lat="53.215142" lon="6.576771">
        <ele>42.665794</ele>
        <time>2026-05-05T17:11:56.639Z</time>
      </trkpt>
      <trkpt lat="53.215061" lon="6.576640">
        <ele>42.765541</ele>
        <time>2026-05-05T17:12:00.634Z</time>
      </trkpt>
      <trkpt lat="53.214985" lon="6.576499">
        <ele>42.866031</ele>
        <time>2026-05-05T17:12:04.639Z</time>
      </trkpt>
      <trkpt lat="53.214905" lon="6.576382">
        <ele>42.960101</ele>
        <time>2026-05-05T17:12:08.638Z</time>
      </trkpt>
      <trkpt lat="53.214812" lon="6.576323">
        <ele>43.048105</ele>
        <time>2026-05-05T17:12:12.636Z</time>
      </trkpt>
      <trkpt lat="53.214783" lon="6.576140">
        <ele>43.148380</ele>
        <time>2026-05-05T17:12:16.644Z</time>
      </trkpt>
      <trkpt lat="53.214824" lon="6.576006">
        <ele>43.228090</ele>
        <time>2026-05-05T17:12:20.637Z</time>
      </trkpt>
      <trkpt lat="53.214901" lon="6.575895">
        <ele>43.318072</ele>
        <time>2026-05-05T17:12:24.637Z</time>
      </trkpt>
      <trkpt lat="53.214985" lon="6.575777">
        <ele>43.415173</ele>
        <time>2026-05-05T17:12:28.641Z</time>
      </trkpt>
      <trkpt lat="53.215072" lon="6.575648">
        <ele>43.525603</ele>
        <time>2026-05-05T17:12:32.642Z</time>
      </trkpt>
      <trkpt lat="53.215165" lon="6.575513">
        <ele>43.645238</ele>
        <time>2026-05-05T17:12:36.635Z</time>
      </trkpt>
      <trkpt lat="53.215248" lon="6.575400">
        <ele>43.749206</ele>
        <time>2026-05-05T17:12:39.639Z</time>
      </trkpt>
      <trkpt lat="53.215322" lon="6.575291">
        <ele>43.845004</ele>
        <time>2026-05-05T17:12:42.635Z</time>
      </trkpt>
      <trkpt lat="53.215409" lon="6.575165">
        <ele>43.956809</ele>
        <time>2026-05-05T17:12:46.640Z</time>
      </trkpt>
      <trkpt lat="53.215475" lon="6.575050">
        <ele>44.049415</ele>
        <time>2026-05-05T17:12:49.639Z</time>
      </trkpt>
      <trkpt lat="53.215544" lon="6.574946">
        <ele>44.139655</ele>
        <time>2026-05-05T17:12:52.642Z</time>
      </trkpt>
      <trkpt lat="53.215635" lon="6.574816">
        <ele>44.255920</ele>
        <time>2026-05-05T17:12:56.637Z</time>
      </trkpt>
      <trkpt lat="53.215711" lon="6.574707">
        <ele>44.353183</ele>
        <time>2026-05-05T17:12:59.640Z</time>
      </trkpt>
      <trkpt lat="53.215781" lon="6.574603">
        <ele>44.444146</ele>
        <time>2026-05-05T17:13:02.637Z</time>
      </trkpt>
      <trkpt lat="53.215864" lon="6.574498">
        <ele>44.545239</ele>
        <time>2026-05-05T17:13:06.639Z</time>
      </trkpt>
      <trkpt lat="53.215916" lon="6.574350">
        <ele>44.644998</ele>
        <time>2026-05-05T17:13:10.635Z</time>
      </trkpt>
      <trkpt lat="53.215878" lon="6.574199">
        <ele>44.740221</ele>
        <time>2026-05-05T17:13:15.640Z</time>
      </trkpt>
      <trkpt lat="53.215810" lon="6.574057">
        <ele>44.845926</ele>
        <time>2026-05-05T17:13:19.640Z</time>
      </trkpt>
      <trkpt lat="53.215742" lon="6.573899">
        <ele>44.959045</ele>
        <time>2026-05-05T17:13:23.642Z</time>
      </trkpt>
      <trkpt lat="53.215735" lon="6.573732">
        <ele>45.056370</ele>
        <time>2026-05-05T17:13:34.643Z</time>
      </trkpt>
      <trkpt lat="53.215838" lon="6.573638">
        <ele>45.170328</ele>
        <time>2026-05-05T17:13:38.635Z</time>
      </trkpt>
      <trkpt lat="53.215925" lon="6.573556">
        <ele>45.144203</ele>
        <time>2026-05-05T17:13:41.636Z</time>
      </trkpt>
      <trkpt lat="53.216005" lon="6.573485">
        <ele>45.096802</ele>
        <time>2026-05-05T17:13:44.635Z</time>
      </trkpt>
      <trkpt lat="53.216085" lon="6.573358">
        <ele>45.039051</ele>
        <time>2026-05-05T17:13:48.637Z</time>
      </trkpt>
      <trkpt lat="53.216064" lon="6.573198">
        <ele>44.987733</ele>
        <time>2026-05-05T17:13:51.643Z</time>
      </trkpt>
      <trkpt lat="53.216023" lon="6.573051">
        <ele>44.936926</ele>
        <time>2026-05-05T17:13:54.636Z</time>
      </trkpt>
      <trkpt lat="53.216002" lon="6.572887">
        <ele>44.884383</ele>
        <time>2026-05-05T17:13:58.633Z</time>
      </trkpt>
      <trkpt lat="53.216088" lon="6.572804">
        <ele>44.832413</ele>
        <time>2026-05-05T17:14:03.641Z</time>
      </trkpt>
      <trkpt lat="53.216161" lon="6.572711">
        <ele>44.784374</ele>
        <time>2026-05-05T17:14:07.637Z</time>
      </trkpt>
      <trkpt lat="53.216249" lon="6.572627">
        <ele>44.731340</ele>
        <time>2026-05-05T17:14:11.638Z</time>
      </trkpt>
      <trkpt lat="53.216332" lon="6.572529">
        <ele>44.678156</ele>
        <time>2026-05-05T17:14:16.637Z</time>
      </trkpt>
      <trkpt lat="53.216434" lon="6.572526">
        <ele>44.624779</ele>
        <time>2026-05-05T17:14:25.638Z</time>
      </trkpt>
      <trkpt lat="53.216486" lon="6.572669">
        <ele>44.572364</ele>
        <time>2026-05-05T17:14:29.647Z</time>
      </trkpt>
      <trkpt lat="53.216533" lon="6.572814">
        <ele>44.520707</ele>
        <time>2026-05-05T17:14:33.636Z</time>
      </trkpt>
      <trkpt lat="53.216596" lon="6.572952">
        <ele>44.466339</ele>
        <time>2026-05-05T17:14:38.634Z</time>
      </trkpt>
      <trkpt lat="53.216649" lon="6.573096">
        <ele>44.413384</ele>
        <time>2026-05-05T17:14:52.639Z</time>
      </trkpt>
      <trkpt lat="53.216676" lon="6.573254">
        <ele>44.361907</ele>
        <time>2026-05-05T17:14:56.642Z</time>
      </trkpt>
      <trkpt lat="53.216697" lon="6.573105">
        <ele>44.313950</ele>
        <time>2026-05-05T17:15:07.636Z</time>
      </trkpt>
      <trkpt lat="53.216651" lon="6.572945">
        <ele>44.258344</ele>
        <time>2026-05-05T17:15:12.638Z</time>
      </trkpt>
      <trkpt lat="53.216729" lon="6.572861">
        <ele>44.375944</ele>
        <time>2026-05-05T17:15:21.638Z</time>
      </trkpt>
      <trkpt lat="53.216822" lon="6.572777">
        <ele>44.572769</ele>
        <time>2026-05-05T17:15:27.640Z</time>
      </trkpt>
      <trkpt lat="53.216905" lon="6.572679">
        <ele>44.761995</ele>
        <time>2026-05-05T17:15:33.640Z</time>
      </trkpt>
      <trkpt lat="53.216982" lon="6.572591">
        <ele>44.935686</ele>
        <time>2026-05-05T17:15:37.635Z</time>
      </trkpt>
      <trkpt lat="53.217008" lon="6.572443">
        <ele>45.107613</ele>
        <time>2026-05-05T17:15:45.635Z</time>
      </trkpt>
      <trkpt lat="53.216948" lon="6.572323">
        <ele>45.281876</ele>
        <time>2026-05-05T17:15:50.640Z</time>
      </trkpt>
      <trkpt lat="53.217001" lon="6.572162">
        <ele>45.486673</ele>
        <time>2026-05-05T17:15:58.636Z</time>
      </trkpt>
      <trkpt lat="53.217056" lon="6.572033">
        <ele>45.663194</ele>
        <time>2026-05-05T17:16:02.641Z</time>
      </trkpt>
      <trkpt lat="53.217082" lon="6.571887">
        <ele>45.832982</ele>
        <time>2026-05-05T17:16:06.643Z</time>
      </trkpt>
      <trkpt lat="53.217048" lon="6.571721">
        <ele>46.028544</ele>
        <time>2026-05-05T17:16:10.639Z</time>
      </trkpt>
      <trkpt lat="53.217011" lon="6.571546">
        <ele>46.235416</ele>
        <time>2026-05-05T17:16:14.638Z</time>
      </trkpt>
      <trkpt lat="53.216989" lon="6.571368">
        <ele>46.438012</ele>
        <time>2026-05-05T17:16:18.637Z</time>
      </trkpt>
      <trkpt lat="53.217099" lon="6.571294">
        <ele>46.658774</ele>
        <time>2026-05-05T17:16:22.637Z</time>
      </trkpt>
      <trkpt lat="53.217203" lon="6.571247">
        <ele>46.859340</ele>
        <time>2026-05-05T17:16:26.631Z</time>
      </trkpt>
      <trkpt lat="53.217310" lon="6.571187">
        <ele>47.069457</ele>
        <time>2026-05-05T17:16:30.637Z</time>
      </trkpt>
      <trkpt lat="53.217415" lon="6.571125">
        <ele>47.276779</ele>
        <time>2026-05-05T17:16:34.636Z</time>
      </trkpt>
      <trkpt lat="53.217520" lon="6.571071">
        <ele>47.481302</ele>
        <time>2026-05-05T17:16:39.636Z</time>
      </trkpt>
      <trkpt lat="53.217590" lon="6.570947">
        <ele>47.642710</ele>
        <time>2026-05-05T17:16:44.639Z</time>
      </trkpt>
      <trkpt lat="53.217549" lon="6.570792">
        <ele>47.761303</ele>
        <time>2026-05-05T17:16:48.636Z</time>
      </trkpt>
      <trkpt lat="53.217512" lon="6.570624">
        <ele>47.886581</ele>
        <time>2026-05-05T17:16:52.635Z</time>
      </trkpt>
      <trkpt lat="53.217480" lon="6.570483">
        <ele>47.992113</ele>
        <time>2026-05-05T17:16:56.638Z</time>
      </trkpt>
      <trkpt lat="53.217440" lon="6.570318">
        <ele>48.116696</ele>
        <time>2026-05-05T17:17:01.636Z</time>
      </trkpt>
      <trkpt lat="53.217399" lon="6.570158">
        <ele>48.238498</ele>
        <time>2026-05-05T17:17:05.631Z</time>
      </trkpt>
      <trkpt lat="53.217358" lon="6.570007">
        <ele>48.354536</ele>
        <time>2026-05-05T17:17:09.635Z</time>
      </trkpt>
      <trkpt lat="53.217319" lon="6.569867">
        <ele>48.462602</ele>
        <time>2026-05-05T17:17:14.635Z</time>
      </trkpt>
      <trkpt lat="53.217353" lon="6.569706">
        <ele>48.582084</ele>
        <time>2026-05-05T17:17:21.636Z</time>
      </trkpt>
      <trkpt lat="53.217440" lon="6.569647">
        <ele>48.691835</ele>
        <time>2026-05-05T17:17:24.643Z</time>
      </trkpt>
      <trkpt lat="53.217528" lon="6.569600">
        <ele>48.799823</ele>
        <time>2026-05-05T17:17:27.638Z</time>
      </trkpt>
      <trkpt lat="53.217615" lon="6.569534">
        <ele>48.911510</ele>
        <time>2026-05-05T17:17:30.642Z</time>
      </trkpt>
      <trkpt lat="53.217697" lon="6.569468">
        <ele>49.017904</ele>
        <time>2026-05-05T17:17:33.634Z</time>
      </trkpt>
      <trkpt lat="53.217789" lon="6.569402">
        <ele>49.134936</ele>
        <time>2026-05-05T17:17:36.640Z</time>
      </trkpt>
      <trkpt lat="53.217895" lon="6.569321">
        <ele>49.271185</ele>
        <time>2026-05-05T17:17:40.640Z</time>
      </trkpt>
      <trkpt lat="53.217999" lon="6.569241">
        <ele>49.405016</ele>
        <time>2026-05-05T17:17:44.635Z</time>
      </trkpt>
      <trkpt lat="53.218088" lon="6.569183">
        <ele>49.516681</ele>
        <time>2026-05-05T17:17:47.634Z</time>
      </trkpt>
      <trkpt lat="53.218174" lon="6.569133">
        <ele>49.623116</ele>
        <time>2026-05-05T17:17:50.633Z</time>
      </trkpt>
      <trkpt lat="53.218282" lon="6.569073">
        <ele>49.726440</ele>
        <time>2026-05-05T17:17:54.639Z</time>
      </trkpt>
      <trkpt lat="53.218348" lon="6.569223">
        <ele>49.791467</ele>
        <time>2026-05-05T17:17:59.639Z</time>
      </trkpt>
      <trkpt lat="53.218381" lon="6.569373">
        <ele>49.847292</ele>
        <time>2026-05-05T17:18:03.637Z</time>
      </trkpt>
      <trkpt lat="53.218362" lon="6.569525">
        <ele>49.901535</ele>
        <time>2026-05-05T17:18:09.643Z</time>
      </trkpt>
      <trkpt lat="53.218328" lon="6.569690">
        <ele>49.962493</ele>
        <time>2026-05-05T17:18:14.637Z</time>
      </trkpt>
      <trkpt lat="53.218313" lon="6.569843">
        <ele>50.016653</ele>
        <time>2026-05-05T17:18:18.642Z</time>
      </trkpt>
      <trkpt lat="53.218331" lon="6.570005">
        <ele>50.074211</ele>
        <time>2026-05-05T17:18:22.644Z</time>
      </trkpt>
      <trkpt lat="53.218349" lon="6.570185">
        <ele>50.137962</ele>
        <time>2026-05-05T17:18:26.637Z</time>
      </trkpt>
      <trkpt lat="53.218359" lon="6.570361">
        <ele>50.199721</ele>
        <time>2026-05-05T17:18:31.639Z</time>
      </trkpt>
      <trkpt lat="53.218378" lon="6.570523">
        <ele>50.257388</ele>
        <time>2026-05-05T17:18:35.644Z</time>
      </trkpt>
      <trkpt lat="53.218399" lon="6.570696">
        <ele>50.319052</ele>
        <time>2026-05-05T17:18:39.637Z</time>
      </trkpt>
      <trkpt lat="53.218426" lon="6.570890">
        <ele>50.388629</ele>
        <time>2026-05-05T17:18:43.636Z</time>
      </trkpt>
      <trkpt lat="53.218447" lon="6.571067">
        <ele>50.451663</ele>
        <time>2026-05-05T17:18:47.639Z</time>
      </trkpt>
      <trkpt lat="53.218502" lon="6.571214">
        <ele>50.512216</ele>
        <time>2026-05-05T17:18:51.648Z</time>
      </trkpt>
      <trkpt lat="53.218603" lon="6.571193">
        <ele>50.571597</ele>
        <time>2026-05-05T17:18:55.635Z</time>
      </trkpt>
      <trkpt lat="53.218703" lon="6.571149">
        <ele>50.631930</ele>
        <time>2026-05-05T17:18:59.639Z</time>
      </trkpt>
      <trkpt lat="53.218806" lon="6.571097">
        <ele>50.694708</ele>
        <time>2026-05-05T17:19:04.637Z</time>
      </trkpt>
      <trkpt lat="53.218977" lon="6.570943">
        <ele>50.459885</ele>
        <time>2026-05-05T17:20:17.650Z</time>
      </trkpt>
      <trkpt lat="53.219066" lon="6.570887">
        <ele>50.203050</ele>
        <time>2026-05-05T17:20:21.640Z</time>
      </trkpt>
      <trkpt lat="53.219167" lon="6.570851">
        <ele>49.924158</ele>
        <time>2026-05-05T17:20:26.633Z</time>
      </trkpt>
      <trkpt lat="53.219257" lon="6.570830">
        <ele>49.678754</ele>
        <time>2026-05-05T17:20:30.638Z</time>
      </trkpt>
      <trkpt lat="53.219373" lon="6.570778">
        <ele>49.354410</ele>
        <time>2026-05-05T17:20:35.635Z</time>
      </trkpt>
      <trkpt lat="53.219462" lon="6.570731">
        <ele>49.102338</ele>
        <time>2026-05-05T17:20:38.640Z</time>
      </trkpt>
      <trkpt lat="53.219573" lon="6.570693">
        <ele>48.796351</ele>
        <time>2026-05-05T17:20:42.639Z</time>
      </trkpt>
      <trkpt lat="53.219682" lon="6.570633">
        <ele>48.486423</ele>
        <time>2026-05-05T17:20:49.641Z</time>
      </trkpt>
      <trkpt lat="53.219792" lon="6.570553">
        <ele>48.162427</ele>
        <time>2026-05-05T17:20:53.640Z</time>
      </trkpt>
      <trkpt lat="53.219887" lon="6.570479">
        <ele>47.879350</ele>
        <time>2026-05-05T17:20:57.638Z</time>
      </trkpt>
      <trkpt lat="53.219994" lon="6.570415">
        <ele>47.572427</ele>
        <time>2026-05-05T17:21:01.635Z</time>
      </trkpt>
      <trkpt lat="53.220083" lon="6.570346">
        <ele>47.307452</ele>
        <time>2026-05-05T17:21:04.646Z</time>
      </trkpt>
      <trkpt lat="53.220169" lon="6.570270">
        <ele>47.044703</ele>
        <time>2026-05-05T17:21:07.643Z</time>
      </trkpt>
      <trkpt lat="53.220254" lon="6.570186">
        <ele>46.777990</ele>
        <time>2026-05-05T17:21:10.635Z</time>
      </trkpt>
      <trkpt lat="53.220342" lon="6.570100">
        <ele>46.502654</ele>
        <time>2026-05-05T17:21:13.636Z</time>
      </trkpt>
      <trkpt lat="53.220433" lon="6.569999">
        <ele>46.207596</ele>
        <time>2026-05-05T17:21:16.635Z</time>
      </trkpt>
      <trkpt lat="53.220522" lon="6.569903">
        <ele>45.921487</ele>
        <time>2026-05-05T17:21:19.634Z</time>
      </trkpt>
      <trkpt lat="53.220605" lon="6.569821">
        <ele>45.728593</ele>
        <time>2026-05-05T17:21:22.642Z</time>
      </trkpt>
      <trkpt lat="53.220681" lon="6.569741">
        <ele>45.557870</ele>
        <time>2026-05-05T17:21:25.636Z</time>
      </trkpt>
      <trkpt lat="53.220758" lon="6.569660">
        <ele>45.384933</ele>
        <time>2026-05-05T17:21:28.635Z</time>
      </trkpt>
      <trkpt lat="53.220846" lon="6.569552">
        <ele>45.177402</ele>
        <time>2026-05-05T17:21:32.641Z</time>
      </trkpt>
      <trkpt lat="53.220936" lon="6.569510">
        <ele>44.999815</ele>
        <time>2026-05-05T17:21:36.635Z</time>
      </trkpt>
      <trkpt lat="53.221036" lon="6.569609">
        <ele>44.778897</ele>
        <time>2026-05-05T17:21:40.631Z</time>
      </trkpt>
      <trkpt lat="53.221120" lon="6.569687">
        <ele>44.596250</ele>
        <time>2026-05-05T17:21:43.635Z</time>
      </trkpt>
      <trkpt lat="53.221202" lon="6.569763">
        <ele>44.418031</ele>
        <time>2026-05-05T17:21:46.631Z</time>
      </trkpt>
      <trkpt lat="53.221303" lon="6.569866">
        <ele>44.193139</ele>
        <time>2026-05-05T17:21:50.639Z</time>
      </trkpt>
      <trkpt lat="53.221392" lon="6.569897">
        <ele>44.020364</ele>
        <time>2026-05-05T17:21:56.643Z</time>
      </trkpt>
      <trkpt lat="53.221449" lon="6.569730">
        <ele>43.801640</ele>
        <time>2026-05-05T17:22:00.642Z</time>
      </trkpt>
      <trkpt lat="53.221527" lon="6.569575">
        <ele>43.571257</ele>
        <time>2026-05-05T17:22:03.643Z</time>
      </trkpt>
      <trkpt lat="53.221579" lon="6.569376">
        <ele>43.324206</ele>
        <time>2026-05-05T17:22:06.640Z</time>
      </trkpt>
      <trkpt lat="53.221631" lon="6.569198">
        <ele>43.098851</ele>
        <time>2026-05-05T17:22:09.643Z</time>
      </trkpt>
      <trkpt lat="53.221686" lon="6.569019">
        <ele>42.869928</ele>
        <time>2026-05-05T17:22:12.646Z</time>
      </trkpt>
      <trkpt lat="53.221734" lon="6.568860">
        <ele>42.667319</ele>
        <time>2026-05-05T17:22:15.635Z</time>
      </trkpt>
      <trkpt lat="53.221779" lon="6.568723">
        <ele>42.489521</ele>
        <time>2026-05-05T17:22:18.641Z</time>
      </trkpt>
      <trkpt lat="53.221827" lon="6.568587">
        <ele>42.439151</ele>
        <time>2026-05-05T17:22:21.631Z</time>
      </trkpt>
      <trkpt lat="53.221902" lon="6.568456">
        <ele>42.398562</ele>
        <time>2026-05-05T17:22:25.636Z</time>
      </trkpt>
      <trkpt lat="53.221996" lon="6.568494">
        <ele>42.362390</ele>
        <time>2026-05-05T17:22:30.632Z</time>
      </trkpt>
      <trkpt lat="53.222069" lon="6.568629">
        <ele>42.321655</ele>
        <time>2026-05-05T17:22:36.639Z</time>
      </trkpt>
      <trkpt lat="53.222172" lon="6.568618">
        <ele>42.283052</ele>
        <time>2026-05-05T17:22:40.635Z</time>
      </trkpt>
      <trkpt lat="53.222269" lon="6.568688">
        <ele>42.243531</ele>
        <time>2026-05-05T17:22:43.640Z</time>
      </trkpt>
      <trkpt lat="53.222357" lon="6.568816">
        <ele>42.199886</ele>
        <time>2026-05-05T17:22:46.636Z</time>
      </trkpt>
      <trkpt lat="53.222440" lon="6.568947">
        <ele>42.157176</ele>
        <time>2026-05-05T17:22:49.637Z</time>
      </trkpt>
      <trkpt lat="53.222520" lon="6.569070">
        <ele>42.116507</ele>
        <time>2026-05-05T17:22:52.638Z</time>
      </trkpt>
      <trkpt lat="53.222596" lon="6.569188">
        <ele>42.077698</ele>
        <time>2026-05-05T17:22:55.648Z</time>
      </trkpt>
      <trkpt lat="53.222682" lon="6.569323">
        <ele>42.033556</ele>
        <time>2026-05-05T17:22:58.635Z</time>
      </trkpt>
      <trkpt lat="53.222774" lon="6.569454">
        <ele>41.988340</ele>
        <time>2026-05-05T17:23:01.634Z</time>
      </trkpt>
      <trkpt lat="53.222861" lon="6.569568">
        <ele>41.946982</ele>
        <time>2026-05-05T17:23:04.634Z</time>
      </trkpt>
      <trkpt lat="53.222949" lon="6.569670">
        <ele>41.906920</ele>
        <time>2026-05-05T17:23:07.635Z</time>
      </trkpt>
      <trkpt lat="53.223052" lon="6.569767">
        <ele>41.862695</ele>
        <time>2026-05-05T17:23:10.640Z</time>
      </trkpt>
      <trkpt lat="53.223153" lon="6.569845">
        <ele>41.821077</ele>
        <time>2026-05-05T17:23:13.632Z</time>
      </trkpt>
      <trkpt lat="53.223249" lon="6.569913">
        <ele>41.805915</ele>
        <time>2026-05-05T17:23:16.636Z</time>
      </trkpt>
      <trkpt lat="53.223348" lon="6.569995">
        <ele>41.826072</ele>
        <time>2026-05-05T17:23:19.647Z</time>
      </trkpt>
      <trkpt lat="53.223448" lon="6.569982">
        <ele>41.844368</ele>
        <time>2026-05-05T17:23:23.637Z</time>
      </trkpt>
      <trkpt lat="53.223508" lon="6.569839">
        <ele>41.863438</ele>
        <time>2026-05-05T17:23:27.639Z</time>
      </trkpt>
      <trkpt lat="53.223573" lon="6.569719">
        <ele>41.881110</ele>
        <time>2026-05-05T17:23:30.638Z</time>
      </trkpt>
      <trkpt lat="53.223630" lon="6.569556">
        <ele>41.901725</ele>
        <time>2026-05-05T17:23:34.637Z</time>
      </trkpt>
      <trkpt lat="53.223610" lon="6.569400">
        <ele>41.919147</ele>
        <time>2026-05-05T17:23:37.634Z</time>
      </trkpt>
      <trkpt lat="53.223556" lon="6.569227">
        <ele>41.940453</ele>
        <time>2026-05-05T17:23:40.636Z</time>
      </trkpt>
      <trkpt lat="53.223504" lon="6.569060">
        <ele>41.961010</ele>
        <time>2026-05-05T17:23:43.637Z</time>
      </trkpt>
      <trkpt lat="53.223452" lon="6.568915">
        <ele>41.979468</ele>
        <time>2026-05-05T17:23:46.635Z</time>
      </trkpt>
      <trkpt lat="53.223451" lon="6.568730">
        <ele>41.999672</ele>
        <time>2026-05-05T17:23:50.632Z</time>
      </trkpt>
      <trkpt lat="53.223520" lon="6.568599">
        <ele>42.018727</ele>
        <time>2026-05-05T17:23:54.632Z</time>
      </trkpt>
      <trkpt lat="53.223579" lon="6.568475">
        <ele>42.036024</ele>
        <time>2026-05-05T17:23:57.638Z</time>
      </trkpt>
      <trkpt lat="53.223637" lon="6.568360">
        <ele>42.052445</ele>
        <time>2026-05-05T17:24:00.643Z</time>
      </trkpt>
      <trkpt lat="53.223691" lon="6.568229">
        <ele>42.069814</ele>
        <time>2026-05-05T17:24:03.637Z</time>
      </trkpt>
      <trkpt lat="53.223740" lon="6.568099">
        <ele>42.086590</ele>
        <time>2026-05-05T17:24:06.633Z</time>
      </trkpt>
      <trkpt lat="53.223792" lon="6.567952">
        <ele>42.105236</ele>
        <time>2026-05-05T17:24:10.637Z</time>
      </trkpt>
      <trkpt lat="53.223914" lon="6.567761">
        <ele>42.126186</ele>
        <time>2026-05-05T17:25:37.643Z</time>
      </trkpt>
      <trkpt lat="53.223944" lon="6.567608">
        <ele>42.126186</ele>
        <time>2026-05-05T17:25:41.645Z</time>
      </trkpt>
      <trkpt lat="53.223957" lon="6.567454">
        <ele>42.126186</ele>
        <time>2026-05-05T17:25:47.632Z</time>
      </trkpt>
      <trkpt lat="53.223924" lon="6.567296">
        <ele>42.126186</ele>
        <time>2026-05-05T17:25:54.638Z</time>
      </trkpt>
      <trkpt lat="53.223863" lon="6.567180">
        <ele>42.126186</ele>
        <time>2026-05-05T17:25:58.633Z</time>
      </trkpt>
      <trkpt lat="53.223801" lon="6.567019">
        <ele>42.126186</ele>
        <time>2026-05-05T17:26:02.645Z</time>
      </trkpt>
      <trkpt lat="53.223761" lon="6.566880">
        <ele>42.126186</ele>
        <time>2026-05-05T17:26:06.639Z</time>
      </trkpt>
      <trkpt lat="53.223705" lon="6.566748">
        <ele>42.126186</ele>
        <time>2026-05-05T17:26:11.637Z</time>
      </trkpt>
      <trkpt lat="53.223762" lon="6.566584">
        <ele>42.126186</ele>
        <time>2026-05-05T17:26:18.637Z</time>
      </trkpt>
      <trkpt lat="53.223749" lon="6.566413">
        <ele>42.126186</ele>
        <time>2026-05-05T17:26:23.639Z</time>
      </trkpt>
      <trkpt lat="53.223826" lon="6.566308">
        <ele>42.126186</ele>
        <time>2026-05-05T17:26:27.639Z</time>
      </trkpt>
      <trkpt lat="53.223904" lon="6.566184">
        <ele>42.126186</ele>
        <time>2026-05-05T17:26:32.642Z</time>
      </trkpt>
      <trkpt lat="53.223983" lon="6.566086">
        <ele>42.126186</ele>
        <time>2026-05-05T17:26:37.641Z</time>
      </trkpt>
      <trkpt lat="53.224073" lon="6.566112">
        <ele>42.126186</ele>
        <time>2026-05-05T17:26:43.643Z</time>
      </trkpt>
    </trkseg>
  </trk>
</gpx>